Darstellungsparameter: Aktuell verwendete Einstellungen:
Skalierung der Graphiken ... ?
xyx+y,   Skalierungsfaktor:      Skalierung: Modus: x, Faktor: 1
Darstellungszeitraum ... ?
Vom - - bis: - -   Zeitraum: 04.09.2010 - 04.10.2010
Min/Max/Avg-Anzeige ... ?
Zeige MMA aktuell
Zeige MMA Monat
Zeige MMA alles
Zeige --A aktuell
Zeige --A Monat
Zeige --A alles
Keine MMA-Anzeige
MMA:
Minimum Maximum Average (ber die Originaldaten)
MMA-Basis: 23.02.2003 - 05.10.2020
Quicknavigation für Darstellung... ?
Tage:      1T, 2T, 3T, 5T -1T -2T -3T -5T +1T +2T +3T +5T
Wochen: 1W, 2W, 3W -1W -2W -3W +1W +2W +3W
Monate: 1M, 3M, 6M -1M -3M -6M +1M +3M +6M
Jahre:    1J, 3J, 5J, 10J -1J -3J -5J -10J +1J +3J +5J +10J
Nutze für die Darstellung ... ?
Originaldaten oder Mittelwerte auf ...
Stundenbasis Tagesbasis Wochenbasis
Monatsbasis Jahresbasis      Datenbasis: Original-Daten
Darstellen als:
Statistik (Auto) Statistik J:M      Darstellung:
Zur Graphik,    zurück zur Übersicht aller Sensoren.
 
Tabellarische Datenbersicht: ?
 
Sensor: Nr:Datum:Temp:Abs-Feuchte:Windchill:Wind:
Aussen-T/F 1 04-09-2010 00:02:03 15.2 C 9.22 g/m*3 15.2 C 0 km/h
2 04-09-2010 00:14:03 15.1 C 9.29 g/m*3 15.1 C 0 km/h
3 04-09-2010 00:26:03 15.1 C 9.29 g/m*3 15.1 C 0 km/h
4 04-09-2010 00:38:03 15.1 C 9.29 g/m*3 15.1 C 0 km/h
5 04-09-2010 00:50:03 15 C 9.36 g/m*3 15 C 0 km/h
6 04-09-2010 01:02:03 15 C 9.36 g/m*3 15 C 0 km/h
7 04-09-2010 01:14:03 15 C 9.36 g/m*3 15 C 0 km/h
8 04-09-2010 01:26:04 14.7 C 9.44 g/m*3 14.7 C 0 km/h
9 04-09-2010 01:38:04 14.7 C 9.44 g/m*3 14.7 C 0 km/h
10 04-09-2010 01:50:04 14.7 C 9.44 g/m*3 14.7 C 0 km/h
11 04-09-2010 02:02:04 14.5 C 9.45 g/m*3 14.5 C 0 km/h
12 04-09-2010 02:14:04 14.4 C 9.39 g/m*3 14.4 C 0 km/h
13 04-09-2010 02:26:04 14.2 C 9.4 g/m*3 14.2 C 0 km/h
14 04-09-2010 02:38:04 14.2 C 9.4 g/m*3 14.2 C 0 km/h
15 04-09-2010 02:50:04 14.1 C 9.34 g/m*3 14.1 C 0 km/h
16 04-09-2010 03:02:04 14 C 9.29 g/m*3 14 C 0 km/h
17 04-09-2010 03:14:04 13.7 C 9.35 g/m*3 13.7 C 0 km/h
18 04-09-2010 03:26:04 13.7 C 9.35 g/m*3 13.7 C 0 km/h
19 04-09-2010 03:38:04 13.6 C 9.53 g/m*3 13.6 C 0 km/h
20 04-09-2010 03:50:04 13.6 C 9.53 g/m*3 13.6 C 0 km/h
21 04-09-2010 04:02:04 13.4 C 9.42 g/m*3 13.4 C 0 km/h
22 04-09-2010 04:14:04 13.3 C 9.47 g/m*3 13.3 C 0 km/h
23 04-09-2010 04:26:04 13.1 C 9.36 g/m*3 13.1 C 0 km/h
24 04-09-2010 04:38:04 13.2 C 9.64 g/m*3 13.2 C 0 km/h
25 04-09-2010 04:50:04 13 C 9.53 g/m*3 13 C 0 km/h
Sensor: Nr:Datum:Temp:Abs-Feuchte:Windchill:Wind:
Aussen-T/F 26 04-09-2010 05:02:04 13.1 C 9.59 g/m*3 13.1 C 0 km/h
27 04-09-2010 05:14:04 13.2 C 9.64 g/m*3 13.2 C 0 km/h
28 04-09-2010 05:26:04 13.2 C 9.64 g/m*3 13.2 C 0 km/h
29 04-09-2010 05:38:05 13.1 C 9.59 g/m*3 13.1 C 0 km/h
30 04-09-2010 05:50:05 12.9 C 9.47 g/m*3 12.9 C 0 km/h
31 04-09-2010 06:02:05 12.9 C 9.47 g/m*3 12.9 C 0 km/h
32 04-09-2010 06:14:05 12.7 C 9.35 g/m*3 12.7 C 0 km/h
33 04-09-2010 06:26:05 12.5 C 9.24 g/m*3 12.5 C 0 km/h
34 04-09-2010 06:38:05 12.4 C 9.29 g/m*3 12.4 C 0 km/h
35 04-09-2010 06:50:05 12.2 C 9.17 g/m*3 12.2 C 0 km/h
36 04-09-2010 07:02:05 12 C 9.17 g/m*3 12 C 0 km/h
37 04-09-2010 07:14:05 12 C 9.17 g/m*3 12 C 0 km/h
38 04-09-2010 07:26:05 12 C 9.17 g/m*3 12 C 0 km/h
39 04-09-2010 07:38:05 12.2 C 9.39 g/m*3 12.2 C 0 km/h
40 04-09-2010 07:50:02 12.2 C 9.39 g/m*3 12.2 C 0 km/h
41 04-09-2010 08:02:02 12.5 C 9.68 g/m*3 12.5 C 0 km/h
42 04-09-2010 08:14:02 12.7 C 9.8 g/m*3 12.7 C 0 km/h
43 04-09-2010 08:26:03 12.7 C 9.68 g/m*3 12.7 C 0 km/h
44 04-09-2010 08:38:02 12.9 C 9.81 g/m*3 12.9 C 0 km/h
45 04-09-2010 08:50:02 13.2 C 9.87 g/m*3 13.2 C 0 km/h
46 04-09-2010 09:02:02 13.7 C 10.07 g/m*3 13.7 C 0 km/h
47 04-09-2010 09:14:02 14.3 C 10.2 g/m*3 14.3 C 0 km/h
48 04-09-2010 09:26:02 14.6 C 10.01 g/m*3 14.6 C 0 km/h
49 04-09-2010 09:38:02 14.7 C 9.82 g/m*3 14.7 C 0 km/h
50 04-09-2010 09:50:02 14.9 C 9.69 g/m*3 14.9 C 0 km/h
Sensor: Nr:Datum:Temp:Abs-Feuchte:Windchill:Wind:
Aussen-T/F 51 04-09-2010 10:02:02 15.2 C 9.61 g/m*3 15.2 C 0 km/h
52 04-09-2010 10:14:02 15.6 C 9.58 g/m*3 15.6 C 0 km/h
53 04-09-2010 10:26:02 15.9 C 9.62 g/m*3 15.9 C 0 km/h
54 04-09-2010 10:38:02 17 C 9.41 g/m*3 17 C 0 km/h
55 04-09-2010 10:50:02 17.8 C 9.11 g/m*3 17.8 C 0 km/h
56 04-09-2010 11:02:02 17.8 C 9.11 g/m*3 17.8 C 0 km/h
57 04-09-2010 11:14:02 18.1 C 8.96 g/m*3 18.1 C 0 km/h
58 04-09-2010 11:26:03 18.9 C 8.75 g/m*3 18.9 C 0 km/h
59 04-09-2010 11:38:02 19.6 C 8.61 g/m*3 19.6 C 0 km/h
60 04-09-2010 11:50:02 20 C 8.3 g/m*3 20 C 0 km/h
61 04-09-2010 12:02:02 18.3 C 8.13 g/m*3 18.3 C 0 km/h
62 04-09-2010 12:14:02 19.7 C 8.49 g/m*3 19.7 C 0 km/h
63 04-09-2010 12:26:02 19 C 7.33 g/m*3 19 C 0 km/h
64 04-09-2010 12:38:02 18.5 C 7.59 g/m*3 18.5 C 0 km/h
65 04-09-2010 12:50:02 18.8 C 7.89 g/m*3 18.8 C 0 km/h
66 04-09-2010 13:02:02 19.2 C 7.42 g/m*3 19.2 C 0 km/h
67 04-09-2010 13:14:02 19.9 C 7.9 g/m*3 19.9 C 0 km/h
68 04-09-2010 13:26:02 19.9 C 7.56 g/m*3 19.9 C 0 km/h
69 04-09-2010 13:38:01 18.8 C 7.73 g/m*3 18.8 C 0 km/h
70 04-09-2010 13:50:02 20.1 C 7.47 g/m*3 20.1 C 0 km/h
71 04-09-2010 14:02:01 21.5 C 6.98 g/m*3 21.5 C 0 km/h
72 04-09-2010 14:14:01 22 C 6.79 g/m*3 22 C 0 km/h
73 04-09-2010 14:26:02 22.2 C 6.68 g/m*3 22.2 C 0 km/h
74 04-09-2010 14:38:02 22.1 C 6.83 g/m*3 22.1 C 0 km/h
75 04-09-2010 14:50:02 23.2 C 6.24 g/m*3 23.2 C 0 km/h
Sensor: Nr:Datum:Temp:Abs-Feuchte:Windchill:Wind:
Aussen-T/F 76 04-09-2010 15:02:02 23.4 C 6.1 g/m*3 23.4 C 0 km/h
77 04-09-2010 15:14:02 24.3 C 6.64 g/m*3 24.3 C 0 km/h
78 04-09-2010 15:26:02 24.1 C 5.91 g/m*3 24.1 C 0 km/h
79 04-09-2010 15:38:02 21.8 C 6.14 g/m*3 21.8 C 0 km/h
80 04-09-2010 15:50:01 20.8 C 6.52 g/m*3 20.8 C 0 km/h
81 04-09-2010 16:02:02 22.8 C 5.69 g/m*3 22.8 C 0 km/h
82 04-09-2010 16:14:02 24.7 C 5.21 g/m*3 24.7 C 0 km/h
83 04-09-2010 16:26:01 22.2 C 5.5 g/m*3 22.2 C 0 km/h
84 04-09-2010 16:38:01 21.3 C 5.59 g/m*3 21.3 C 0 km/h
85 04-09-2010 16:50:01 21.1 C 5.53 g/m*3 21.1 C 0 km/h
86 04-09-2010 17:02:02 22.4 C 5.76 g/m*3 22.4 C 0 km/h
87 04-09-2010 17:14:02 23.3 C 5.23 g/m*3 23.3 C 0 km/h
88 04-09-2010 17:26:01 23.5 C 5.08 g/m*3 23.5 C 0 km/h
89 04-09-2010 17:38:01 22.9 C 4.09 g/m*3 22.9 C 0 km/h
90 04-09-2010 17:50:01 23.5 C 4.23 g/m*3 23.5 C 0 km/h
91 04-09-2010 18:02:01 22.9 C 4.29 g/m*3 22.9 C 0 km/h
92 04-09-2010 18:14:01 23.2 C 4.57 g/m*3 23.2 C 0 km/h
93 04-09-2010 18:26:02 23.1 C 4.13 g/m*3 23.1 C 0 km/h
94 04-09-2010 18:38:01 22.9 C 4.29 g/m*3 22.9 C 0 km/h
95 04-09-2010 18:50:02 21.6 C 4.55 g/m*3 21.6 C 0 km/h
96 04-09-2010 19:02:01 21.2 C 5.19 g/m*3 21.2 C 0 km/h
97 04-09-2010 19:14:01 20.7 C 5.04 g/m*3 20.7 C 0 km/h
98 04-09-2010 19:26:02 19.4 C 5.34 g/m*3 19.4 C 0 km/h
99 04-09-2010 19:38:01 19 C 5.7 g/m*3 19 C 0 km/h
100 04-09-2010 19:50:03 18.4 C 6.29 g/m*3 18.4 C 0 km/h
Sensor: Nr:Datum:Temp:Abs-Feuchte:Windchill:Wind:
Aussen-T/F 101 04-09-2010 20:02:02 17.5 C 6.41 g/m*3 17.5 C 0 km/h
102 04-09-2010 20:14:02 16.6 C 6.36 g/m*3 16.6 C 0 km/h
103 04-09-2010 20:26:03 15.9 C 6.5 g/m*3 15.9 C 0 km/h
104 04-09-2010 20:38:02 15.5 C 6.61 g/m*3 15.5 C 0 km/h
105 04-09-2010 20:50:02 15.2 C 6.75 g/m*3 15.2 C 0 km/h
106 04-09-2010 21:02:02 15.2 C 6.88 g/m*3 15.2 C 0 km/h
107 04-09-2010 21:14:02 14.8 C 6.84 g/m*3 14.8 C 0 km/h
108 04-09-2010 21:26:02 14.8 C 6.97 g/m*3 14.8 C 0 km/h
109 04-09-2010 21:38:01 15 C 6.92 g/m*3 15 C 0 km/h
110 04-09-2010 21:50:02 14.8 C 7.09 g/m*3 14.8 C 0 km/h
111 04-09-2010 22:02:02 14.8 C 7.22 g/m*3 14.8 C 0 km/h
112 04-09-2010 22:14:03 14.4 C 7.17 g/m*3 14.4 C 0 km/h
113 04-09-2010 22:26:01 14.1 C 7.28 g/m*3 14.1 C 0 km/h
114 04-09-2010 22:38:02 14 C 7.36 g/m*3 14 C 0 km/h
115 04-09-2010 22:50:02 13.5 C 7.25 g/m*3 13.5 C 0 km/h
116 04-09-2010 23:03:03 13.5 C 7.49 g/m*3 13.5 C 0 km/h
117 04-09-2010 23:15:03 13.2 C 7.46 g/m*3 13.2 C 0 km/h
118 04-09-2010 23:27:03 13.1 C 7.53 g/m*3 13.1 C 0 km/h
119 04-09-2010 23:39:03 13 C 7.71 g/m*3 13 C 0 km/h
120 04-09-2010 23:51:03 12.8 C 7.73 g/m*3 12.8 C 0 km/h
121 05-09-2010 00:03:03 12.7 C 7.68 g/m*3 12.7 C 0 km/h
122 05-09-2010 00:15:03 12.3 C 7.49 g/m*3 12.3 C 0 km/h
123 05-09-2010 00:27:03 12.1 C 7.61 g/m*3 12.1 C 0 km/h
124 05-09-2010 00:39:03 11.9 C 7.63 g/m*3 11.9 C 0 km/h
125 05-09-2010 00:51:03 11.8 C 7.68 g/m*3 11.8 C 0 km/h
Sensor: Nr:Datum:Temp:Abs-Feuchte:Windchill:Wind:
Aussen-T/F 126 05-09-2010 01:03:03 11.6 C 7.59 g/m*3 11.6 C 0 km/h
127 05-09-2010 01:15:03 11.4 C 7.49 g/m*3 11.4 C 0 km/h
128 05-09-2010 01:27:03 11.2 C 7.6 g/m*3 11.2 C 0 km/h
129 05-09-2010 01:39:03 11 C 7.51 g/m*3 11 C 0 km/h
130 05-09-2010 01:51:03 10.9 C 7.46 g/m*3 10.9 C 0 km/h
131 05-09-2010 02:03:03 10.8 C 7.61 g/m*3 10.8 C 0 km/h
132 05-09-2010 02:15:03 10.6 C 7.52 g/m*3 10.6 C 0 km/h
133 05-09-2010 02:27:04 10.4 C 7.52 g/m*3 10.4 C 0 km/h
134 05-09-2010 02:39:04 10.3 C 7.47 g/m*3 10.3 C 0 km/h
135 05-09-2010 02:51:04 10.1 C 7.47 g/m*3 10.1 C 0 km/h
136 05-09-2010 03:03:04 10 C 7.33 g/m*3 10 C 0 km/h
137 05-09-2010 03:15:04 9.8 C 7.42 g/m*3 9.8 C 0 km/h
138 05-09-2010 03:27:04 9.7 C 7.47 g/m*3 9.7 C 0 km/h
139 05-09-2010 03:39:04 9.6 C 7.42 g/m*3 9.6 C 0 km/h
140 05-09-2010 03:51:04 9.5 C 7.37 g/m*3 9.5 C 0 km/h
141 05-09-2010 04:03:04 9.2 C 7.23 g/m*3 9.2 C 0 km/h
142 05-09-2010 04:15:04 9.2 C 7.23 g/m*3 9.2 C 0 km/h
143 05-09-2010 04:27:04 9.2 C 7.32 g/m*3 9.2 C 0 km/h
144 05-09-2010 04:39:04 9.1 C 7.28 g/m*3 9.1 C 0 km/h
145 05-09-2010 04:51:04 8.9 C 7.27 g/m*3 8.9 C 0 km/h
146 05-09-2010 05:03:04 8.9 C 7.27 g/m*3 8.9 C 0 km/h
147 05-09-2010 05:15:04 8.8 C 7.31 g/m*3 8.8 C 0 km/h
148 05-09-2010 05:27:04 8.5 C 7.17 g/m*3 8.5 C 0 km/h
149 05-09-2010 05:39:04 8.5 C 7.26 g/m*3 8.5 C 0 km/h
150 05-09-2010 05:51:04 8.5 C 7.34 g/m*3 8.5 C 0 km/h
Sensor: Nr:Datum:Temp:Abs-Feuchte:Windchill:Wind:
Aussen-T/F 151 05-09-2010 06:03:04 8.3 C 7.33 g/m*3 8.3 C 0 km/h
152 05-09-2010 06:15:04 8.1 C 7.24 g/m*3 8.1 C 0 km/h
153 05-09-2010 06:27:04 8.1 C 7.24 g/m*3 8.1 C 0 km/h
154 05-09-2010 06:39:04 8 C 7.19 g/m*3 8 C 0 km/h
155 05-09-2010 06:51:05 7.9 C 7.23 g/m*3 7.9 C 0 km/h
156 05-09-2010 07:03:05 7.9 C 7.23 g/m*3 7.9 C 0 km/h
157 05-09-2010 07:15:05 8.2 C 7.37 g/m*3 8.2 C 0 km/h
158 05-09-2010 07:27:05 8.5 C 7.6 g/m*3 8.5 C 0 km/h
159 05-09-2010 07:39:02 8.6 C 7.65 g/m*3 8.6 C 0 km/h
160 05-09-2010 07:51:02 8.8 C 7.75 g/m*3 8.8 C 0 km/h
161 05-09-2010 08:03:02 9.2 C 7.86 g/m*3 9.2 C 0 km/h
162 05-09-2010 08:15:01 9.5 C 7.92 g/m*3 9.5 C 0 km/h
163 05-09-2010 08:27:01 9.9 C 8.03 g/m*3 9.9 C 0 km/h
164 05-09-2010 08:39:02 10 C 7.8 g/m*3 10 C 0 km/h
165 05-09-2010 08:51:01 10.5 C 7.95 g/m*3 10.5 C 0 km/h
166 05-09-2010 09:03:01 10.7 C 7.96 g/m*3 10.7 C 0 km/h
167 05-09-2010 09:15:01 11.1 C 7.86 g/m*3 11.1 C 0 km/h
168 05-09-2010 09:27:01 11.2 C 7.8 g/m*3 11.2 C 0 km/h
169 05-09-2010 09:39:01 11.3 C 7.85 g/m*3 11.3 C 0 km/h
170 05-09-2010 09:51:01 11.2 C 7.91 g/m*3 11.2 C 0 km/h
171 05-09-2010 10:03:02 11.2 C 8.01 g/m*3 11.2 C 0 km/h
172 05-09-2010 10:15:01 11.8 C 8.42 g/m*3 11.8 C 0 km/h
173 05-09-2010 10:27:01 12.3 C 8.47 g/m*3 12.3 C 0 km/h
174 05-09-2010 10:39:01 12.9 C 8.68 g/m*3 12.9 C 0 km/h
175 05-09-2010 10:51:02 13.6 C 8.59 g/m*3 13.6 C 0 km/h
Sensor: Nr:Datum:Temp:Abs-Feuchte:Windchill:Wind:
Aussen-T/F 176 05-09-2010 11:03:02 14.3 C 8.48 g/m*3 14.3 C 0 km/h
177 05-09-2010 11:15:01 15.1 C 8.51 g/m*3 15.1 C 0 km/h
178 05-09-2010 11:27:01 15.4 C 8.41 g/m*3 15.4 C 0 km/h
179 05-09-2010 11:39:02 15.9 C 8.13 g/m*3 15.9 C 0 km/h
180 05-09-2010 11:51:02 16.4 C 7.12 g/m*3 16.4 C 0 km/h
181 05-09-2010 12:03:02 17.2 C 7.18 g/m*3 17.2 C 0 km/h
182 05-09-2010 12:15:02 17.6 C 6.6 g/m*3 17.6 C 0 km/h
183 05-09-2010 12:27:02 18.2 C 6.53 g/m*3 18.2 C 0 km/h
184 05-09-2010 12:39:02 18.5 C 6.33 g/m*3 18.5 C 0 km/h
185 05-09-2010 12:51:01 18.6 C 5.89 g/m*3 18.6 C 0 km/h
186 05-09-2010 13:03:02 19.3 C 6.47 g/m*3 19.3 C 0 km/h
187 05-09-2010 13:15:02 19.4 C 6.01 g/m*3 19.4 C 0 km/h
188 05-09-2010 13:27:02 20 C 5.88 g/m*3 20 C 0 km/h
189 05-09-2010 13:39:01 20.6 C 5.55 g/m*3 20.6 C 0 km/h
190 05-09-2010 13:51:01 21.4 C 5.62 g/m*3 21.4 C 0 km/h
191 05-09-2010 14:03:01 22.3 C 5.53 g/m*3 22.3 C 0 km/h
192 05-09-2010 14:15:02 22.9 C 5.31 g/m*3 22.9 C 0 km/h
193 05-09-2010 14:27:02 23.3 C 5.02 g/m*3 23.3 C 0 km/h
194 05-09-2010 14:39:01 24.2 C 5.06 g/m*3 24.2 C 0 km/h
195 05-09-2010 14:51:03 24.8 C 5.01 g/m*3 24.8 C 0 km/h
196 05-09-2010 15:03:02 24.8 C 5.46 g/m*3 24.8 C 0 km/h
197 05-09-2010 15:15:02 23.7 C 4.92 g/m*3 23.7 C 0 km/h
198 05-09-2010 15:27:02 24 C 4.79 g/m*3 24 C 0 km/h
199 05-09-2010 15:39:02 24.4 C 4.45 g/m*3 24.4 C 0 km/h
200 05-09-2010 15:51:02 23.9 C 4.54 g/m*3 23.9 C 0 km/h
Sensor: Nr:Datum:Temp:Abs-Feuchte:Windchill:Wind:
Aussen-T/F 201 05-09-2010 16:03:01 24.1 C 4.38 g/m*3 24.1 C 0 km/h
202 05-09-2010 16:15:02 24.4 C 4.67 g/m*3 24.4 C 0 km/h
203 05-09-2010 16:27:02 25 C 4.83 g/m*3 25 C 0 km/h
204 05-09-2010 16:39:02 25 C 4.83 g/m*3 25 C 0 km/h
205 05-09-2010 16:51:01 23.5 C 4.65 g/m*3 23.5 C 0 km/h
206 05-09-2010 17:03:02 24.7 C 4.75 g/m*3 24.7 C 0 km/h
207 05-09-2010 17:15:01 24.7 C 5.21 g/m*3 24.7 C 0 km/h
208 05-09-2010 17:27:01 24 C 5.44 g/m*3 24 C 0 km/h
209 05-09-2010 17:39:02 24.6 C 5.18 g/m*3 24.6 C 0 km/h
210 05-09-2010 17:51:01 25 C 4.6 g/m*3 25 C 0 km/h
211 05-09-2010 18:03:02 25.7 C 5.51 g/m*3 25.7 C 0 km/h
212 05-09-2010 18:15:01 26 C 4.87 g/m*3 26 C 0 km/h
213 05-09-2010 18:27:01 25.4 C 4.71 g/m*3 25.4 C 0 km/h
214 05-09-2010 18:39:02 24.1 C 5.03 g/m*3 24.1 C 0 km/h
215 05-09-2010 18:51:01 23 C 6.17 g/m*3 23 C 0 km/h
216 05-09-2010 19:03:02 21.9 C 6.37 g/m*3 21.9 C 0 km/h
217 05-09-2010 19:15:02 20.1 C 6.26 g/m*3 20.1 C 0 km/h
218 05-09-2010 19:27:02 19.2 C 6.43 g/m*3 19.2 C 0 km/h
219 05-09-2010 19:39:02 18.2 C 6.37 g/m*3 18.2 C 0 km/h
220 05-09-2010 19:51:02 17.5 C 6.41 g/m*3 17.5 C 0 km/h
221 05-09-2010 20:03:01 17 C 6.37 g/m*3 17 C 0 km/h
222 05-09-2010 20:15:02 16.6 C 6.36 g/m*3 16.6 C 0 km/h
223 05-09-2010 20:27:03 16.6 C 6.36 g/m*3 16.6 C 0 km/h
224 05-09-2010 20:39:01 16.2 C 6.34 g/m*3 16.2 C 0 km/h
225 05-09-2010 20:51:02 15.8 C 6.46 g/m*3 15.8 C 0 km/h
Sensor: Nr:Datum:Temp:Abs-Feuchte:Windchill:Wind:
Aussen-T/F 226 05-09-2010 21:03:01 15.3 C 6.66 g/m*3 15.3 C 0 km/h
227 05-09-2010 21:15:01 15.1 C 6.71 g/m*3 15.1 C 0 km/h
228 05-09-2010 21:27:01 14.9 C 6.75 g/m*3 14.9 C 0 km/h
229 05-09-2010 21:39:02 14.7 C 6.92 g/m*3 14.7 C 0 km/h
230 05-09-2010 21:51:02 14.5 C 6.96 g/m*3 14.5 C 0 km/h
231 05-09-2010 22:03:02 14.4 C 7.05 g/m*3 14.4 C 0 km/h
232 05-09-2010 22:15:02 14.2 C 7.08 g/m*3 14.2 C 0 km/h
233 05-09-2010 22:27:02 14 C 7.12 g/m*3 14 C 0 km/h
234 05-09-2010 22:40:03 14 C 7.12 g/m*3 14 C 0 km/h
235 05-09-2010 22:52:03 14 C 7.12 g/m*3 14 C 0 km/h
236 05-09-2010 23:04:03 14 C 7 g/m*3 14 C 0 km/h
237 05-09-2010 23:16:03 14.1 C 6.92 g/m*3 14.1 C 0 km/h
238 05-09-2010 23:28:03 14.1 C 6.92 g/m*3 14.1 C 0 km/h
239 05-09-2010 23:40:03 13.7 C 6.87 g/m*3 13.7 C 0 km/h
240 05-09-2010 23:52:03 13.8 C 6.91 g/m*3 13.8 C 0 km/h
241 06-09-2010 00:04:03 13.6 C 7.06 g/m*3 13.6 C 0 km/h
242 06-09-2010 00:16:03 13.4 C 7.09 g/m*3 13.4 C 0 km/h
243 06-09-2010 00:28:03 13.2 C 7.12 g/m*3 13.2 C 0 km/h
244 06-09-2010 00:40:03 13.1 C 7.07 g/m*3 13.1 C 0 km/h
245 06-09-2010 00:52:03 12.8 C 7.06 g/m*3 12.8 C 0 km/h
246 06-09-2010 01:04:03 12.7 C 7.12 g/m*3 12.7 C 0 km/h
247 06-09-2010 01:16:03 12.5 C 7.15 g/m*3 12.5 C 0 km/h
248 06-09-2010 01:28:03 12.3 C 7.06 g/m*3 12.3 C 0 km/h
249 06-09-2010 01:40:03 12.2 C 7.12 g/m*3 12.2 C 0 km/h
250 06-09-2010 01:52:03 12.1 C 7.08 g/m*3 12.1 C 0 km/h
Sensor: Nr:Datum:Temp:Abs-Feuchte:Windchill:Wind:
Aussen-T/F 251 06-09-2010 02:04:03 12 C 7.14 g/m*3 12 C 0 km/h
252 06-09-2010 02:16:04 11.8 C 7.26 g/m*3 11.8 C 0 km/h
253 06-09-2010 02:28:04 11.6 C 7.17 g/m*3 11.6 C 0 km/h
254 06-09-2010 02:40:04 11.5 C 7.23 g/m*3 11.5 C 0 km/h
255 06-09-2010 02:52:04 11.2 C 7.2 g/m*3 11.2 C 0 km/h
256 06-09-2010 03:04:04 11.2 C 7.2 g/m*3 11.2 C 0 km/h
257 06-09-2010 03:16:04 11.2 C 7.2 g/m*3 11.2 C 0 km/h
258 06-09-2010 03:28:04 11.1 C 7.15 g/m*3 11.1 C 0 km/h
259 06-09-2010 03:40:04 11 C 7.11 g/m*3 11 C 0 km/h
260 06-09-2010 03:52:04 11 C 7.11 g/m*3 11 C 0 km/h
261 06-09-2010 04:04:04 11 C 7.11 g/m*3 11 C 0 km/h
262 06-09-2010 04:16:04 10.8 C 7.12 g/m*3 10.8 C 0 km/h
263 06-09-2010 04:28:04 10.7 C 7.07 g/m*3 10.7 C 0 km/h
264 06-09-2010 04:40:04 10.6 C 7.12 g/m*3 10.6 C 0 km/h
265 06-09-2010 04:52:04 10.4 C 7.04 g/m*3 10.4 C 0 km/h
266 06-09-2010 05:04:04 10.3 C 7.09 g/m*3 10.3 C 0 km/h
267 06-09-2010 05:16:04 10.4 C 7.13 g/m*3 10.4 C 0 km/h
268 06-09-2010 05:28:04 10.2 C 6.95 g/m*3 10.2 C 0 km/h
269 06-09-2010 05:40:04 10.2 C 6.95 g/m*3 10.2 C 0 km/h
270 06-09-2010 05:52:04 10.1 C 7 g/m*3 10.1 C 0 km/h
271 06-09-2010 06:04:04 9.8 C 6.96 g/m*3 9.8 C 0 km/h
272 06-09-2010 06:16:04 9.7 C 7.01 g/m*3 9.7 C 0 km/h
273 06-09-2010 06:28:04 9.5 C 7.01 g/m*3 9.5 C 0 km/h
274 06-09-2010 06:40:05 9.5 C 7.01 g/m*3 9.5 C 0 km/h
275 06-09-2010 06:52:05 9.3 C 7.01 g/m*3 9.3 C 0 km/h
Sensor: Nr:Datum:Temp:Abs-Feuchte:Windchill:Wind:
Aussen-T/F 276 06-09-2010 07:04:05 9.2 C 6.97 g/m*3 9.2 C 0 km/h
277 06-09-2010 07:16:03 9.3 C 7.1 g/m*3 9.3 C 0 km/h
278 06-09-2010 07:28:03 9.3 C 7.1 g/m*3 9.3 C 0 km/h
279 06-09-2010 07:40:03 9.3 C 7.1 g/m*3 9.3 C 0 km/h
280 06-09-2010 07:52:01 9.3 C 7.1 g/m*3 9.3 C 0 km/h
281 06-09-2010 08:04:02 9.4 C 7.15 g/m*3 9.4 C 0 km/h
282 06-09-2010 08:16:01 9.6 C 7.24 g/m*3 9.6 C 0 km/h
283 06-09-2010 08:28:01 9.6 C 7.24 g/m*3 9.6 C 0 km/h
284 06-09-2010 08:40:02 9.8 C 7.24 g/m*3 9.8 C 0 km/h
285 06-09-2010 08:52:02 10 C 7.24 g/m*3 10 C 0 km/h
286 06-09-2010 09:04:02 10.2 C 7.33 g/m*3 10.2 C 0 km/h
287 06-09-2010 09:16:01 10.5 C 7.47 g/m*3 10.5 C 0 km/h
288 06-09-2010 09:28:01 10.8 C 7.51 g/m*3 10.8 C 0 km/h
289 06-09-2010 09:40:02 11.3 C 7.55 g/m*3 11.3 C 0 km/h
290 06-09-2010 09:52:02 11.9 C 7.73 g/m*3 11.9 C 0 km/h
291 06-09-2010 10:04:02 12.5 C 7.59 g/m*3 12.5 C 0 km/h
292 06-09-2010 10:16:02 13.1 C 7.53 g/m*3 13.1 C 0 km/h
293 06-09-2010 10:28:02 13.5 C 7.37 g/m*3 13.5 C 0 km/h
294 06-09-2010 10:40:02 13.9 C 7.67 g/m*3 13.9 C 0 km/h
295 06-09-2010 10:52:02 14.4 C 7.42 g/m*3 14.4 C 0 km/h
296 06-09-2010 11:04:02 15.2 C 7.4 g/m*3 15.2 C 0 km/h
297 06-09-2010 11:16:02 15.8 C 7.27 g/m*3 15.8 C 0 km/h
298 06-09-2010 11:28:02 16.2 C 7.45 g/m*3 16.2 C 0 km/h
299 06-09-2010 11:40:01 16.9 C 6.76 g/m*3 16.9 C 0 km/h
300 06-09-2010 11:52:02 17.5 C 6.71 g/m*3 17.5 C 0 km/h
Sensor: Nr:Datum:Temp:Abs-Feuchte:Windchill:Wind:
Aussen-T/F 301 06-09-2010 12:04:01 18.1 C 5.87 g/m*3 18.1 C 0 km/h
302 06-09-2010 12:16:02 18.5 C 5.7 g/m*3 18.5 C 0 km/h
303 06-09-2010 12:28:02 18.7 C 5.6 g/m*3 18.7 C 0 km/h
304 06-09-2010 12:40:02 18.9 C 5.35 g/m*3 18.9 C 0 km/h
305 06-09-2010 12:52:02 19 C 5.38 g/m*3 19 C 0 km/h
306 06-09-2010 13:04:03 19.3 C 5.31 g/m*3 19.3 C 0 km/h
307 06-09-2010 13:16:02 19.7 C 5.6 g/m*3 19.7 C 0 km/h
308 06-09-2010 13:28:02 20.1 C 5.56 g/m*3 20.1 C 0 km/h
309 06-09-2010 13:40:02 20.8 C 5.43 g/m*3 20.8 C 0 km/h
310 06-09-2010 13:52:01 21.3 C 5.03 g/m*3 21.3 C 0 km/h
311 06-09-2010 14:04:02 21.6 C 4.74 g/m*3 21.6 C 0 km/h
312 06-09-2010 14:16:01 21.9 C 4.82 g/m*3 21.9 C 0 km/h
313 06-09-2010 14:28:01 22.3 C 4.54 g/m*3 22.3 C 0 km/h
314 06-09-2010 14:40:02 22.7 C 4.24 g/m*3 22.7 C 0 km/h
315 06-09-2010 14:52:01 23.2 C 4.16 g/m*3 23.2 C 0 km/h
316 06-09-2010 15:04:02 23.6 C 4.25 g/m*3 23.6 C 0 km/h
317 06-09-2010 15:16:02 23.9 C 4.33 g/m*3 23.9 C 0 km/h
318 06-09-2010 15:28:02 24.1 C 4.38 g/m*3 24.1 C 0 km/h
319 06-09-2010 15:40:01 24.3 C 4.43 g/m*3 24.3 C 0 km/h
320 06-09-2010 15:52:01 24.1 C 4.38 g/m*3 24.1 C 0 km/h
321 06-09-2010 16:04:01 24 C 4.35 g/m*3 24 C 0 km/h
322 06-09-2010 16:16:02 23.8 C 4.3 g/m*3 23.8 C 0 km/h
323 06-09-2010 16:28:02 23.7 C 4.28 g/m*3 23.7 C 0 km/h
324 06-09-2010 16:40:01 23.9 C 4.33 g/m*3 23.9 C 0 km/h
325 06-09-2010 16:52:02 24 C 4.35 g/m*3 24 C 0 km/h
Sensor: Nr:Datum:Temp:Abs-Feuchte:Windchill:Wind:
Aussen-T/F 326 06-09-2010 17:04:01 24.5 C 4.48 g/m*3 24.5 C 0 km/h
327 06-09-2010 17:16:01 24.7 C 4.53 g/m*3 24.7 C 0 km/h
328 06-09-2010 17:28:01 25.4 C 4.71 g/m*3 25.4 C 0 km/h
329 06-09-2010 17:40:01 24.2 C 4.4 g/m*3 24.2 C 0 km/h
330 06-09-2010 17:52:02 23.3 C 4.18 g/m*3 23.3 C 0 km/h
331 06-09-2010 18:04:02 22.6 C 4.82 g/m*3 22.6 C 0 km/h
332 06-09-2010 18:16:02 21.5 C 4.9 g/m*3 21.5 C 0 km/h
333 06-09-2010 18:28:02 21.1 C 5.53 g/m*3 21.1 C 0 km/h
334 06-09-2010 18:40:02 21.2 C 5.37 g/m*3 21.2 C 0 km/h
335 06-09-2010 18:52:01 20.8 C 5.98 g/m*3 20.8 C 0 km/h
336 06-09-2010 19:04:02 20 C 6.05 g/m*3 20 C 0 km/h
337 06-09-2010 19:16:01 19.1 C 5.9 g/m*3 19.1 C 0 km/h
338 06-09-2010 19:28:01 18.7 C 5.76 g/m*3 18.7 C 0 km/h
339 06-09-2010 19:40:02 18.1 C 5.87 g/m*3 18.1 C 0 km/h
340 06-09-2010 19:52:01 17.7 C 5.73 g/m*3 17.7 C 0 km/h
341 06-09-2010 20:04:02 17.6 C 5.55 g/m*3 17.6 C 0 km/h
342 06-09-2010 20:16:01 17.3 C 5.6 g/m*3 17.3 C 0 km/h
343 06-09-2010 20:28:01 17.1 C 5.68 g/m*3 17.1 C 0 km/h
344 06-09-2010 20:40:02 16.9 C 5.61 g/m*3 16.9 C 0 km/h
345 06-09-2010 20:52:01 16.6 C 5.65 g/m*3 16.6 C 0 km/h
346 06-09-2010 21:04:02 16.5 C 5.2 g/m*3 16.5 C 0 km/h
347 06-09-2010 21:16:02 16.4 C 5.44 g/m*3 16.4 C 0 km/h
348 06-09-2010 21:28:02 16.2 C 5.52 g/m*3 16.2 C 0 km/h
349 06-09-2010 21:41:03 16.1 C 5.48 g/m*3 16.1 C 0 km/h
350 06-09-2010 21:53:03 15.9 C 5.55 g/m*3 15.9 C 0 km/h
Sensor: Nr:Datum:Temp:Abs-Feuchte:Windchill:Wind:
Aussen-T/F 351 06-09-2010 22:05:03 15.7 C 5.62 g/m*3 15.7 C 0 km/h
352 06-09-2010 22:17:03 15.6 C 5.59 g/m*3 15.6 C 0 km/h
353 06-09-2010 22:29:03 15.6 C 5.59 g/m*3 15.6 C 0 km/h
354 06-09-2010 22:41:03 15.3 C 5.62 g/m*3 15.3 C 0 km/h
355 06-09-2010 22:53:03 15.3 C 5.62 g/m*3 15.3 C 0 km/h
356 06-09-2010 23:05:03 15.2 C 5.71 g/m*3 15.2 C 0 km/h
357 06-09-2010 23:17:03 15.1 C 5.68 g/m*3 15.1 C 0 km/h
358 06-09-2010 23:29:03 15.2 C 5.58 g/m*3 15.2 C 0 km/h
359 06-09-2010 23:41:03 15.3 C 5.48 g/m*3 15.3 C 0 km/h
360 06-09-2010 23:53:03 15.2 C 5.71 g/m*3 15.2 C 0 km/h
361 07-09-2010 00:05:03 15.2 C 5.71 g/m*3 15.2 C 0 km/h
362 07-09-2010 00:17:03 15.4 C 5.52 g/m*3 15.4 C 0 km/h
363 07-09-2010 00:29:03 15.4 C 5.52 g/m*3 15.4 C 0 km/h
364 07-09-2010 00:41:03 15.5 C 5.42 g/m*3 15.5 C 0 km/h
365 07-09-2010 00:53:03 15.4 C 5.39 g/m*3 15.4 C 0 km/h
366 07-09-2010 01:05:03 15.4 C 5.52 g/m*3 15.4 C 0 km/h
367 07-09-2010 01:17:04 15.4 C 5.39 g/m*3 15.4 C 0 km/h
368 07-09-2010 01:29:04 15.4 C 5.39 g/m*3 15.4 C 0 km/h
369 07-09-2010 01:41:04 15.4 C 5.39 g/m*3 15.4 C 0 km/h
370 07-09-2010 01:53:04 15.5 C 5.29 g/m*3 15.5 C 0 km/h
371 07-09-2010 02:05:04 15.5 C 5.29 g/m*3 15.5 C 0 km/h
372 07-09-2010 02:17:04 15.5 C 5.29 g/m*3 15.5 C 0 km/h
373 07-09-2010 02:29:04 15.5 C 5.55 g/m*3 15.5 C 0 km/h
374 07-09-2010 02:41:04 15.4 C 5.39 g/m*3 15.4 C 0 km/h
375 07-09-2010 02:53:04 15.4 C 5.39 g/m*3 15.4 C 0 km/h
Sensor: Nr:Datum:Temp:Abs-Feuchte:Windchill:Wind:
Aussen-T/F 376 07-09-2010 03:05:04 15.4 C 5.52 g/m*3 15.4 C 0 km/h
377 07-09-2010 03:17:04 15.4 C 5.26 g/m*3 15.4 C 0 km/h
378 07-09-2010 03:29:04 14.8 C 5.7 g/m*3 14.8 C 0 km/h
379 07-09-2010 03:41:04 13.3 C 6.47 g/m*3 13.3 C 0 km/h
380 07-09-2010 03:53:04 12.8 C 6.94 g/m*3 12.8 C 0 km/h
381 07-09-2010 04:05:04 13.1 C 6.85 g/m*3 13.1 C 0 km/h
382 07-09-2010 04:17:04 13.4 C 6.97 g/m*3 13.4 C 0 km/h
383 07-09-2010 04:29:04 13.1 C 6.62 g/m*3 13.1 C 0 km/h
384 07-09-2010 04:41:04 12.8 C 7.28 g/m*3 12.8 C 0 km/h
385 07-09-2010 04:53:04 12.9 C 7.33 g/m*3 12.9 C 0 km/h
386 07-09-2010 05:05:04 12.9 C 7.21 g/m*3 12.9 C 0 km/h
387 07-09-2010 05:17:04 13 C 7.26 g/m*3 13 C 0 km/h
388 07-09-2010 05:29:05 13 C 7.03 g/m*3 13 C 0 km/h
389 07-09-2010 05:41:05 13.2 C 6.77 g/m*3 13.2 C 0 km/h
390 07-09-2010 05:53:05 12.8 C 7.28 g/m*3 12.8 C 0 km/h
391 07-09-2010 06:05:05 12.5 C 7.26 g/m*3 12.5 C 0 km/h
392 07-09-2010 06:17:05 12.3 C 7.38 g/m*3 12.3 C 0 km/h
393 07-09-2010 06:29:05 12.4 C 7.1 g/m*3 12.4 C 0 km/h
394 07-09-2010 06:41:05 12.6 C 6.75 g/m*3 12.6 C 0 km/h
395 07-09-2010 06:53:05 12.7 C 6.68 g/m*3 12.7 C 0 km/h
396 07-09-2010 07:05:05 12.4 C 6.66 g/m*3 12.4 C 0 km/h
397 07-09-2010 07:17:05 12.2 C 7.01 g/m*3 12.2 C 0 km/h
398 07-09-2010 07:29:05 12.1 C 6.97 g/m*3 12.1 C 0 km/h
399 07-09-2010 07:41:05 12 C 7.35 g/m*3 12 C 0 km/h
400 07-09-2010 07:53:01 11.9 C 7.41 g/m*3 11.9 C 0 km/h
Sensor: Nr:Datum:Temp:Abs-Feuchte:Windchill:Wind:
Aussen-T/F 401 07-09-2010 08:05:02 11.7 C 7.74 g/m*3 11.7 C 0 km/h
402 07-09-2010 08:17:02 11.6 C 8.11 g/m*3 11.6 C 0 km/h
403 07-09-2010 08:29:02 11.7 C 8.37 g/m*3 11.7 C 0 km/h
404 07-09-2010 08:41:02 11.4 C 8.11 g/m*3 11.4 C 0 km/h
405 07-09-2010 08:53:01 11.4 C 8.21 g/m*3 11.4 C 0 km/h
406 07-09-2010 09:05:02 11.4 C 8.21 g/m*3 11.4 C 0 km/h
407 07-09-2010 09:17:02 11.4 C 8.21 g/m*3 11.4 C 0 km/h
408 07-09-2010 09:29:02 11.5 C 8.47 g/m*3 11.5 C 0 km/h
409 07-09-2010 09:41:01 11.5 C 8.47 g/m*3 11.5 C 0 km/h
410 07-09-2010 09:53:02 11.5 C 8.68 g/m*3 11.5 C 0 km/h
411 07-09-2010 10:05:01 11.4 C 8.72 g/m*3 11.4 C 0 km/h
412 07-09-2010 10:17:02 11.4 C 8.83 g/m*3 11.4 C 0 km/h
413 07-09-2010 10:29:02 11.5 C 8.88 g/m*3 11.5 C 0 km/h
414 07-09-2010 10:41:01 11.4 C 8.93 g/m*3 11.4 C 0 km/h
415 07-09-2010 10:53:02 11.6 C 9.04 g/m*3 11.6 C 0 km/h
416 07-09-2010 11:05:01 11.6 C 9.15 g/m*3 11.6 C 0 km/h
417 07-09-2010 11:17:01 11.5 C 9.09 g/m*3 11.5 C 0 km/h
418 07-09-2010 11:29:01 11.2 C 8.92 g/m*3 11.2 C 0 km/h
419 07-09-2010 11:41:02 11.7 C 9.41 g/m*3 11.7 C 0 km/h
420 07-09-2010 11:53:02 12.2 C 9.5 g/m*3 12.2 C 0 km/h
421 07-09-2010 12:05:02 12 C 9.38 g/m*3 12 C 0 km/h
422 07-09-2010 12:17:02 12.4 C 9.62 g/m*3 12.4 C 0 km/h
423 07-09-2010 12:29:02 12.4 C 9.4 g/m*3 12.4 C 0 km/h
424 07-09-2010 12:41:02 12.5 C 9.46 g/m*3 12.5 C 0 km/h
425 07-09-2010 12:53:02 12.8 C 9.63 g/m*3 12.8 C 0 km/h
Sensor: Nr:Datum:Temp:Abs-Feuchte:Windchill:Wind:
Aussen-T/F 426 07-09-2010 13:05:02 12.7 C 9.35 g/m*3 12.7 C 0 km/h
427 07-09-2010 13:17:02 12.8 C 9.41 g/m*3 12.8 C 0 km/h
428 07-09-2010 13:29:02 12.8 C 9.3 g/m*3 12.8 C 0 km/h
429 07-09-2010 13:41:02 12.7 C 9.13 g/m*3 12.7 C 0 km/h
430 07-09-2010 13:53:01 12.9 C 9.35 g/m*3 12.9 C 0 km/h
431 07-09-2010 14:05:01 12.9 C 9.35 g/m*3 12.9 C 0 km/h
432 07-09-2010 14:17:01 13.1 C 9.36 g/m*3 13.1 C 0 km/h
433 07-09-2010 14:29:01 13.3 C 9.47 g/m*3 13.3 C 0 km/h
434 07-09-2010 14:41:01 13.4 C 9.3 g/m*3 13.4 C 0 km/h
435 07-09-2010 14:53:01 14.1 C 9.34 g/m*3 14.1 C 0 km/h
436 07-09-2010 15:05:01 14.4 C 9.39 g/m*3 14.4 C 0 km/h
437 07-09-2010 15:17:02 14.4 C 8.9 g/m*3 14.4 C 0 km/h
438 07-09-2010 15:29:02 14.7 C 9.07 g/m*3 14.7 C 0 km/h
439 07-09-2010 15:41:01 14.7 C 9.07 g/m*3 14.7 C 0 km/h
440 07-09-2010 15:53:03 14.7 C 9.19 g/m*3 14.7 C 0 km/h
441 07-09-2010 16:05:02 15.3 C 9.27 g/m*3 15.3 C 0 km/h
442 07-09-2010 16:17:02 15.6 C 9.04 g/m*3 15.6 C 0 km/h
443 07-09-2010 16:29:02 15.7 C 9.1 g/m*3 15.7 C 0 km/h
444 07-09-2010 16:41:02 15.6 C 9.04 g/m*3 15.6 C 0 km/h
445 07-09-2010 16:53:02 15.4 C 9.07 g/m*3 15.4 C 0 km/h
446 07-09-2010 17:05:02 15.2 C 8.96 g/m*3 15.2 C 0 km/h
447 07-09-2010 17:17:02 14.9 C 8.92 g/m*3 14.9 C 0 km/h
448 07-09-2010 17:29:02 14.8 C 9.12 g/m*3 14.8 C 0 km/h
449 07-09-2010 17:41:02 14.8 C 9.12 g/m*3 14.8 C 0 km/h
450 07-09-2010 17:53:02 14.7 C 9.19 g/m*3 14.7 C 0 km/h
Sensor: Nr:Datum:Temp:Abs-Feuchte:Windchill:Wind:
Aussen-T/F 451 07-09-2010 18:05:02 14.1 C 8.86 g/m*3 14.1 C 0 km/h
452 07-09-2010 18:17:01 14 C 9.05 g/m*3 14 C 0 km/h
453 07-09-2010 18:29:01 14 C 9.05 g/m*3 14 C 0 km/h
454 07-09-2010 18:41:02 13.9 C 9.23 g/m*3 13.9 C 0 km/h
455 07-09-2010 18:53:02 13.9 C 9.23 g/m*3 13.9 C 0 km/h
456 07-09-2010 19:05:02 13.9 C 9.35 g/m*3 13.9 C 0 km/h
457 07-09-2010 19:17:01 13.8 C 9.29 g/m*3 13.8 C 0 km/h
458 07-09-2010 19:29:01 13.8 C 9.41 g/m*3 13.8 C 0 km/h
459 07-09-2010 19:41:02 13.7 C 9.35 g/m*3 13.7 C 0 km/h
460 07-09-2010 19:53:02 13.7 C 9.47 g/m*3 13.7 C 0 km/h
461 07-09-2010 20:05:02 13.5 C 9.47 g/m*3 13.5 C 0 km/h
462 07-09-2010 20:17:02 13.3 C 9.47 g/m*3 13.3 C 0 km/h
463 07-09-2010 20:29:02 13.2 C 9.53 g/m*3 13.2 C 0 km/h
464 07-09-2010 20:41:02 13.1 C 9.59 g/m*3 13.1 C 0 km/h
465 07-09-2010 20:53:02 13.1 C 9.7 g/m*3 13.1 C 0 km/h
466 07-09-2010 21:05:02 13 C 9.75 g/m*3 13 C 0 km/h
467 07-09-2010 21:17:02 13 C 9.87 g/m*3 13 C 0 km/h
468 07-09-2010 21:29:02 13 C 9.87 g/m*3 13 C 0 km/h
469 07-09-2010 21:41:02 13 C 9.98 g/m*3 13 C 0 km/h
470 07-09-2010 21:53:02 12.8 C 9.97 g/m*3 12.8 C 0 km/h
471 07-09-2010 22:05:02 12.9 C 10.03 g/m*3 12.9 C 0 km/h
472 07-09-2010 22:18:05 12.9 C 10.03 g/m*3 12.9 C 0 km/h
473 07-09-2010 22:30:05 12.9 C 10.03 g/m*3 12.9 C 0 km/h
474 07-09-2010 22:42:05 12.8 C 9.97 g/m*3 12.8 C 0 km/h
475 07-09-2010 22:54:05 12.8 C 10.08 g/m*3 12.8 C 0 km/h
Sensor: Nr:Datum:Temp:Abs-Feuchte:Windchill:Wind:
Aussen-T/F 476 07-09-2010 23:06:05 12.9 C 10.14 g/m*3 12.9 C 0 km/h
477 07-09-2010 23:18:05 12.9 C 10.14 g/m*3 12.9 C 0 km/h
478 07-09-2010 23:30:05 12.8 C 10.08 g/m*3 12.8 C 0 km/h
479 07-09-2010 23:42:05 13 C 10.21 g/m*3 13 C 0 km/h
480 07-09-2010 23:54:05 13 C 10.21 g/m*3 13 C 0 km/h
481 08-09-2010 00:06:05 12.9 C 10.26 g/m*3 12.9 C 0 km/h
482 08-09-2010 00:18:05 12.8 C 10.19 g/m*3 12.8 C 0 km/h
483 08-09-2010 00:30:05 12.9 C 10.26 g/m*3 12.9 C 0 km/h
484 08-09-2010 00:42:06 12.9 C 10.26 g/m*3 12.9 C 0 km/h
485 08-09-2010 00:54:06 12.9 C 10.26 g/m*3 12.9 C 0 km/h
486 08-09-2010 01:06:06 13 C 10.32 g/m*3 13 C 0 km/h
487 08-09-2010 01:18:06 13 C 10.32 g/m*3 13 C 0 km/h
488 08-09-2010 01:30:06 13 C 10.32 g/m*3 13 C 0 km/h
489 08-09-2010 01:42:06 13 C 10.43 g/m*3 13 C 0 km/h
490 08-09-2010 01:54:06 13 C 10.43 g/m*3 13 C 0 km/h
491 08-09-2010 02:06:06 13.1 C 10.5 g/m*3 13.1 C 0 km/h
492 08-09-2010 02:18:06 13.1 C 10.5 g/m*3 13.1 C 0 km/h
493 08-09-2010 02:30:06 13.2 C 10.56 g/m*3 13.2 C 0 km/h
494 08-09-2010 02:42:06 13.2 C 10.68 g/m*3 13.2 C 0 km/h
495 08-09-2010 02:54:06 13.4 C 10.81 g/m*3 13.4 C 0 km/h
496 08-09-2010 03:06:06 13.4 C 10.81 g/m*3 13.4 C 0 km/h
497 08-09-2010 03:18:06 13.5 C 10.88 g/m*3 13.5 C 0 km/h
498 08-09-2010 03:30:06 13.6 C 10.95 g/m*3 13.6 C 0 km/h
499 08-09-2010 03:42:06 13.7 C 11.01 g/m*3 13.7 C 0 km/h
500 08-09-2010 03:54:06 13.6 C 10.95 g/m*3 13.6 C 0 km/h
Sensor: Nr:Datum:Temp:Abs-Feuchte:Windchill:Wind:
Aussen-T/F 501 08-09-2010 04:06:06 13.5 C 10.88 g/m*3 13.5 C 0 km/h
502 08-09-2010 04:18:06 13.5 C 10.88 g/m*3 13.5 C 0 km/h
503 08-09-2010 04:30:06 13.6 C 10.95 g/m*3 13.6 C 0 km/h
504 08-09-2010 04:42:06 13.5 C 10.88 g/m*3 13.5 C 0 km/h
505 08-09-2010 04:54:07 13.7 C 11.01 g/m*3 13.7 C 0 km/h
506 08-09-2010 05:06:07 14.1 C 11.29 g/m*3 14.1 C 0 km/h
507 08-09-2010 05:18:07 14 C 11.34 g/m*3 14 C 0 km/h
508 08-09-2010 05:30:07 14.1 C 11.41 g/m*3 14.1 C 0 km/h
509 08-09-2010 05:42:07 14.4 C 11.62 g/m*3 14.4 C 0 km/h
510 08-09-2010 05:54:07 14.2 C 11.36 g/m*3 14.2 C 0 km/h
511 08-09-2010 06:06:07 14.4 C 11.5 g/m*3 14.4 C 0 km/h
512 08-09-2010 06:18:07 14.4 C 11.5 g/m*3 14.4 C 0 km/h
513 08-09-2010 06:30:07 14.3 C 11.43 g/m*3 14.3 C 0 km/h
514 08-09-2010 06:42:07 14.3 C 11.43 g/m*3 14.3 C 0 km/h
515 08-09-2010 06:54:07 14.4 C 11.37 g/m*3 14.4 C 0 km/h
516 08-09-2010 07:06:07 14.3 C 11.3 g/m*3 14.3 C 0 km/h
517 08-09-2010 07:18:04 14.3 C 11.3 g/m*3 14.3 C 0 km/h
518 08-09-2010 07:30:04 14.3 C 11.3 g/m*3 14.3 C 0 km/h
519 08-09-2010 07:42:04 14.1 C 11.17 g/m*3 14.1 C 0 km/h
520 08-09-2010 07:54:02 14.1 C 11.17 g/m*3 14.1 C 0 km/h
521 08-09-2010 08:06:02 14.1 C 11.17 g/m*3 14.1 C 0 km/h
522 08-09-2010 08:18:02 14.1 C 11.17 g/m*3 14.1 C 0 km/h
523 08-09-2010 08:30:02 14.2 C 11.23 g/m*3 14.2 C 0 km/h
524 08-09-2010 08:42:02 14.3 C 11.3 g/m*3 14.3 C 0 km/h
525 08-09-2010 08:54:02 14.4 C 11.37 g/m*3 14.4 C 0 km/h
Sensor: Nr:Datum:Temp:Abs-Feuchte:Windchill:Wind:
Aussen-T/F 526 08-09-2010 09:06:01 14.8 C 11.65 g/m*3 14.8 C 0 km/h
527 08-09-2010 09:18:02 15 C 11.54 g/m*3 15 C 0 km/h
528 08-09-2010 09:30:02 15.3 C 11.62 g/m*3 15.3 C 0 km/h
529 08-09-2010 09:42:02 15.5 C 11.76 g/m*3 15.5 C 0 km/h
530 08-09-2010 09:54:02 15.5 C 11.5 g/m*3 15.5 C 0 km/h
531 08-09-2010 10:06:02 15.5 C 11.5 g/m*3 15.5 C 0 km/h
532 08-09-2010 10:18:02 15.3 C 11.36 g/m*3 15.3 C 0 km/h
533 08-09-2010 10:30:02 15.5 C 11.37 g/m*3 15.5 C 0 km/h
534 08-09-2010 10:42:02 15.6 C 11.44 g/m*3 15.6 C 0 km/h
535 08-09-2010 10:54:02 15.7 C 11.37 g/m*3 15.7 C 0 km/h
536 08-09-2010 11:06:02 15.7 C 11.11 g/m*3 15.7 C 0 km/h
537 08-09-2010 11:18:02 15.4 C 10.9 g/m*3 15.4 C 0 km/h
538 08-09-2010 11:30:02 15.1 C 10.97 g/m*3 15.1 C 0 km/h
539 08-09-2010 11:42:02 15 C 11.03 g/m*3 15 C 0 km/h
540 08-09-2010 11:54:02 15 C 11.16 g/m*3 15 C 0 km/h
541 08-09-2010 12:06:02 14.6 C 11.01 g/m*3 14.6 C 0 km/h
542 08-09-2010 12:18:03 14.6 C 11.14 g/m*3 14.6 C 0 km/h
543 08-09-2010 12:30:03 14.7 C 11.21 g/m*3 14.7 C 0 km/h
544 08-09-2010 12:42:02 14.8 C 11.4 g/m*3 14.8 C 0 km/h
545 08-09-2010 12:54:01 15 C 11.54 g/m*3 15 C 0 km/h
546 08-09-2010 13:06:01 15.5 C 11.9 g/m*3 15.5 C 0 km/h
547 08-09-2010 13:18:02 15.8 C 12.11 g/m*3 15.8 C 0 km/h
548 08-09-2010 13:30:02 16.3 C 12.35 g/m*3 16.3 C 0 km/h
549 08-09-2010 13:42:01 16.8 C 12.44 g/m*3 16.8 C 0 km/h
550 08-09-2010 13:54:02 16.7 C 11.8 g/m*3 16.7 C 0 km/h
Sensor: Nr:Datum:Temp:Abs-Feuchte:Windchill:Wind:
Aussen-T/F 551 08-09-2010 14:06:02 17.4 C 12 g/m*3 17.4 C 0 km/h
552 08-09-2010 14:18:02 17.2 C 11.42 g/m*3 17.2 C 0 km/h
553 08-09-2010 14:30:02 17 C 11.29 g/m*3 17 C 0 km/h
554 08-09-2010 14:42:02 17.9 C 11.6 g/m*3 17.9 C 0 km/h
555 08-09-2010 14:54:02 18.4 C 11.48 g/m*3 18.4 C 0 km/h
556 08-09-2010 15:06:01 18.2 C 11.04 g/m*3 18.2 C 0 km/h
557 08-09-2010 15:18:01 17.8 C 11.08 g/m*3 17.8 C 0 km/h
558 08-09-2010 15:30:02 17.6 C 11.1 g/m*3 17.6 C 0 km/h
559 08-09-2010 15:42:01 17.8 C 11.23 g/m*3 17.8 C 0 km/h
560 08-09-2010 15:54:02 18.3 C 11.41 g/m*3 18.3 C 0 km/h
561 08-09-2010 16:06:01 19 C 10.92 g/m*3 19 C 0 km/h
562 08-09-2010 16:18:01 18.7 C 10.89 g/m*3 18.7 C 0 km/h
563 08-09-2010 16:30:01 18.5 C 10.6 g/m*3 18.5 C 0 km/h
564 08-09-2010 16:42:02 18.5 C 10.6 g/m*3 18.5 C 0 km/h
565 08-09-2010 16:54:02 18 C 10.44 g/m*3 18 C 0 km/h
566 08-09-2010 17:06:02 19.3 C 10.45 g/m*3 19.3 C 0 km/h
567 08-09-2010 17:18:02 20.4 C 10.08 g/m*3 20.4 C 0 km/h
568 08-09-2010 17:30:02 20.5 C 10.14 g/m*3 20.5 C 0 km/h
569 08-09-2010 17:42:02 19.5 C 10.07 g/m*3 19.5 C 0 km/h
570 08-09-2010 17:54:02 19.7 C 10.36 g/m*3 19.7 C 0 km/h
571 08-09-2010 18:06:02 19.3 C 10.28 g/m*3 19.3 C 0 km/h
572 08-09-2010 18:18:01 20.2 C 9.97 g/m*3 20.2 C 0 km/h
573 08-09-2010 18:30:01 19.3 C 10.12 g/m*3 19.3 C 0 km/h
574 08-09-2010 18:42:02 18.3 C 10.16 g/m*3 18.3 C 0 km/h
575 08-09-2010 18:54:02 18.2 C 10.57 g/m*3 18.2 C 0 km/h
Sensor: Nr:Datum:Temp:Abs-Feuchte:Windchill:Wind:
Aussen-T/F 576 08-09-2010 19:06:02 18.6 C 10.66 g/m*3 18.6 C 0 km/h
577 08-09-2010 19:18:01 18.7 C 10.57 g/m*3 18.7 C 0 km/h
578 08-09-2010 19:30:01 18.3 C 10.48 g/m*3 18.3 C 0 km/h
579 08-09-2010 19:42:02 17.9 C 10.69 g/m*3 17.9 C 0 km/h
580 08-09-2010 19:54:02 17.5 C 10.29 g/m*3 17.5 C 0 km/h
581 08-09-2010 20:06:03 17.4 C 10.52 g/m*3 17.4 C 0 km/h
582 08-09-2010 20:18:02 17 C 10.42 g/m*3 17 C 0 km/h
583 08-09-2010 20:30:02 16.7 C 10.66 g/m*3 16.7 C 0 km/h
584 08-09-2010 20:42:02 16.6 C 10.74 g/m*3 16.6 C 0 km/h
585 08-09-2010 20:54:01 16.3 C 10.27 g/m*3 16.3 C 0 km/h
586 08-09-2010 21:06:01 15.9 C 10.02 g/m*3 15.9 C 0 km/h
587 08-09-2010 21:18:01 15.8 C 9.69 g/m*3 15.8 C 0 km/h
588 08-09-2010 21:30:01 15.7 C 9.63 g/m*3 15.7 C 0 km/h
589 08-09-2010 21:42:01 15.7 C 9.63 g/m*3 15.7 C 0 km/h
590 08-09-2010 21:54:01 15.5 C 9.52 g/m*3 15.5 C 0 km/h
591 08-09-2010 22:06:01 15.2 C 9.48 g/m*3 15.2 C 0 km/h
592 08-09-2010 22:18:02 14.9 C 9.56 g/m*3 14.9 C 0 km/h
593 08-09-2010 22:30:02 14.6 C 9.76 g/m*3 14.6 C 0 km/h
594 08-09-2010 22:42:02 14.5 C 9.95 g/m*3 14.5 C 0 km/h
595 08-09-2010 22:55:02 14.7 C 10.2 g/m*3 14.7 C 0 km/h
596 08-09-2010 23:07:02 14.5 C 9.95 g/m*3 14.5 C 0 km/h
597 08-09-2010 23:19:02 14.5 C 10.07 g/m*3 14.5 C 0 km/h
598 08-09-2010 23:31:02 14.6 C 10.01 g/m*3 14.6 C 0 km/h
599 08-09-2010 23:43:02 14.5 C 10.07 g/m*3 14.5 C 0 km/h
600 08-09-2010 23:55:03 14.3 C 9.95 g/m*3 14.3 C 0 km/h
Sensor: Nr:Datum:Temp:Abs-Feuchte:Windchill:Wind:
Aussen-T/F 601 09-09-2010 00:07:03 14.4 C 10.14 g/m*3 14.4 C 0 km/h
602 09-09-2010 00:19:03 14.4 C 10.14 g/m*3 14.4 C 0 km/h
603 09-09-2010 00:31:03 14.1 C 10.07 g/m*3 14.1 C 0 km/h
604 09-09-2010 00:43:03 14.5 C 10.32 g/m*3 14.5 C 0 km/h
605 09-09-2010 00:55:03 14.5 C 10.32 g/m*3 14.5 C 0 km/h
606 09-09-2010 01:07:03 14.8 C 10.39 g/m*3 14.8 C 0 km/h
607 09-09-2010 01:19:03 15 C 10 g/m*3 15 C 0 km/h
608 09-09-2010 01:31:03 15.1 C 10.06 g/m*3 15.1 C 0 km/h
609 09-09-2010 01:43:03 15.2 C 9.99 g/m*3 15.2 C 0 km/h
610 09-09-2010 01:55:03 15.1 C 9.93 g/m*3 15.1 C 0 km/h
611 09-09-2010 02:07:03 15.2 C 9.99 g/m*3 15.2 C 0 km/h
612 09-09-2010 02:19:03 15.1 C 9.93 g/m*3 15.1 C 0 km/h
613 09-09-2010 02:31:03 15.1 C 9.93 g/m*3 15.1 C 0 km/h
614 09-09-2010 02:43:03 15.1 C 9.93 g/m*3 15.1 C 0 km/h
615 09-09-2010 02:55:03 15.2 C 9.86 g/m*3 15.2 C 0 km/h
616 09-09-2010 03:07:03 15.2 C 9.86 g/m*3 15.2 C 0 km/h
617 09-09-2010 03:19:03 15.3 C 9.79 g/m*3 15.3 C 0 km/h
618 09-09-2010 03:31:03 15.3 C 9.79 g/m*3 15.3 C 0 km/h
619 09-09-2010 03:43:03 15.4 C 9.72 g/m*3 15.4 C 0 km/h
620 09-09-2010 03:55:04 15.4 C 9.72 g/m*3 15.4 C 0 km/h
621 09-09-2010 04:07:04 15.4 C 9.59 g/m*3 15.4 C 0 km/h
622 09-09-2010 04:19:04 15.2 C 9.48 g/m*3 15.2 C 0 km/h
623 09-09-2010 04:31:04 15.2 C 9.35 g/m*3 15.2 C 0 km/h
624 09-09-2010 04:43:04 15.2 C 9.22 g/m*3 15.2 C 0 km/h
625 09-09-2010 04:55:04 15.1 C 9.03 g/m*3 15.1 C 0 km/h
Sensor: Nr:Datum:Temp:Abs-Feuchte:Windchill:Wind:
Aussen-T/F 626 09-09-2010 05:07:04 14.9 C 9.05 g/m*3 14.9 C 0 km/h
627 09-09-2010 05:19:04 14.9 C 9.05 g/m*3 14.9 C 0 km/h
628 09-09-2010 05:31:04 14.9 C 9.05 g/m*3 14.9 C 0 km/h
629 09-09-2010 05:43:04 14.9 C 9.05 g/m*3 14.9 C 0 km/h
630 09-09-2010 05:55:04 14.9 C 8.92 g/m*3 14.9 C 0 km/h
631 09-09-2010 06:07:04 14.8 C 8.87 g/m*3 14.8 C 0 km/h
632 09-09-2010 06:19:04 14.8 C 8.87 g/m*3 14.8 C 0 km/h
633 09-09-2010 06:31:04 14.8 C 8.87 g/m*3 14.8 C 0 km/h
634 09-09-2010 06:43:04 14.8 C 8.87 g/m*3 14.8 C 0 km/h
635 09-09-2010 06:55:04 14.7 C 8.94 g/m*3 14.7 C 0 km/h
636 09-09-2010 07:07:04 14.5 C 9.08 g/m*3 14.5 C 0 km/h
637 09-09-2010 07:19:04 14.5 C 9.08 g/m*3 14.5 C 0 km/h
638 09-09-2010 07:31:04 14.6 C 9.13 g/m*3 14.6 C 0 km/h
639 09-09-2010 07:43:04 14.6 C 9.01 g/m*3 14.6 C 0 km/h
640 09-09-2010 07:55:04 14.7 C 9.07 g/m*3 14.7 C 0 km/h
641 09-09-2010 08:07:02 14.7 C 9.07 g/m*3 14.7 C 0 km/h
642 09-09-2010 08:19:02 14.8 C 9.12 g/m*3 14.8 C 0 km/h
643 09-09-2010 08:31:02 14.8 C 9.12 g/m*3 14.8 C 0 km/h
644 09-09-2010 08:43:02 14.8 C 9.12 g/m*3 14.8 C 0 km/h
645 09-09-2010 08:55:02 14.9 C 9.05 g/m*3 14.9 C 0 km/h
646 09-09-2010 09:07:02 14.9 C 9.05 g/m*3 14.9 C 0 km/h
647 09-09-2010 09:19:03 14.9 C 9.05 g/m*3 14.9 C 0 km/h
648 09-09-2010 09:31:02 15.2 C 9.09 g/m*3 15.2 C 0 km/h
649 09-09-2010 09:43:02 15.5 C 9.12 g/m*3 15.5 C 0 km/h
650 09-09-2010 09:55:01 15.8 C 9.15 g/m*3 15.8 C 0 km/h
Sensor: Nr:Datum:Temp:Abs-Feuchte:Windchill:Wind:
Aussen-T/F 651 09-09-2010 10:07:02 16 C 8.99 g/m*3 16 C 0 km/h
652 09-09-2010 10:19:02 16.4 C 9.07 g/m*3 16.4 C 0 km/h
653 09-09-2010 10:31:01 16.8 C 9.15 g/m*3 16.8 C 0 km/h
654 09-09-2010 10:43:01 17.2 C 9.08 g/m*3 17.2 C 0 km/h
655 09-09-2010 10:55:02 17.4 C 9.19 g/m*3 17.4 C 0 km/h
656 09-09-2010 11:07:01 17.5 C 9.09 g/m*3 17.5 C 0 km/h
657 09-09-2010 11:19:02 17.5 C 9.09 g/m*3 17.5 C 0 km/h
658 09-09-2010 11:31:02 17.8 C 8.8 g/m*3 17.8 C 0 km/h
659 09-09-2010 11:43:02 17.8 C 8.65 g/m*3 17.8 C 0 km/h
660 09-09-2010 11:55:02 18.3 C 8.76 g/m*3 18.3 C 0 km/h
661 09-09-2010 12:07:01 18.5 C 8.23 g/m*3 18.5 C 0 km/h
662 09-09-2010 12:19:02 18.6 C 8.28 g/m*3 18.6 C 0 km/h
663 09-09-2010 12:31:02 18.6 C 8.12 g/m*3 18.6 C 0 km/h
664 09-09-2010 12:43:02 19 C 8.15 g/m*3 19 C 0 km/h
665 09-09-2010 12:55:02 18.5 C 8.07 g/m*3 18.5 C 0 km/h
666 09-09-2010 13:07:02 18.6 C 8.28 g/m*3 18.6 C 0 km/h
667 09-09-2010 13:19:02 18.7 C 8.17 g/m*3 18.7 C 0 km/h
668 09-09-2010 13:31:02 18.7 C 8.01 g/m*3 18.7 C 0 km/h
669 09-09-2010 13:43:02 19 C 8.15 g/m*3 19 C 0 km/h
670 09-09-2010 13:55:02 19 C 8.47 g/m*3 19 C 0 km/h
671 09-09-2010 14:07:02 18.6 C 8.12 g/m*3 18.6 C 0 km/h
672 09-09-2010 14:19:02 18.4 C 8.18 g/m*3 18.4 C 0 km/h
673 09-09-2010 14:31:02 18.8 C 8.86 g/m*3 18.8 C 0 km/h
674 09-09-2010 14:43:02 19.3 C 8.79 g/m*3 19.3 C 0 km/h
675 09-09-2010 14:55:02 19.8 C 9.05 g/m*3 19.8 C 0 km/h
Sensor: Nr:Datum:Temp:Abs-Feuchte:Windchill:Wind:
Aussen-T/F 676 09-09-2010 15:07:02 20.3 C 8.97 g/m*3 20.3 C 0 km/h
677 09-09-2010 15:19:02 20.3 C 8.97 g/m*3 20.3 C 0 km/h
678 09-09-2010 15:31:02 19.5 C 8.89 g/m*3 19.5 C 0 km/h
679 09-09-2010 15:43:02 18.7 C 9.29 g/m*3 18.7 C 0 km/h
680 09-09-2010 15:55:02 18.1 C 9.43 g/m*3 18.1 C 0 km/h
681 09-09-2010 16:07:01 17.7 C 9.51 g/m*3 17.7 C 0 km/h
682 09-09-2010 16:19:02 16.1 C 10.14 g/m*3 16.1 C 0 km/h
683 09-09-2010 16:31:01 16.1 C 10.42 g/m*3 16.1 C 0 km/h
684 09-09-2010 16:43:01 17.1 C 11.79 g/m*3 17.1 C 0 km/h
685 09-09-2010 16:55:02 18.5 C 12.82 g/m*3 18.5 C 0 km/h
686 09-09-2010 17:07:02 18.2 C 12.28 g/m*3 18.2 C 0 km/h
687 09-09-2010 17:19:02 18 C 12.13 g/m*3 18 C 0 km/h
688 09-09-2010 17:31:02 17.9 C 11.45 g/m*3 17.9 C 0 km/h
689 09-09-2010 17:43:02 17.8 C 11.08 g/m*3 17.8 C 0 km/h
690 09-09-2010 17:55:02 17.7 C 11.16 g/m*3 17.7 C 0 km/h
691 09-09-2010 18:07:02 17.7 C 11.32 g/m*3 17.7 C 0 km/h
692 09-09-2010 18:19:01 17.7 C 10.86 g/m*3 17.7 C 0 km/h
693 09-09-2010 18:31:02 17.7 C 10.41 g/m*3 17.7 C 0 km/h
694 09-09-2010 18:43:03 17.9 C 10.38 g/m*3 17.9 C 0 km/h
695 09-09-2010 18:55:02 17.5 C 9.39 g/m*3 17.5 C 0 km/h
696 09-09-2010 19:07:02 17.2 C 9.37 g/m*3 17.2 C 0 km/h
697 09-09-2010 19:19:01 16.8 C 9.44 g/m*3 16.8 C 0 km/h
698 09-09-2010 19:31:02 16.5 C 9.55 g/m*3 16.5 C 0 km/h
699 09-09-2010 19:43:02 16.2 C 9.52 g/m*3 16.2 C 0 km/h
700 09-09-2010 19:55:01 16 C 9.4 g/m*3 16 C 0 km/h
Sensor: Nr:Datum:Temp:Abs-Feuchte:Windchill:Wind:
Aussen-T/F 701 09-09-2010 20:07:02 15.9 C 9.48 g/m*3 15.9 C 0 km/h
702 09-09-2010 20:19:02 15.8 C 9.42 g/m*3 15.8 C 0 km/h
703 09-09-2010 20:31:01 15.4 C 9.72 g/m*3 15.4 C 0 km/h
704 09-09-2010 20:43:01 15 C 10 g/m*3 15 C 0 km/h
705 09-09-2010 20:55:01 14.9 C 10.2 g/m*3 14.9 C 0 km/h
706 09-09-2010 21:07:01 14.9 C 10.32 g/m*3 14.9 C 0 km/h
707 09-09-2010 21:19:02 14.9 C 10.32 g/m*3 14.9 C 0 km/h
708 09-09-2010 21:31:01 14.8 C 10.26 g/m*3 14.8 C 0 km/h
709 09-09-2010 21:43:01 14.7 C 10.2 g/m*3 14.7 C 0 km/h
710 09-09-2010 21:55:02 14.7 C 10.2 g/m*3 14.7 C 0 km/h
711 09-09-2010 22:07:02 14.7 C 10.2 g/m*3 14.7 C 0 km/h
712 09-09-2010 22:19:01 14.8 C 10.13 g/m*3 14.8 C 0 km/h
713 09-09-2010 22:31:01 14.8 C 10.26 g/m*3 14.8 C 0 km/h
714 09-09-2010 22:43:01 14.7 C 10.2 g/m*3 14.7 C 0 km/h
715 09-09-2010 22:56:02 14.7 C 10.07 g/m*3 14.7 C 0 km/h
716 09-09-2010 23:08:02 14.8 C 10.01 g/m*3 14.8 C 0 km/h
717 09-09-2010 23:20:03 15 C 9.75 g/m*3 15 C 0 km/h
718 09-09-2010 23:32:03 15 C 9.62 g/m*3 15 C 0 km/h
719 09-09-2010 23:44:03 15.1 C 9.68 g/m*3 15.1 C 0 km/h
720 09-09-2010 23:56:03 15 C 9.49 g/m*3 15 C 0 km/h
721 10-09-2010 00:08:03 14.9 C 9.81 g/m*3 14.9 C 0 km/h
722 10-09-2010 00:20:03 14.8 C 9.88 g/m*3 14.8 C 0 km/h
723 10-09-2010 00:32:03 14.6 C 10.01 g/m*3 14.6 C 0 km/h
724 10-09-2010 00:44:03 14.6 C 10.01 g/m*3 14.6 C 0 km/h
725 10-09-2010 00:56:03 14.4 C 9.89 g/m*3 14.4 C 0 km/h
Sensor: Nr:Datum:Temp:Abs-Feuchte:Windchill:Wind:
Aussen-T/F 726 10-09-2010 01:08:03 14.3 C 9.83 g/m*3 14.3 C 0 km/h
727 10-09-2010 01:20:03 14.1 C 9.71 g/m*3 14.1 C 0 km/h
728 10-09-2010 01:32:03 13.9 C 9.71 g/m*3 13.9 C 0 km/h
729 10-09-2010 01:44:03 13.8 C 9.77 g/m*3 13.8 C 0 km/h
730 10-09-2010 01:56:03 13.9 C 9.83 g/m*3 13.9 C 0 km/h
731 10-09-2010 02:08:03 13.8 C 9.89 g/m*3 13.8 C 0 km/h
732 10-09-2010 02:20:03 13.8 C 9.89 g/m*3 13.8 C 0 km/h
733 10-09-2010 02:32:03 13.9 C 10.07 g/m*3 13.9 C 0 km/h
734 10-09-2010 02:44:03 14 C 10.01 g/m*3 14 C 0 km/h
735 10-09-2010 02:56:03 14 C 9.89 g/m*3 14 C 0 km/h
736 10-09-2010 03:08:03 14 C 10.01 g/m*3 14 C 0 km/h
737 10-09-2010 03:20:03 14 C 10.01 g/m*3 14 C 0 km/h
738 10-09-2010 03:32:04 13.9 C 10.07 g/m*3 13.9 C 0 km/h
739 10-09-2010 03:44:04 13.8 C 10.13 g/m*3 13.8 C 0 km/h
740 10-09-2010 03:56:04 13.8 C 10.13 g/m*3 13.8 C 0 km/h
741 10-09-2010 04:08:04 13.9 C 10.31 g/m*3 13.9 C 0 km/h
742 10-09-2010 04:20:04 14 C 10.25 g/m*3 14 C 0 km/h
743 10-09-2010 04:32:04 13.9 C 10.31 g/m*3 13.9 C 0 km/h
744 10-09-2010 04:44:04 13.8 C 10.25 g/m*3 13.8 C 0 km/h
745 10-09-2010 04:56:04 13.6 C 10.12 g/m*3 13.6 C 0 km/h
746 10-09-2010 05:08:04 13.4 C 10 g/m*3 13.4 C 0 km/h
747 10-09-2010 05:20:04 13.2 C 9.99 g/m*3 13.2 C 0 km/h
748 10-09-2010 05:32:04 13.1 C 10.04 g/m*3 13.1 C 0 km/h
749 10-09-2010 05:44:04 12.8 C 9.97 g/m*3 12.8 C 0 km/h
750 10-09-2010 05:56:04 12.8 C 9.97 g/m*3 12.8 C 0 km/h
Sensor: Nr:Datum:Temp:Abs-Feuchte:Windchill:Wind:
Aussen-T/F 751 10-09-2010 06:08:04 13.2 C 10.33 g/m*3 13.2 C 0 km/h
752 10-09-2010 06:20:04 13 C 10.09 g/m*3 13 C 0 km/h
753 10-09-2010 06:32:04 13.1 C 10.27 g/m*3 13.1 C 0 km/h
754 10-09-2010 06:44:04 13.1 C 10.27 g/m*3 13.1 C 0 km/h
755 10-09-2010 06:56:04 13.2 C 10.22 g/m*3 13.2 C 0 km/h
756 10-09-2010 07:08:04 13.1 C 10.16 g/m*3 13.1 C 0 km/h
757 10-09-2010 07:20:04 13.2 C 9.99 g/m*3 13.2 C 0 km/h
758 10-09-2010 07:32:05 13.3 C 9.7 g/m*3 13.3 C 0 km/h
759 10-09-2010 07:44:05 13.2 C 9.64 g/m*3 13.2 C 0 km/h
760 10-09-2010 07:56:02 13.1 C 9.7 g/m*3 13.1 C 0 km/h
761 10-09-2010 08:08:02 13.1 C 9.81 g/m*3 13.1 C 0 km/h
762 10-09-2010 08:20:02 13.1 C 9.93 g/m*3 13.1 C 0 km/h
763 10-09-2010 08:32:02 13.2 C 9.99 g/m*3 13.2 C 0 km/h
764 10-09-2010 08:44:03 13.5 C 10.06 g/m*3 13.5 C 0 km/h
765 10-09-2010 08:56:02 13.7 C 9.95 g/m*3 13.7 C 0 km/h
766 10-09-2010 09:08:02 14 C 9.77 g/m*3 14 C 0 km/h
767 10-09-2010 09:20:02 14.4 C 9.64 g/m*3 14.4 C 0 km/h
768 10-09-2010 09:32:02 14.5 C 9.58 g/m*3 14.5 C 0 km/h
769 10-09-2010 09:44:02 14.9 C 9.43 g/m*3 14.9 C 0 km/h
770 10-09-2010 09:56:02 15.2 C 9.22 g/m*3 15.2 C 0 km/h
771 10-09-2010 10:08:02 15.5 C 9.39 g/m*3 15.5 C 0 km/h
772 10-09-2010 10:20:03 15.7 C 9.23 g/m*3 15.7 C 0 km/h
773 10-09-2010 10:32:02 16.2 C 9.38 g/m*3 16.2 C 0 km/h
774 10-09-2010 10:44:02 16.6 C 9.46 g/m*3 16.6 C 0 km/h
775 10-09-2010 10:56:02 16.8 C 9.29 g/m*3 16.8 C 0 km/h
Sensor: Nr:Datum:Temp:Abs-Feuchte:Windchill:Wind:
Aussen-T/F 776 10-09-2010 11:08:02 17.2 C 9.37 g/m*3 17.2 C 0 km/h
777 10-09-2010 11:20:02 17.7 C 9.51 g/m*3 17.7 C 0 km/h
778 10-09-2010 11:32:02 18.1 C 9.12 g/m*3 18.1 C 0 km/h
779 10-09-2010 11:44:02 18.1 C 8.96 g/m*3 18.1 C 0 km/h
780 10-09-2010 11:56:02 18.3 C 9.07 g/m*3 18.3 C 0 km/h
781 10-09-2010 12:08:01 18.6 C 9.07 g/m*3 18.6 C 0 km/h
782 10-09-2010 12:20:02 18.7 C 9.13 g/m*3 18.7 C 0 km/h
783 10-09-2010 12:32:02 18.4 C 9.12 g/m*3 18.4 C 0 km/h
784 10-09-2010 12:44:02 18.8 C 9.34 g/m*3 18.8 C 0 km/h
785 10-09-2010 12:56:02 19.2 C 9.23 g/m*3 19.2 C 0 km/h
786 10-09-2010 13:08:03 19.5 C 8.89 g/m*3 19.5 C 0 km/h
787 10-09-2010 13:20:02 19.4 C 8.84 g/m*3 19.4 C 0 km/h
788 10-09-2010 13:32:02 19 C 8.47 g/m*3 19 C 0 km/h
789 10-09-2010 13:44:02 19 C 8.47 g/m*3 19 C 0 km/h
790 10-09-2010 13:56:01 19 C 8.64 g/m*3 19 C 0 km/h
791 10-09-2010 14:08:02 19.3 C 8.79 g/m*3 19.3 C 0 km/h
792 10-09-2010 14:20:01 19.9 C 8.76 g/m*3 19.9 C 0 km/h
793 10-09-2010 14:32:01 20.4 C 8.67 g/m*3 20.4 C 0 km/h
794 10-09-2010 14:44:01 20.2 C 8.74 g/m*3 20.2 C 0 km/h
795 10-09-2010 14:56:01 19.9 C 8.76 g/m*3 19.9 C 0 km/h
796 10-09-2010 15:08:02 20 C 8.64 g/m*3 20 C 0 km/h
797 10-09-2010 15:20:02 20.6 C 8.95 g/m*3 20.6 C 0 km/h
798 10-09-2010 15:32:01 20.9 C 8.38 g/m*3 20.9 C 0 km/h
799 10-09-2010 15:44:01 21.2 C 8.34 g/m*3 21.2 C 0 km/h
800 10-09-2010 15:56:02 21.4 C 8.62 g/m*3 21.4 C 0 km/h
Sensor: Nr:Datum:Temp:Abs-Feuchte:Windchill:Wind:
Aussen-T/F 801 10-09-2010 16:08:01 21.2 C 8.34 g/m*3 21.2 C 0 km/h
802 10-09-2010 16:20:02 20.8 C 8.33 g/m*3 20.8 C 0 km/h
803 10-09-2010 16:32:01 21.1 C 8.48 g/m*3 21.1 C 0 km/h
804 10-09-2010 16:44:01 21.2 C 8.71 g/m*3 21.2 C 0 km/h
805 10-09-2010 16:56:02 21.2 C 8.34 g/m*3 21.2 C 0 km/h
806 10-09-2010 17:08:02 20.9 C 8.56 g/m*3 20.9 C 0 km/h
807 10-09-2010 17:20:02 20.5 C 8.9 g/m*3 20.5 C 0 km/h
808 10-09-2010 17:32:03 20.1 C 9.04 g/m*3 20.1 C 0 km/h
809 10-09-2010 17:44:03 19.8 C 9.39 g/m*3 19.8 C 0 km/h
810 10-09-2010 17:56:02 19.6 C 8.95 g/m*3 19.6 C 0 km/h
811 10-09-2010 18:08:02 19.4 C 9.18 g/m*3 19.4 C 0 km/h
812 10-09-2010 18:20:02 18.9 C 9.56 g/m*3 18.9 C 0 km/h
813 10-09-2010 18:32:02 17.8 C 10.17 g/m*3 17.8 C 0 km/h
814 10-09-2010 18:44:02 16.8 C 10.72 g/m*3 16.8 C 0 km/h
815 10-09-2010 18:56:02 16.4 C 11.03 g/m*3 16.4 C 0 km/h
816 10-09-2010 19:08:02 16.4 C 11.31 g/m*3 16.4 C 0 km/h
817 10-09-2010 19:20:02 16.8 C 11.72 g/m*3 16.8 C 0 km/h
818 10-09-2010 19:32:02 16.3 C 11.38 g/m*3 16.3 C 0 km/h
819 10-09-2010 19:44:02 16 C 11.31 g/m*3 16 C 0 km/h
820 10-09-2010 19:56:02 15.8 C 11.44 g/m*3 15.8 C 0 km/h
821 10-09-2010 20:08:03 15.8 C 11.58 g/m*3 15.8 C 0 km/h
822 10-09-2010 20:20:02 15.7 C 11.51 g/m*3 15.7 C 0 km/h
823 10-09-2010 20:32:03 15.6 C 11.57 g/m*3 15.6 C 0 km/h
824 10-09-2010 20:44:03 15.6 C 11.57 g/m*3 15.6 C 0 km/h
825 10-09-2010 20:56:02 15.7 C 11.64 g/m*3 15.7 C 0 km/h
Sensor: Nr:Datum:Temp:Abs-Feuchte:Windchill:Wind:
Aussen-T/F 826 10-09-2010 21:08:01 15.8 C 11.71 g/m*3 15.8 C 0 km/h
827 10-09-2010 21:20:02 15.8 C 11.71 g/m*3 15.8 C 0 km/h
828 10-09-2010 21:32:02 15.8 C 11.71 g/m*3 15.8 C 0 km/h
829 10-09-2010 21:44:02 15.8 C 11.71 g/m*3 15.8 C 0 km/h
830 10-09-2010 21:56:02 15.8 C 11.58 g/m*3 15.8 C 0 km/h
831 10-09-2010 22:08:01 15.8 C 11.58 g/m*3 15.8 C 0 km/h
832 10-09-2010 22:20:02 15.8 C 11.58 g/m*3 15.8 C 0 km/h
833 10-09-2010 22:32:01 15.7 C 11.51 g/m*3 15.7 C 0 km/h
834 10-09-2010 22:44:01 15.6 C 11.3 g/m*3 15.6 C 0 km/h
835 10-09-2010 22:57:03 15.5 C 11.24 g/m*3 15.5 C 0 km/h
836 10-09-2010 23:09:03 15.6 C 11.3 g/m*3 15.6 C 0 km/h
837 10-09-2010 23:21:03 15.5 C 11.24 g/m*3 15.5 C 0 km/h
838 10-09-2010 23:33:03 15.5 C 11.24 g/m*3 15.5 C 0 km/h
839 10-09-2010 23:45:03 15.4 C 11.17 g/m*3 15.4 C 0 km/h
840 10-09-2010 23:57:03 15.3 C 10.97 g/m*3 15.3 C 0 km/h
841 11-09-2010 00:09:03 15.2 C 10.9 g/m*3 15.2 C 0 km/h
842 11-09-2010 00:21:03 15.2 C 10.9 g/m*3 15.2 C 0 km/h
843 11-09-2010 00:33:03 15.1 C 10.84 g/m*3 15.1 C 0 km/h
844 11-09-2010 00:45:03 15.1 C 10.84 g/m*3 15.1 C 0 km/h
845 11-09-2010 00:57:03 15.1 C 10.84 g/m*3 15.1 C 0 km/h
846 11-09-2010 01:09:03 15.1 C 10.84 g/m*3 15.1 C 0 km/h
847 11-09-2010 01:21:03 15 C 10.77 g/m*3 15 C 0 km/h
848 11-09-2010 01:33:03 15 C 10.77 g/m*3 15 C 0 km/h
849 11-09-2010 01:45:04 15 C 10.77 g/m*3 15 C 0 km/h
850 11-09-2010 01:57:04 14.9 C 10.83 g/m*3 14.9 C 0 km/h
Sensor: Nr:Datum:Temp:Abs-Feuchte:Windchill:Wind:
Aussen-T/F 851 11-09-2010 02:09:04 14.9 C 10.83 g/m*3 14.9 C 0 km/h
852 11-09-2010 02:21:04 14.8 C 10.77 g/m*3 14.8 C 0 km/h
853 11-09-2010 02:33:04 14.7 C 10.58 g/m*3 14.7 C 0 km/h
854 11-09-2010 02:45:04 14.7 C 10.7 g/m*3 14.7 C 0 km/h
855 11-09-2010 02:57:04 14.6 C 10.76 g/m*3 14.6 C 0 km/h
856 11-09-2010 03:09:04 14.4 C 10.63 g/m*3 14.4 C 0 km/h
857 11-09-2010 03:21:04 14.3 C 10.57 g/m*3 14.3 C 0 km/h
858 11-09-2010 03:33:04 14.1 C 10.44 g/m*3 14.1 C 0 km/h
859 11-09-2010 03:45:04 14 C 10.37 g/m*3 14 C 0 km/h
860 11-09-2010 03:57:04 13.6 C 10.12 g/m*3 13.6 C 0 km/h
861 11-09-2010 04:09:04 13.5 C 10.06 g/m*3 13.5 C 0 km/h
862 11-09-2010 04:21:04 13.3 C 9.94 g/m*3 13.3 C 0 km/h
863 11-09-2010 04:33:04 13.1 C 9.81 g/m*3 13.1 C 0 km/h
864 11-09-2010 04:45:04 13 C 9.75 g/m*3 13 C 0 km/h
865 11-09-2010 04:57:04 12.8 C 9.74 g/m*3 12.8 C 0 km/h
866 11-09-2010 05:09:04 12.6 C 9.62 g/m*3 12.6 C 0 km/h
867 11-09-2010 05:21:04 12.5 C 9.68 g/m*3 12.5 C 0 km/h
868 11-09-2010 05:33:04 12.6 C 9.74 g/m*3 12.6 C 0 km/h
869 11-09-2010 05:45:05 12.7 C 9.91 g/m*3 12.7 C 0 km/h
870 11-09-2010 05:57:05 12.8 C 9.97 g/m*3 12.8 C 0 km/h
871 11-09-2010 06:09:05 13 C 10.09 g/m*3 13 C 0 km/h
872 11-09-2010 06:21:05 13.1 C 10.16 g/m*3 13.1 C 0 km/h
873 11-09-2010 06:33:05 12.8 C 9.97 g/m*3 12.8 C 0 km/h
874 11-09-2010 06:45:05 12.5 C 9.78 g/m*3 12.5 C 0 km/h
875 11-09-2010 06:57:05 12.3 C 9.56 g/m*3 12.3 C 0 km/h
Sensor: Nr:Datum:Temp:Abs-Feuchte:Windchill:Wind:
Aussen-T/F 876 11-09-2010 07:09:05 12.1 C 9.44 g/m*3 12.1 C 0 km/h
877 11-09-2010 07:21:05 12.1 C 9.44 g/m*3 12.1 C 0 km/h
878 11-09-2010 07:33:05 12.1 C 9.54 g/m*3 12.1 C 0 km/h
879 11-09-2010 07:45:05 12.1 C 9.54 g/m*3 12.1 C 0 km/h
880 11-09-2010 07:57:05 12.4 C 9.72 g/m*3 12.4 C 0 km/h
881 11-09-2010 08:09:05 12.7 C 10.02 g/m*3 12.7 C 0 km/h
882 11-09-2010 08:21:03 13 C 10.21 g/m*3 13 C 0 km/h
883 11-09-2010 08:33:02 13 C 10.21 g/m*3 13 C 0 km/h
884 11-09-2010 08:45:02 13.1 C 10.27 g/m*3 13.1 C 0 km/h
885 11-09-2010 08:57:02 13.4 C 10.46 g/m*3 13.4 C 0 km/h
886 11-09-2010 09:09:02 13.4 C 10.35 g/m*3 13.4 C 0 km/h
887 11-09-2010 09:21:02 13.5 C 10.41 g/m*3 13.5 C 0 km/h
888 11-09-2010 09:33:02 13.7 C 10.54 g/m*3 13.7 C 0 km/h
889 11-09-2010 09:45:01 13.9 C 10.67 g/m*3 13.9 C 0 km/h
890 11-09-2010 09:57:01 14.3 C 10.81 g/m*3 14.3 C 0 km/h
891 11-09-2010 10:09:02 14.7 C 11.08 g/m*3 14.7 C 0 km/h
892 11-09-2010 10:21:01 15 C 11.03 g/m*3 15 C 0 km/h
893 11-09-2010 10:33:01 15.6 C 11.3 g/m*3 15.6 C 0 km/h
894 11-09-2010 10:45:01 16.2 C 11.45 g/m*3 16.2 C 0 km/h
895 11-09-2010 10:57:01 16.8 C 11.72 g/m*3 16.8 C 0 km/h
896 11-09-2010 11:09:01 17.1 C 11.5 g/m*3 17.1 C 0 km/h
897 11-09-2010 11:21:02 17.5 C 11.18 g/m*3 17.5 C 0 km/h
898 11-09-2010 11:33:01 18.2 C 11.35 g/m*3 18.2 C 0 km/h
899 11-09-2010 11:45:03 19.1 C 11.31 g/m*3 19.1 C 0 km/h
900 11-09-2010 11:57:03 19.3 C 11.44 g/m*3 19.3 C 0 km/h
Sensor: Nr:Datum:Temp:Abs-Feuchte:Windchill:Wind:
Aussen-T/F 901 11-09-2010 12:09:02 19.2 C 9.89 g/m*3 19.2 C 0 km/h
902 11-09-2010 12:21:02 19.6 C 9.96 g/m*3 19.6 C 0 km/h
903 11-09-2010 12:33:02 19.9 C 9.45 g/m*3 19.9 C 0 km/h
904 11-09-2010 12:45:02 20.2 C 9.27 g/m*3 20.2 C 0 km/h
905 11-09-2010 12:57:02 20.6 C 9.31 g/m*3 20.6 C 0 km/h
906 11-09-2010 13:09:02 20.9 C 9.11 g/m*3 20.9 C 0 km/h
907 11-09-2010 13:21:02 21.3 C 8.76 g/m*3 21.3 C 0 km/h
908 11-09-2010 13:33:01 21.7 C 8.97 g/m*3 21.7 C 0 km/h
909 11-09-2010 13:45:02 22.2 C 8.44 g/m*3 22.2 C 0 km/h
910 11-09-2010 13:57:03 22.7 C 8.69 g/m*3 22.7 C 0 km/h
911 11-09-2010 14:09:01 23.3 C 8.15 g/m*3 23.3 C 0 km/h
912 11-09-2010 14:21:01 23.9 C 8.44 g/m*3 23.9 C 0 km/h
913 11-09-2010 14:33:02 24.3 C 8.19 g/m*3 24.3 C 0 km/h
914 11-09-2010 14:45:02 24.5 C 7.83 g/m*3 24.5 C 0 km/h
915 11-09-2010 14:57:02 25 C 8.06 g/m*3 25 C 0 km/h
916 11-09-2010 15:09:02 25.6 C 8.09 g/m*3 25.6 C 0 km/h
917 11-09-2010 15:21:02 25.7 C 7.9 g/m*3 25.7 C 0 km/h
918 11-09-2010 15:33:02 25.6 C 8.57 g/m*3 25.6 C 0 km/h
919 11-09-2010 15:45:02 26.5 C 7.51 g/m*3 26.5 C 0 km/h
920 11-09-2010 15:57:02 26.8 C 7.13 g/m*3 26.8 C 0 km/h
921 11-09-2010 16:09:02 25.7 C 7.66 g/m*3 25.7 C 0 km/h
922 11-09-2010 16:21:02 25.3 C 9.13 g/m*3 25.3 C 0 km/h
923 11-09-2010 16:33:02 26.5 C 8.01 g/m*3 26.5 C 0 km/h
924 11-09-2010 16:45:02 26.4 C 7.72 g/m*3 26.4 C 0 km/h
925 11-09-2010 16:57:02 27.8 C 8.34 g/m*3 27.8 C 0 km/h
Sensor: Nr:Datum:Temp:Abs-Feuchte:Windchill:Wind:
Aussen-T/F 926 11-09-2010 17:09:02 28 C 7.61 g/m*3 28 C 0 km/h
927 11-09-2010 17:21:02 27.3 C 7.85 g/m*3 27.3 C 0 km/h
928 11-09-2010 17:33:02 27.5 C 8.47 g/m*3 27.5 C 0 km/h
929 11-09-2010 17:45:02 27.6 C 8.78 g/m*3 27.6 C 0 km/h
930 11-09-2010 17:57:02 27.7 C 8.83 g/m*3 27.7 C 0 km/h
931 11-09-2010 18:09:02 27.5 C 9.26 g/m*3 27.5 C 0 km/h
932 11-09-2010 18:21:02 26.8 C 9.16 g/m*3 26.8 C 0 km/h
933 11-09-2010 18:33:01 26.3 C 8.91 g/m*3 26.3 C 0 km/h
934 11-09-2010 18:45:02 25.3 C 9.36 g/m*3 25.3 C 0 km/h
935 11-09-2010 18:57:02 24.4 C 9.57 g/m*3 24.4 C 0 km/h
936 11-09-2010 19:09:01 23.7 C 9.63 g/m*3 23.7 C 0 km/h
937 11-09-2010 19:21:02 22.6 C 9.64 g/m*3 22.6 C 0 km/h
938 11-09-2010 19:33:02 21.6 C 10.05 g/m*3 21.6 C 0 km/h
939 11-09-2010 19:45:02 20.7 C 9.72 g/m*3 20.7 C 0 km/h
940 11-09-2010 19:57:02 20.2 C 9.44 g/m*3 20.2 C 0 km/h
941 11-09-2010 20:09:02 20 C 9.33 g/m*3 20 C 0 km/h
942 11-09-2010 20:21:02 19.5 C 9.4 g/m*3 19.5 C 0 km/h
943 11-09-2010 20:33:02 19.3 C 9.45 g/m*3 19.3 C 0 km/h
944 11-09-2010 20:45:01 19.1 C 9.67 g/m*3 19.1 C 0 km/h
945 11-09-2010 20:57:01 18.8 C 9.66 g/m*3 18.8 C 0 km/h
946 11-09-2010 21:09:02 18.6 C 9.71 g/m*3 18.6 C 0 km/h
947 11-09-2010 21:21:01 18.4 C 9.91 g/m*3 18.4 C 0 km/h
948 11-09-2010 21:33:01 18.2 C 10.1 g/m*3 18.2 C 0 km/h
949 11-09-2010 21:45:01 17.7 C 10.11 g/m*3 17.7 C 0 km/h
950 11-09-2010 21:57:01 17.6 C 10.2 g/m*3 17.6 C 0 km/h
Sensor: Nr:Datum:Temp:Abs-Feuchte:Windchill:Wind:
Aussen-T/F 951 11-09-2010 22:09:02 17.6 C 10.2 g/m*3 17.6 C 0 km/h
952 11-09-2010 22:21:01 17.4 C 10.23 g/m*3 17.4 C 0 km/h
953 11-09-2010 22:34:03 17.2 C 10.1 g/m*3 17.2 C 0 km/h
954 11-09-2010 22:46:03 16.9 C 10.36 g/m*3 16.9 C 0 km/h
955 11-09-2010 22:58:03 16.9 C 10.5 g/m*3 16.9 C 0 km/h
956 11-09-2010 23:10:03 17 C 10.42 g/m*3 17 C 0 km/h
957 11-09-2010 23:22:03 16.6 C 10.45 g/m*3 16.6 C 0 km/h
958 11-09-2010 23:34:03 16.5 C 10.39 g/m*3 16.5 C 0 km/h
959 11-09-2010 23:46:03 16.4 C 10.33 g/m*3 16.4 C 0 km/h
960 11-09-2010 23:58:03 16.3 C 10.41 g/m*3 16.3 C 0 km/h
961 12-09-2010 00:10:03 16.2 C 10.48 g/m*3 16.2 C 0 km/h
962 12-09-2010 00:22:03 16.2 C 10.48 g/m*3 16.2 C 0 km/h
963 12-09-2010 00:34:03 16.1 C 10.42 g/m*3 16.1 C 0 km/h
964 12-09-2010 00:46:03 16 C 10.35 g/m*3 16 C 0 km/h
965 12-09-2010 00:58:03 15.8 C 10.36 g/m*3 15.8 C 0 km/h
966 12-09-2010 01:10:03 15.6 C 10.37 g/m*3 15.6 C 0 km/h
967 12-09-2010 01:22:04 15.5 C 10.31 g/m*3 15.5 C 0 km/h
968 12-09-2010 01:34:04 15.2 C 10.25 g/m*3 15.2 C 0 km/h
969 12-09-2010 01:46:04 15.2 C 10.38 g/m*3 15.2 C 0 km/h
970 12-09-2010 01:58:04 15.2 C 10.38 g/m*3 15.2 C 0 km/h
971 12-09-2010 02:10:04 15 C 10.26 g/m*3 15 C 0 km/h
972 12-09-2010 02:22:04 15 C 10.39 g/m*3 15 C 0 km/h
973 12-09-2010 02:34:04 14.9 C 10.45 g/m*3 14.9 C 0 km/h
974 12-09-2010 02:46:04 14.8 C 10.51 g/m*3 14.8 C 0 km/h
975 12-09-2010 02:58:04 14.7 C 10.32 g/m*3 14.7 C 0 km/h
Sensor: Nr:Datum:Temp:Abs-Feuchte:Windchill:Wind:
Aussen-T/F 976 12-09-2010 03:10:04 14.7 C 10.32 g/m*3 14.7 C 0 km/h
977 12-09-2010 03:22:04 14.6 C 10.26 g/m*3 14.6 C 0 km/h
978 12-09-2010 03:34:04 14.4 C 10.14 g/m*3 14.4 C 0 km/h
979 12-09-2010 03:46:04 14.3 C 10.07 g/m*3 14.3 C 0 km/h
980 12-09-2010 03:58:04 14.3 C 10.2 g/m*3 14.3 C 0 km/h
981 12-09-2010 04:10:04 14.2 C 10.14 g/m*3 14.2 C 0 km/h
982 12-09-2010 04:22:04 14.1 C 10.07 g/m*3 14.1 C 0 km/h
983 12-09-2010 04:34:05 14.1 C 10.07 g/m*3 14.1 C 0 km/h
984 12-09-2010 04:46:05 14.1 C 10.07 g/m*3 14.1 C 0 km/h
985 12-09-2010 04:58:05 14 C 10.01 g/m*3 14 C 0 km/h
986 12-09-2010 05:10:05 13.9 C 10.07 g/m*3 13.9 C 0 km/h
987 12-09-2010 05:22:05 13.7 C 9.95 g/m*3 13.7 C 0 km/h
988 12-09-2010 05:34:05 13.8 C 10.01 g/m*3 13.8 C 0 km/h
989 12-09-2010 05:46:05 13.7 C 9.95 g/m*3 13.7 C 0 km/h
990 12-09-2010 05:58:05 13.7 C 9.95 g/m*3 13.7 C 0 km/h
991 12-09-2010 06:10:05 13.7 C 9.95 g/m*3 13.7 C 0 km/h
992 12-09-2010 06:22:05 13.5 C 9.94 g/m*3 13.5 C 0 km/h
993 12-09-2010 06:34:05 13.5 C 9.94 g/m*3 13.5 C 0 km/h
994 12-09-2010 06:46:05 13.5 C 9.94 g/m*3 13.5 C 0 km/h
995 12-09-2010 06:58:05 13.4 C 9.88 g/m*3 13.4 C 0 km/h
996 12-09-2010 07:10:05 13.5 C 9.94 g/m*3 13.5 C 0 km/h
997 12-09-2010 07:22:05 13.5 C 10.06 g/m*3 13.5 C 0 km/h
998 12-09-2010 07:34:05 13.6 C 10.12 g/m*3 13.6 C 0 km/h
999 12-09-2010 07:46:02 13.8 C 10.25 g/m*3 13.8 C 0 km/h
1000 12-09-2010 07:58:02 14.1 C 10.32 g/m*3 14.1 C 0 km/h
Sensor: Nr:Datum:Temp:Abs-Feuchte:Windchill:Wind:
Aussen-T/F 1001 12-09-2010 08:10:02 14.1 C 10.32 g/m*3 14.1 C 0 km/h
1002 12-09-2010 08:22:01 14.4 C 10.38 g/m*3 14.4 C 0 km/h
1003 12-09-2010 08:34:02 14.5 C 10.32 g/m*3 14.5 C 0 km/h
1004 12-09-2010 08:46:02 14 C 10.13 g/m*3 14 C 0 km/h
1005 12-09-2010 08:58:02 14.3 C 10.32 g/m*3 14.3 C 0 km/h
1006 12-09-2010 09:10:02 14.8 C 10.64 g/m*3 14.8 C 0 km/h
1007 12-09-2010 09:22:02 14.8 C 10.39 g/m*3 14.8 C 0 km/h
1008 12-09-2010 09:34:02 14.8 C 10.51 g/m*3 14.8 C 0 km/h
1009 12-09-2010 09:46:02 15 C 10.51 g/m*3 15 C 0 km/h
1010 12-09-2010 09:58:02 14.8 C 10.51 g/m*3 14.8 C 0 km/h
1011 12-09-2010 10:10:02 15.3 C 10.84 g/m*3 15.3 C 0 km/h
1012 12-09-2010 10:22:03 15.9 C 11.1 g/m*3 15.9 C 0 km/h
1013 12-09-2010 10:34:02 16.8 C 11.29 g/m*3 16.8 C 0 km/h
1014 12-09-2010 10:46:02 18 C 11.37 g/m*3 18 C 0 km/h
1015 12-09-2010 10:58:02 18.7 C 11.05 g/m*3 18.7 C 0 km/h
1016 12-09-2010 11:10:02 19.5 C 10.41 g/m*3 19.5 C 0 km/h
1017 12-09-2010 11:22:02 20.2 C 10.67 g/m*3 20.2 C 0 km/h
1018 12-09-2010 11:34:02 20.1 C 10.6 g/m*3 20.1 C 0 km/h
1019 12-09-2010 11:46:02 20 C 10.89 g/m*3 20 C 0 km/h
1020 12-09-2010 11:58:02 20.3 C 10.9 g/m*3 20.3 C 0 km/h
1021 12-09-2010 12:10:01 20.5 C 10.85 g/m*3 20.5 C 0 km/h
1022 12-09-2010 12:22:02 20.9 C 11.11 g/m*3 20.9 C 0 km/h
1023 12-09-2010 12:34:01 21.4 C 11.06 g/m*3 21.4 C 0 km/h
1024 12-09-2010 12:46:01 22.4 C 10.33 g/m*3 22.4 C 0 km/h
1025 12-09-2010 12:58:02 22.9 C 10.22 g/m*3 22.9 C 0 km/h
Sensor: Nr:Datum:Temp:Abs-Feuchte:Windchill:Wind:
Aussen-T/F 1026 12-09-2010 13:10:01 23.1 C 10.34 g/m*3 23.1 C 0 km/h
1027 12-09-2010 13:22:01 23.7 C 10.48 g/m*3 23.7 C 0 km/h
1028 12-09-2010 13:34:02 24.3 C 9.74 g/m*3 24.3 C 0 km/h
1029 12-09-2010 13:46:02 25 C 8.98 g/m*3 25 C 0 km/h
1030 12-09-2010 13:58:02 25.9 C 9.44 g/m*3 25.9 C 0 km/h
1031 12-09-2010 14:10:02 25.7 C 9.34 g/m*3 25.7 C 0 km/h
1032 12-09-2010 14:22:01 25 C 8.06 g/m*3 25 C 0 km/h
1033 12-09-2010 14:34:02 24.7 C 8.15 g/m*3 24.7 C 0 km/h
1034 12-09-2010 14:46:02 23.1 C 9.72 g/m*3 23.1 C 0 km/h
1035 12-09-2010 14:58:02 20.8 C 10.14 g/m*3 20.8 C 0 km/h
1036 12-09-2010 15:10:02 19.5 C 9.23 g/m*3 19.5 C 0 km/h
1037 12-09-2010 15:22:02 19.1 C 8.69 g/m*3 19.1 C 0 km/h
1038 12-09-2010 15:34:02 19.4 C 8.84 g/m*3 19.4 C 0 km/h
1039 12-09-2010 15:46:02 19.4 C 8.84 g/m*3 19.4 C 0 km/h
1040 12-09-2010 15:58:02 19.2 C 8.74 g/m*3 19.2 C 0 km/h
1041 12-09-2010 16:10:02 17.9 C 8.86 g/m*3 17.9 C 0 km/h
1042 12-09-2010 16:22:02 18.1 C 9.12 g/m*3 18.1 C 0 km/h
1043 12-09-2010 16:34:02 18.1 C 9.27 g/m*3 18.1 C 0 km/h
1044 12-09-2010 16:46:02 17.6 C 9.3 g/m*3 17.6 C 0 km/h
1045 12-09-2010 16:58:02 17.2 C 9.37 g/m*3 17.2 C 0 km/h
1046 12-09-2010 17:10:02 17.2 C 9.52 g/m*3 17.2 C 0 km/h
1047 12-09-2010 17:22:02 16.6 C 9.04 g/m*3 16.6 C 0 km/h
1048 12-09-2010 17:34:01 16.1 C 9.46 g/m*3 16.1 C 0 km/h
1049 12-09-2010 17:46:02 15.6 C 9.97 g/m*3 15.6 C 0 km/h
1050 12-09-2010 17:58:02 15.5 C 10.31 g/m*3 15.5 C 0 km/h
Sensor: Nr:Datum:Temp:Abs-Feuchte:Windchill:Wind:
Aussen-T/F 1051 12-09-2010 18:10:01 15.2 C 10.25 g/m*3 15.2 C 0 km/h
1052 12-09-2010 18:22:02 15.2 C 10.51 g/m*3 15.2 C 0 km/h
1053 12-09-2010 18:34:02 14.9 C 10.58 g/m*3 14.9 C 0 km/h
1054 12-09-2010 18:46:02 14.7 C 10.7 g/m*3 14.7 C 0 km/h
1055 12-09-2010 18:58:02 14.6 C 10.89 g/m*3 14.6 C 0 km/h
1056 12-09-2010 19:10:02 14.5 C 10.82 g/m*3 14.5 C 0 km/h
1057 12-09-2010 19:22:02 14.3 C 10.69 g/m*3 14.3 C 0 km/h
1058 12-09-2010 19:34:02 14.1 C 10.68 g/m*3 14.1 C 0 km/h
1059 12-09-2010 19:46:01 14.3 C 10.93 g/m*3 14.3 C 0 km/h
1060 12-09-2010 19:58:01 14.1 C 10.8 g/m*3 14.1 C 0 km/h
1061 12-09-2010 20:10:02 14 C 10.74 g/m*3 14 C 0 km/h
1062 12-09-2010 20:22:01 13.9 C 10.79 g/m*3 13.9 C 0 km/h
1063 12-09-2010 20:34:01 13.8 C 10.84 g/m*3 13.8 C 0 km/h
1064 12-09-2010 20:46:01 13.7 C 10.78 g/m*3 13.7 C 0 km/h
1065 12-09-2010 20:58:01 13.7 C 10.89 g/m*3 13.7 C 0 km/h
1066 12-09-2010 21:10:02 13.6 C 10.83 g/m*3 13.6 C 0 km/h
1067 12-09-2010 21:22:01 13.7 C 10.89 g/m*3 13.7 C 0 km/h
1068 12-09-2010 21:34:01 13.7 C 10.89 g/m*3 13.7 C 0 km/h
1069 12-09-2010 21:46:01 13.9 C 11.15 g/m*3 13.9 C 0 km/h
1070 12-09-2010 21:58:01 14 C 11.1 g/m*3 14 C 0 km/h
1071 12-09-2010 22:10:02 13.9 C 11.15 g/m*3 13.9 C 0 km/h
1072 12-09-2010 22:22:01 13.9 C 11.15 g/m*3 13.9 C 0 km/h
1073 12-09-2010 22:34:02 13.8 C 11.08 g/m*3 13.8 C 0 km/h
1074 12-09-2010 22:46:02 13.7 C 11.01 g/m*3 13.7 C 0 km/h
1075 12-09-2010 22:58:02 13.6 C 10.95 g/m*3 13.6 C 0 km/h
Sensor: Nr:Datum:Temp:Abs-Feuchte:Windchill:Wind:
Aussen-T/F 1076 12-09-2010 23:10:01 13.5 C 10.88 g/m*3 13.5 C 0 km/h
1077 12-09-2010 23:22:02 13.5 C 10.88 g/m*3 13.5 C 0 km/h
1078 12-09-2010 23:34:02 13.5 C 10.88 g/m*3 13.5 C 0 km/h
1079 12-09-2010 23:46:02 13.7 C 11.01 g/m*3 13.7 C 0 km/h
1080 12-09-2010 23:58:02 13.7 C 11.01 g/m*3 13.7 C 0 km/h
1081 13-09-2010 00:10:03 13.7 C 11.01 g/m*3 13.7 C 0 km/h
1082 13-09-2010 00:22:02 13.6 C 10.95 g/m*3 13.6 C 0 km/h
1083 13-09-2010 00:34:02 13.7 C 11.01 g/m*3 13.7 C 0 km/h
1084 13-09-2010 00:46:02 13.7 C 11.01 g/m*3 13.7 C 0 km/h
1085 13-09-2010 00:58:02 13.7 C 11.01 g/m*3 13.7 C 0 km/h
1086 13-09-2010 01:10:02 13.6 C 10.95 g/m*3 13.6 C 0 km/h
1087 13-09-2010 01:22:03 13.7 C 11.01 g/m*3 13.7 C 0 km/h
1088 13-09-2010 01:34:02 13.8 C 11.08 g/m*3 13.8 C 0 km/h
1089 13-09-2010 01:46:02 13.7 C 11.01 g/m*3 13.7 C 0 km/h
1090 13-09-2010 01:58:02 13.7 C 11.01 g/m*3 13.7 C 0 km/h
1091 13-09-2010 02:10:02 13.7 C 11.01 g/m*3 13.7 C 0 km/h
1092 13-09-2010 02:22:02 13.5 C 10.88 g/m*3 13.5 C 0 km/h
1093 13-09-2010 02:34:02 13.4 C 10.81 g/m*3 13.4 C 0 km/h
1094 13-09-2010 02:46:02 13.4 C 10.81 g/m*3 13.4 C 0 km/h
1095 13-09-2010 02:58:02 13.6 C 10.95 g/m*3 13.6 C 0 km/h
1096 13-09-2010 03:10:01 13.5 C 10.88 g/m*3 13.5 C 0 km/h
1097 13-09-2010 03:22:01 13.3 C 10.63 g/m*3 13.3 C 0 km/h
1098 13-09-2010 03:34:02 13.2 C 10.56 g/m*3 13.2 C 0 km/h
1099 13-09-2010 03:46:02 13.2 C 10.45 g/m*3 13.2 C 0 km/h
1100 13-09-2010 03:58:02 13.1 C 10.38 g/m*3 13.1 C 0 km/h
Sensor: Nr:Datum:Temp:Abs-Feuchte:Windchill:Wind:
Aussen-T/F 1101 13-09-2010 04:10:01 13 C 10.21 g/m*3 13 C 0 km/h
1102 13-09-2010 04:22:02 12.8 C 10.19 g/m*3 12.8 C 0 km/h
1103 13-09-2010 04:34:01 12.9 C 10.26 g/m*3 12.9 C 0 km/h
1104 13-09-2010 04:46:01 13.1 C 10.16 g/m*3 13.1 C 0 km/h
1105 13-09-2010 04:58:02 13.2 C 10.22 g/m*3 13.2 C 0 km/h
1106 13-09-2010 05:10:01 13.3 C 10.05 g/m*3 13.3 C 0 km/h
1107 13-09-2010 05:22:01 13.3 C 9.82 g/m*3 13.3 C 0 km/h
1108 13-09-2010 05:34:02 13.2 C 9.64 g/m*3 13.2 C 0 km/h
1109 13-09-2010 05:46:01 13.2 C 9.64 g/m*3 13.2 C 0 km/h
1110 13-09-2010 05:58:01 13.3 C 9.7 g/m*3 13.3 C 0 km/h
1111 13-09-2010 06:10:02 13.4 C 9.76 g/m*3 13.4 C 0 km/h
1112 13-09-2010 06:22:01 13.4 C 9.65 g/m*3 13.4 C 0 km/h
1113 13-09-2010 06:34:01 13.3 C 9.59 g/m*3 13.3 C 0 km/h
1114 13-09-2010 06:46:01 13.2 C 9.42 g/m*3 13.2 C 0 km/h
1115 13-09-2010 06:58:01 13.2 C 9.42 g/m*3 13.2 C 0 km/h
1116 13-09-2010 07:10:02 13 C 9.19 g/m*3 13 C 0 km/h
1117 13-09-2010 07:22:01 13 C 9.3 g/m*3 13 C 0 km/h
1118 13-09-2010 07:34:01 12.7 C 9.13 g/m*3 12.7 C 0 km/h
1119 13-09-2010 07:46:01 12.5 C 9.13 g/m*3 12.5 C 0 km/h
1120 13-09-2010 07:58:01 12.4 C 9.18 g/m*3 12.4 C 0 km/h
1121 13-09-2010 08:10:01 12.5 C 9.35 g/m*3 12.5 C 0 km/h
1122 13-09-2010 08:22:01 13 C 9.64 g/m*3 13 C 0 km/h
1123 13-09-2010 08:34:01 13.1 C 9.7 g/m*3 13.1 C 0 km/h
1124 13-09-2010 08:46:02 13.2 C 9.64 g/m*3 13.2 C 0 km/h
1125 13-09-2010 08:58:02 13.4 C 9.76 g/m*3 13.4 C 0 km/h
Sensor: Nr:Datum:Temp:Abs-Feuchte:Windchill:Wind:
Aussen-T/F 1126 13-09-2010 09:10:01 13.5 C 9.71 g/m*3 13.5 C 0 km/h
1127 13-09-2010 09:22:02 13.7 C 9.71 g/m*3 13.7 C 0 km/h
1128 13-09-2010 09:34:01 14 C 9.41 g/m*3 14 C 0 km/h
1129 13-09-2010 09:46:02 14.2 C 9.28 g/m*3 14.2 C 0 km/h
1130 13-09-2010 09:58:02 14.5 C 9.2 g/m*3 14.5 C 0 km/h
1131 13-09-2010 10:10:01 14.8 C 9.25 g/m*3 14.8 C 0 km/h
1132 13-09-2010 10:22:01 15 C 9.1 g/m*3 15 C 0 km/h
1133 13-09-2010 10:34:02 15.3 C 9.14 g/m*3 15.3 C 0 km/h
1134 13-09-2010 10:46:01 15.6 C 8.91 g/m*3 15.6 C 0 km/h
1135 13-09-2010 10:58:01 15.9 C 8.8 g/m*3 15.9 C 0 km/h
1136 13-09-2010 11:10:01 16 C 8.58 g/m*3 16 C 0 km/h
1137 13-09-2010 11:22:01 16.4 C 8.65 g/m*3 16.4 C 0 km/h
1138 13-09-2010 11:34:02 16.3 C 8.74 g/m*3 16.3 C 0 km/h
1139 13-09-2010 11:46:01 17.1 C 8.59 g/m*3 17.1 C 0 km/h
1140 13-09-2010 11:58:01 16.7 C 8.24 g/m*3 16.7 C 0 km/h
1141 13-09-2010 12:10:02 16.4 C 8.23 g/m*3 16.4 C 0 km/h
1142 13-09-2010 12:22:01 16.9 C 8.2 g/m*3 16.9 C 0 km/h
1143 13-09-2010 12:34:01 17.6 C 7.8 g/m*3 17.6 C 0 km/h
1144 13-09-2010 12:46:01 17.6 C 7.5 g/m*3 17.6 C 0 km/h
1145 13-09-2010 12:58:01 17.7 C 7.85 g/m*3 17.7 C 0 km/h
1146 13-09-2010 13:10:01 18 C 7.37 g/m*3 18 C 0 km/h
1147 13-09-2010 13:22:01 18.9 C 7.78 g/m*3 18.9 C 0 km/h
1148 13-09-2010 13:34:01 18.9 C 7.45 g/m*3 18.9 C 0 km/h
1149 13-09-2010 13:46:01 18.7 C 7.2 g/m*3 18.7 C 0 km/h
1150 13-09-2010 13:58:01 20.2 C 7.87 g/m*3 20.2 C 0 km/h
Sensor: Nr:Datum:Temp:Abs-Feuchte:Windchill:Wind:
Aussen-T/F 1151 13-09-2010 14:10:01 19.9 C 7.22 g/m*3 19.9 C 0 km/h
1152 13-09-2010 14:22:02 19.5 C 6.55 g/m*3 19.5 C 0 km/h
1153 13-09-2010 14:34:01 19.6 C 6.75 g/m*3 19.6 C 0 km/h
1154 13-09-2010 14:46:02 20.6 C 7.34 g/m*3 20.6 C 0 km/h
1155 13-09-2010 14:58:02 21.3 C 6.9 g/m*3 21.3 C 0 km/h
1156 13-09-2010 15:10:01 20.9 C 6.74 g/m*3 20.9 C 0 km/h
1157 13-09-2010 15:22:01 21.3 C 6.9 g/m*3 21.3 C 0 km/h
1158 13-09-2010 15:34:01 21.2 C 6.67 g/m*3 21.2 C 0 km/h
1159 13-09-2010 15:46:01 20.6 C 7.16 g/m*3 20.6 C 0 km/h
1160 13-09-2010 15:58:01 20 C 7.95 g/m*3 20 C 0 km/h
1161 13-09-2010 16:10:01 20.8 C 7.97 g/m*3 20.8 C 0 km/h
1162 13-09-2010 16:22:02 21.4 C 6.37 g/m*3 21.4 C 0 km/h
1163 13-09-2010 16:34:01 21.4 C 7.5 g/m*3 21.4 C 0 km/h
1164 13-09-2010 16:46:02 21.8 C 6.52 g/m*3 21.8 C 0 km/h
1165 13-09-2010 16:58:02 22.4 C 6.16 g/m*3 22.4 C 0 km/h
1166 13-09-2010 17:10:01 22.3 C 7.11 g/m*3 22.3 C 0 km/h
1167 13-09-2010 17:22:01 20.5 C 7.65 g/m*3 20.5 C 0 km/h
1168 13-09-2010 17:34:01 20.2 C 7.87 g/m*3 20.2 C 0 km/h
1169 13-09-2010 17:46:01 19.8 C 8.37 g/m*3 19.8 C 0 km/h
1170 13-09-2010 17:58:02 19.6 C 8.61 g/m*3 19.6 C 0 km/h
1171 13-09-2010 18:10:02 18.9 C 8.75 g/m*3 18.9 C 0 km/h
1172 13-09-2010 18:22:02 18.4 C 8.65 g/m*3 18.4 C 0 km/h
1173 13-09-2010 18:34:01 18.2 C 8.55 g/m*3 18.2 C 0 km/h
1174 13-09-2010 18:46:02 17.9 C 8.55 g/m*3 17.9 C 0 km/h
1175 13-09-2010 18:58:02 17.7 C 8.6 g/m*3 17.7 C 0 km/h
Sensor: Nr:Datum:Temp:Abs-Feuchte:Windchill:Wind:
Aussen-T/F 1176 13-09-2010 19:10:01 17.7 C 8.6 g/m*3 17.7 C 0 km/h
1177 13-09-2010 19:22:02 17.5 C 8.5 g/m*3 17.5 C 0 km/h
1178 13-09-2010 19:34:01 17 C 8.68 g/m*3 17 C 0 km/h
1179 13-09-2010 19:46:02 16.4 C 8.51 g/m*3 16.4 C 0 km/h
1180 13-09-2010 19:58:02 16 C 8.45 g/m*3 16 C 0 km/h
1181 13-09-2010 20:10:01 15.6 C 8.64 g/m*3 15.6 C 0 km/h
1182 13-09-2010 20:22:01 15.4 C 8.8 g/m*3 15.4 C 0 km/h
1183 13-09-2010 20:34:01 15.2 C 8.96 g/m*3 15.2 C 0 km/h
1184 13-09-2010 20:46:01 15.1 C 9.03 g/m*3 15.1 C 0 km/h
1185 13-09-2010 20:58:02 14.9 C 9.05 g/m*3 14.9 C 0 km/h
1186 13-09-2010 21:10:01 14.7 C 8.94 g/m*3 14.7 C 0 km/h
1187 13-09-2010 21:22:01 14.6 C 9.01 g/m*3 14.6 C 0 km/h
1188 13-09-2010 21:34:02 14.5 C 8.95 g/m*3 14.5 C 0 km/h
1189 13-09-2010 21:46:01 14.4 C 8.9 g/m*3 14.4 C 0 km/h
1190 13-09-2010 21:58:01 14.4 C 9.02 g/m*3 14.4 C 0 km/h
1191 13-09-2010 22:10:01 14.1 C 8.86 g/m*3 14.1 C 0 km/h
1192 13-09-2010 22:23:05 13.8 C 8.82 g/m*3 13.8 C 0 km/h
1193 13-09-2010 22:35:05 13.7 C 8.88 g/m*3 13.7 C 0 km/h
1194 13-09-2010 22:47:05 13.5 C 8.89 g/m*3 13.5 C 0 km/h
1195 13-09-2010 22:59:05 13.4 C 8.83 g/m*3 13.4 C 0 km/h
1196 13-09-2010 23:11:05 13.3 C 8.78 g/m*3 13.3 C 0 km/h
1197 13-09-2010 23:23:05 13.3 C 9.01 g/m*3 13.3 C 0 km/h
1198 13-09-2010 23:35:05 13.1 C 8.9 g/m*3 13.1 C 0 km/h
1199 13-09-2010 23:47:05 13 C 8.73 g/m*3 13 C 0 km/h
1200 13-09-2010 23:59:05 13 C 8.85 g/m*3 13 C 0 km/h
Sensor: Nr:Datum:Temp:Abs-Feuchte:Windchill:Wind:
Aussen-T/F 1201 14-09-2010 00:11:05 13 C 8.96 g/m*3 13 C 0 km/h
1202 14-09-2010 00:23:05 12.8 C 9.18 g/m*3 12.8 C 0 km/h
1203 14-09-2010 00:35:05 12.8 C 9.3 g/m*3 12.8 C 0 km/h
1204 14-09-2010 00:47:05 12.8 C 9.3 g/m*3 12.8 C 0 km/h
1205 14-09-2010 00:59:05 12.7 C 9.24 g/m*3 12.7 C 0 km/h
1206 14-09-2010 01:11:05 12.6 C 9.18 g/m*3 12.6 C 0 km/h
1207 14-09-2010 01:23:05 12.7 C 9.24 g/m*3 12.7 C 0 km/h
1208 14-09-2010 01:35:05 12.8 C 9.3 g/m*3 12.8 C 0 km/h
1209 14-09-2010 01:47:05 12.9 C 9.35 g/m*3 12.9 C 0 km/h
1210 14-09-2010 01:59:05 13 C 9.3 g/m*3 13 C 0 km/h
1211 14-09-2010 02:11:05 13 C 9.3 g/m*3 13 C 0 km/h
1212 14-09-2010 02:23:05 13 C 9.3 g/m*3 13 C 0 km/h
1213 14-09-2010 02:35:06 13.1 C 9.36 g/m*3 13.1 C 0 km/h
1214 14-09-2010 02:47:06 13.2 C 9.42 g/m*3 13.2 C 0 km/h
1215 14-09-2010 02:59:06 13.2 C 9.3 g/m*3 13.2 C 0 km/h
1216 14-09-2010 03:11:06 13.4 C 9.18 g/m*3 13.4 C 0 km/h
1217 14-09-2010 03:23:06 13.4 C 9.18 g/m*3 13.4 C 0 km/h
1218 14-09-2010 03:35:06 13.3 C 9.24 g/m*3 13.3 C 0 km/h
1219 14-09-2010 03:47:06 13.3 C 9.24 g/m*3 13.3 C 0 km/h
1220 14-09-2010 03:59:06 13.4 C 9.3 g/m*3 13.4 C 0 km/h
1221 14-09-2010 04:11:06 13.2 C 9.19 g/m*3 13.2 C 0 km/h
1222 14-09-2010 04:23:06 13 C 9.3 g/m*3 13 C 0 km/h
1223 14-09-2010 04:35:06 12.8 C 9.41 g/m*3 12.8 C 0 km/h
1224 14-09-2010 04:47:06 12.9 C 9.58 g/m*3 12.9 C 0 km/h
1225 14-09-2010 04:59:06 12.8 C 9.63 g/m*3 12.8 C 0 km/h
Sensor: Nr:Datum:Temp:Abs-Feuchte:Windchill:Wind:
Aussen-T/F 1226 14-09-2010 05:11:06 12.9 C 9.81 g/m*3 12.9 C 0 km/h
1227 14-09-2010 05:23:06 12.9 C 9.81 g/m*3 12.9 C 0 km/h
1228 14-09-2010 05:35:06 13 C 9.87 g/m*3 13 C 0 km/h
1229 14-09-2010 05:47:06 13 C 9.87 g/m*3 13 C 0 km/h
1230 14-09-2010 05:59:06 13 C 9.87 g/m*3 13 C 0 km/h
1231 14-09-2010 06:11:06 13.3 C 10.05 g/m*3 13.3 C 0 km/h
1232 14-09-2010 06:23:06 13.5 C 9.83 g/m*3 13.5 C 0 km/h
1233 14-09-2010 06:35:06 13.8 C 9.06 g/m*3 13.8 C 0 km/h
1234 14-09-2010 06:47:06 14.5 C 8.83 g/m*3 14.5 C 0 km/h
1235 14-09-2010 06:59:07 14.4 C 8.53 g/m*3 14.4 C 0 km/h
1236 14-09-2010 07:11:07 14.4 C 8.53 g/m*3 14.4 C 0 km/h
1237 14-09-2010 07:23:07 14.4 C 8.65 g/m*3 14.4 C 0 km/h
1238 14-09-2010 07:35:04 14.3 C 8.85 g/m*3 14.3 C 0 km/h
1239 14-09-2010 07:47:02 13.6 C 9.18 g/m*3 13.6 C 0 km/h
1240 14-09-2010 07:59:02 13.6 C 9.42 g/m*3 13.6 C 0 km/h
1241 14-09-2010 08:11:01 13.7 C 9.47 g/m*3 13.7 C 0 km/h
1242 14-09-2010 08:23:02 13.7 C 9.47 g/m*3 13.7 C 0 km/h
1243 14-09-2010 08:35:02 14.1 C 9.34 g/m*3 14.1 C 0 km/h
1244 14-09-2010 08:47:02 14.4 C 9.15 g/m*3 14.4 C 0 km/h
1245 14-09-2010 08:59:02 14.6 C 9.13 g/m*3 14.6 C 0 km/h
1246 14-09-2010 09:11:01 14.7 C 9.07 g/m*3 14.7 C 0 km/h
1247 14-09-2010 09:23:02 14.8 C 9.12 g/m*3 14.8 C 0 km/h
1248 14-09-2010 09:35:02 15.1 C 9.03 g/m*3 15.1 C 0 km/h
1249 14-09-2010 09:47:01 15.6 C 9.04 g/m*3 15.6 C 0 km/h
1250 14-09-2010 09:59:01 15.6 C 9.04 g/m*3 15.6 C 0 km/h
Sensor: Nr:Datum:Temp:Abs-Feuchte:Windchill:Wind:
Aussen-T/F 1251 14-09-2010 10:11:02 15.6 C 9.04 g/m*3 15.6 C 0 km/h
1252 14-09-2010 10:23:01 15.7 C 9.1 g/m*3 15.7 C 0 km/h
1253 14-09-2010 10:35:01 16 C 8.99 g/m*3 16 C 0 km/h
1254 14-09-2010 10:47:01 16.4 C 8.93 g/m*3 16.4 C 0 km/h
1255 14-09-2010 10:59:01 16.8 C 9.29 g/m*3 16.8 C 0 km/h
1256 14-09-2010 11:11:02 17 C 8.97 g/m*3 17 C 0 km/h
1257 14-09-2010 11:23:01 17.1 C 9.03 g/m*3 17.1 C 0 km/h
1258 14-09-2010 11:35:01 17 C 9.12 g/m*3 17 C 0 km/h
1259 14-09-2010 11:47:01 16.7 C 9.24 g/m*3 16.7 C 0 km/h
1260 14-09-2010 11:59:01 17.5 C 9.39 g/m*3 17.5 C 0 km/h
1261 14-09-2010 12:11:02 17.8 C 9.26 g/m*3 17.8 C 0 km/h
1262 14-09-2010 12:23:02 18.2 C 9.01 g/m*3 18.2 C 0 km/h
1263 14-09-2010 12:35:01 18.5 C 9.18 g/m*3 18.5 C 0 km/h
1264 14-09-2010 12:47:02 18.8 C 9.18 g/m*3 18.8 C 0 km/h
1265 14-09-2010 12:59:02 18.9 C 9.23 g/m*3 18.9 C 0 km/h
1266 14-09-2010 13:11:01 19.6 C 9.28 g/m*3 19.6 C 0 km/h
1267 14-09-2010 13:23:01 19.7 C 9.34 g/m*3 19.7 C 0 km/h
1268 14-09-2010 13:35:01 20.2 C 9.44 g/m*3 20.2 C 0 km/h
1269 14-09-2010 13:47:02 20.4 C 9.02 g/m*3 20.4 C 0 km/h
1270 14-09-2010 13:59:02 20 C 8.99 g/m*3 20 C 0 km/h
1271 14-09-2010 14:11:02 19.7 C 8.83 g/m*3 19.7 C 0 km/h
1272 14-09-2010 14:23:02 19.7 C 9 g/m*3 19.7 C 0 km/h
1273 14-09-2010 14:35:02 19.8 C 8.71 g/m*3 19.8 C 0 km/h
1274 14-09-2010 14:47:01 19.6 C 8.78 g/m*3 19.6 C 0 km/h
1275 14-09-2010 14:59:01 19.5 C 8.89 g/m*3 19.5 C 0 km/h
Sensor: Nr:Datum:Temp:Abs-Feuchte:Windchill:Wind:
Aussen-T/F 1276 14-09-2010 15:11:02 20 C 8.81 g/m*3 20 C 0 km/h
1277 14-09-2010 15:23:01 20 C 8.64 g/m*3 20 C 0 km/h
1278 14-09-2010 15:35:02 20.4 C 8.67 g/m*3 20.4 C 0 km/h
1279 14-09-2010 15:47:01 20.7 C 8.46 g/m*3 20.7 C 0 km/h
1280 14-09-2010 15:59:01 20.9 C 8.56 g/m*3 20.9 C 0 km/h
1281 14-09-2010 16:11:02 20.8 C 8.15 g/m*3 20.8 C 0 km/h
1282 14-09-2010 16:23:01 20.9 C 8.2 g/m*3 20.9 C 0 km/h
1283 14-09-2010 16:35:02 20.6 C 7.7 g/m*3 20.6 C 0 km/h
1284 14-09-2010 16:47:01 20.6 C 7.7 g/m*3 20.6 C 0 km/h
1285 14-09-2010 16:59:01 20.5 C 7.65 g/m*3 20.5 C 0 km/h
1286 14-09-2010 17:11:02 20.5 C 7.47 g/m*3 20.5 C 0 km/h
1287 14-09-2010 17:23:01 20.4 C 7.43 g/m*3 20.4 C 0 km/h
1288 14-09-2010 17:35:01 20 C 7.26 g/m*3 20 C 0 km/h
1289 14-09-2010 17:47:01 20 C 7.43 g/m*3 20 C 0 km/h
1290 14-09-2010 17:59:01 19.8 C 7.69 g/m*3 19.8 C 0 km/h
1291 14-09-2010 18:11:01 19.6 C 7.77 g/m*3 19.6 C 0 km/h
1292 14-09-2010 18:23:02 19.4 C 7.84 g/m*3 19.4 C 0 km/h
1293 14-09-2010 18:35:01 19.3 C 7.8 g/m*3 19.3 C 0 km/h
1294 14-09-2010 18:47:02 19.3 C 7.8 g/m*3 19.3 C 0 km/h
1295 14-09-2010 18:59:02 19.1 C 7.87 g/m*3 19.1 C 0 km/h
1296 14-09-2010 19:11:01 19 C 7.82 g/m*3 19 C 0 km/h
1297 14-09-2010 19:23:01 18.9 C 7.78 g/m*3 18.9 C 0 km/h
1298 14-09-2010 19:35:01 18.7 C 7.68 g/m*3 18.7 C 0 km/h
1299 14-09-2010 19:47:02 18.7 C 7.68 g/m*3 18.7 C 0 km/h
1300 14-09-2010 19:59:03 18.7 C 7.68 g/m*3 18.7 C 0 km/h
Sensor: Nr:Datum:Temp:Abs-Feuchte:Windchill:Wind:
Aussen-T/F 1301 14-09-2010 20:11:01 18.7 C 7.68 g/m*3 18.7 C 0 km/h
1302 14-09-2010 20:23:02 18.6 C 7.64 g/m*3 18.6 C 0 km/h
1303 14-09-2010 20:35:02 18.7 C 7.68 g/m*3 18.7 C 0 km/h
1304 14-09-2010 20:47:02 18.5 C 7.75 g/m*3 18.5 C 0 km/h
1305 14-09-2010 20:59:02 18.5 C 7.75 g/m*3 18.5 C 0 km/h
1306 14-09-2010 21:11:03 18.5 C 7.75 g/m*3 18.5 C 0 km/h
1307 14-09-2010 21:23:02 18.5 C 7.75 g/m*3 18.5 C 0 km/h
1308 14-09-2010 21:35:02 18.6 C 7.96 g/m*3 18.6 C 0 km/h
1309 14-09-2010 21:47:01 18.5 C 7.75 g/m*3 18.5 C 0 km/h
1310 14-09-2010 21:59:01 18.6 C 7.64 g/m*3 18.6 C 0 km/h
1311 14-09-2010 22:12:03 18.6 C 7.8 g/m*3 18.6 C 0 km/h
1312 14-09-2010 22:24:03 18.5 C 7.75 g/m*3 18.5 C 0 km/h
1313 14-09-2010 22:36:03 18.4 C 7.86 g/m*3 18.4 C 0 km/h
1314 14-09-2010 22:48:03 18.5 C 7.91 g/m*3 18.5 C 0 km/h
1315 14-09-2010 23:00:03 18.5 C 7.91 g/m*3 18.5 C 0 km/h
1316 14-09-2010 23:12:03 18.4 C 7.86 g/m*3 18.4 C 0 km/h
1317 14-09-2010 23:24:03 18.2 C 7.77 g/m*3 18.2 C 0 km/h
1318 14-09-2010 23:36:04 18 C 7.99 g/m*3 18 C 0 km/h
1319 14-09-2010 23:48:04 18 C 7.99 g/m*3 18 C 0 km/h
1320 15-09-2010 00:00:04 18 C 7.99 g/m*3 18 C 0 km/h
1321 15-09-2010 00:12:04 18 C 7.83 g/m*3 18 C 0 km/h
1322 15-09-2010 00:24:04 18 C 7.83 g/m*3 18 C 0 km/h
1323 15-09-2010 00:36:04 18 C 7.83 g/m*3 18 C 0 km/h
1324 15-09-2010 00:48:04 18.1 C 7.88 g/m*3 18.1 C 0 km/h
1325 15-09-2010 01:00:04 18.1 C 7.73 g/m*3 18.1 C 0 km/h
Sensor: Nr:Datum:Temp:Abs-Feuchte:Windchill:Wind:
Aussen-T/F 1326 15-09-2010 01:12:04 18.1 C 7.73 g/m*3 18.1 C 0 km/h
1327 15-09-2010 01:24:04 18.2 C 7.62 g/m*3 18.2 C 0 km/h
1328 15-09-2010 01:36:04 18.3 C 7.66 g/m*3 18.3 C 0 km/h
1329 15-09-2010 01:48:04 18.2 C 7.62 g/m*3 18.2 C 0 km/h
1330 15-09-2010 02:00:04 18.3 C 7.66 g/m*3 18.3 C 0 km/h
1331 15-09-2010 02:12:04 18.4 C 7.55 g/m*3 18.4 C 0 km/h
1332 15-09-2010 02:24:04 18.4 C 7.55 g/m*3 18.4 C 0 km/h
1333 15-09-2010 02:36:05 18.3 C 7.66 g/m*3 18.3 C 0 km/h
1334 15-09-2010 02:48:05 18.2 C 7.77 g/m*3 18.2 C 0 km/h
1335 15-09-2010 03:00:05 18.2 C 7.93 g/m*3 18.2 C 0 km/h
1336 15-09-2010 03:12:05 18.1 C 8.03 g/m*3 18.1 C 0 km/h
1337 15-09-2010 03:24:05 18 C 8.29 g/m*3 18 C 0 km/h
1338 15-09-2010 03:36:05 18 C 8.45 g/m*3 18 C 0 km/h
1339 15-09-2010 03:48:05 18 C 8.45 g/m*3 18 C 0 km/h
1340 15-09-2010 04:00:05 17.9 C 8.7 g/m*3 17.9 C 0 km/h
1341 15-09-2010 04:12:05 17.9 C 9.01 g/m*3 17.9 C 0 km/h
1342 15-09-2010 04:24:05 17.7 C 9.05 g/m*3 17.7 C 0 km/h
1343 15-09-2010 04:36:05 17.6 C 9.3 g/m*3 17.6 C 0 km/h
1344 15-09-2010 04:48:05 17.4 C 9.48 g/m*3 17.4 C 0 km/h
1345 15-09-2010 05:00:05 17.4 C 9.48 g/m*3 17.4 C 0 km/h
1346 15-09-2010 05:12:05 16.9 C 10.07 g/m*3 16.9 C 0 km/h
1347 15-09-2010 05:24:05 14.4 C 9.27 g/m*3 14.4 C 0 km/h
1348 15-09-2010 05:36:05 13.3 C 9.7 g/m*3 13.3 C 0 km/h
1349 15-09-2010 05:48:05 13 C 9.87 g/m*3 13 C 0 km/h
1350 15-09-2010 06:00:05 12.9 C 10.03 g/m*3 12.9 C 0 km/h
Sensor: Nr:Datum:Temp:Abs-Feuchte:Windchill:Wind:
Aussen-T/F 1351 15-09-2010 06:12:05 12.8 C 10.08 g/m*3 12.8 C 0 km/h
1352 15-09-2010 06:24:05 12.7 C 10.02 g/m*3 12.7 C 0 km/h
1353 15-09-2010 06:36:05 12.7 C 10.13 g/m*3 12.7 C 0 km/h
1354 15-09-2010 06:48:05 12.8 C 10.19 g/m*3 12.8 C 0 km/h
1355 15-09-2010 07:00:06 12.8 C 10.3 g/m*3 12.8 C 0 km/h
1356 15-09-2010 07:12:06 12.7 C 10.24 g/m*3 12.7 C 0 km/h
1357 15-09-2010 07:24:06 12.7 C 10.24 g/m*3 12.7 C 0 km/h
1358 15-09-2010 07:36:03 12.8 C 10.3 g/m*3 12.8 C 0 km/h
1359 15-09-2010 07:48:02 12.7 C 10.35 g/m*3 12.7 C 0 km/h
1360 15-09-2010 08:00:02 12.6 C 10.29 g/m*3 12.6 C 0 km/h
1361 15-09-2010 08:12:02 12.7 C 10.35 g/m*3 12.7 C 0 km/h
1362 15-09-2010 08:24:02 12.7 C 10.35 g/m*3 12.7 C 0 km/h
1363 15-09-2010 08:36:01 12.8 C 10.42 g/m*3 12.8 C 0 km/h
1364 15-09-2010 08:48:02 12.7 C 10.35 g/m*3 12.7 C 0 km/h
1365 15-09-2010 09:00:02 12.5 C 10.22 g/m*3 12.5 C 0 km/h
1366 15-09-2010 09:12:01 12.7 C 10.35 g/m*3 12.7 C 0 km/h
1367 15-09-2010 09:24:01 12.7 C 10.24 g/m*3 12.7 C 0 km/h
1368 15-09-2010 09:36:02 13.1 C 10.38 g/m*3 13.1 C 0 km/h
1369 15-09-2010 09:48:02 13.6 C 10.59 g/m*3 13.6 C 0 km/h
1370 15-09-2010 10:00:02 14 C 10.49 g/m*3 14 C 0 km/h
1371 15-09-2010 10:12:02 14 C 10.01 g/m*3 14 C 0 km/h
1372 15-09-2010 10:24:02 14.1 C 9.95 g/m*3 14.1 C 0 km/h
1373 15-09-2010 10:36:02 14.1 C 9.71 g/m*3 14.1 C 0 km/h
1374 15-09-2010 10:48:02 14.1 C 9.59 g/m*3 14.1 C 0 km/h
1375 15-09-2010 11:00:02 14.2 C 9.52 g/m*3 14.2 C 0 km/h
Sensor: Nr:Datum:Temp:Abs-Feuchte:Windchill:Wind:
Aussen-T/F 1376 15-09-2010 11:12:02 14.6 C 9.01 g/m*3 14.6 C 0 km/h
1377 15-09-2010 11:24:02 15 C 8.72 g/m*3 15 C 0 km/h
1378 15-09-2010 11:36:02 15.6 C 8.51 g/m*3 15.6 C 0 km/h
1379 15-09-2010 11:48:01 15.7 C 8.43 g/m*3 15.7 C 0 km/h
1380 15-09-2010 12:00:01 16.2 C 7.31 g/m*3 16.2 C 0 km/h
1381 15-09-2010 12:12:01 16.4 C 7.4 g/m*3 16.4 C 0 km/h
1382 15-09-2010 12:24:01 17.2 C 7.18 g/m*3 17.2 C 0 km/h
1383 15-09-2010 12:36:01 16.6 C 7.06 g/m*3 16.6 C 0 km/h
1384 15-09-2010 12:48:02 16.1 C 6.17 g/m*3 16.1 C 0 km/h
1385 15-09-2010 13:00:02 16.1 C 6.44 g/m*3 16.1 C 0 km/h
1386 15-09-2010 13:12:02 16.4 C 6.7 g/m*3 16.4 C 0 km/h
1387 15-09-2010 13:24:02 17.4 C 6.52 g/m*3 17.4 C 0 km/h
1388 15-09-2010 13:36:02 17.9 C 5.95 g/m*3 17.9 C 0 km/h
1389 15-09-2010 13:48:02 18.4 C 5.82 g/m*3 18.4 C 0 km/h
1390 15-09-2010 14:00:02 18.5 C 5.7 g/m*3 18.5 C 0 km/h
1391 15-09-2010 14:12:02 18.1 C 5.87 g/m*3 18.1 C 0 km/h
1392 15-09-2010 14:24:02 18.5 C 5.54 g/m*3 18.5 C 0 km/h
1393 15-09-2010 14:36:02 18.3 C 5.47 g/m*3 18.3 C 0 km/h
1394 15-09-2010 14:48:02 18.5 C 5.7 g/m*3 18.5 C 0 km/h
1395 15-09-2010 15:00:03 19.5 C 5.87 g/m*3 19.5 C 0 km/h
1396 15-09-2010 15:12:01 19.6 C 5.4 g/m*3 19.6 C 0 km/h
1397 15-09-2010 15:24:01 19.3 C 5.64 g/m*3 19.3 C 0 km/h
1398 15-09-2010 15:36:02 19.2 C 5.94 g/m*3 19.2 C 0 km/h
1399 15-09-2010 15:48:02 20 C 5.88 g/m*3 20 C 0 km/h
1400 15-09-2010 16:00:02 19.6 C 5.91 g/m*3 19.6 C 0 km/h
Sensor: Nr:Datum:Temp:Abs-Feuchte:Windchill:Wind:
Aussen-T/F 1401 15-09-2010 16:12:02 19.6 C 5.91 g/m*3 19.6 C 0 km/h
1402 15-09-2010 16:24:02 19.3 C 5.97 g/m*3 19.3 C 0 km/h
1403 15-09-2010 16:36:02 19.6 C 6.08 g/m*3 19.6 C 0 km/h
1404 15-09-2010 16:48:02 19.5 C 6.04 g/m*3 19.5 C 0 km/h
1405 15-09-2010 17:00:02 20.4 C 5.84 g/m*3 20.4 C 0 km/h
1406 15-09-2010 17:12:02 19 C 5.7 g/m*3 19 C 0 km/h
1407 15-09-2010 17:24:02 19.4 C 6.01 g/m*3 19.4 C 0 km/h
1408 15-09-2010 17:36:02 19.9 C 5.84 g/m*3 19.9 C 0 km/h
1409 15-09-2010 17:48:02 19.7 C 5.6 g/m*3 19.7 C 0 km/h
1410 15-09-2010 18:00:02 18.7 C 5.44 g/m*3 18.7 C 0 km/h
1411 15-09-2010 18:12:02 18.2 C 5.28 g/m*3 18.2 C 0 km/h
1412 15-09-2010 18:24:03 17.5 C 5.22 g/m*3 17.5 C 0 km/h
1413 15-09-2010 18:36:02 17.7 C 5.28 g/m*3 17.7 C 0 km/h
1414 15-09-2010 18:48:02 17.1 C 5.39 g/m*3 17.1 C 0 km/h
1415 15-09-2010 19:00:02 16.9 C 5.61 g/m*3 16.9 C 0 km/h
1416 15-09-2010 19:12:02 16.7 C 5.4 g/m*3 16.7 C 0 km/h
1417 15-09-2010 19:24:02 16.6 C 5.65 g/m*3 16.6 C 0 km/h
1418 15-09-2010 19:36:02 16.4 C 5.72 g/m*3 16.4 C 0 km/h
1419 15-09-2010 19:48:02 16.4 C 5.86 g/m*3 16.4 C 0 km/h
1420 15-09-2010 20:00:02 16.2 C 6.07 g/m*3 16.2 C 0 km/h
1421 15-09-2010 20:12:02 16 C 6.27 g/m*3 16 C 0 km/h
1422 15-09-2010 20:24:02 15.8 C 6.46 g/m*3 15.8 C 0 km/h
1423 15-09-2010 20:36:01 15.7 C 6.15 g/m*3 15.7 C 0 km/h
1424 15-09-2010 20:48:02 15.5 C 6.34 g/m*3 15.5 C 0 km/h
1425 15-09-2010 21:00:03 15.4 C 6.31 g/m*3 15.4 C 0 km/h
Sensor: Nr:Datum:Temp:Abs-Feuchte:Windchill:Wind:
Aussen-T/F 1426 15-09-2010 21:12:01 15.2 C 6.49 g/m*3 15.2 C 0 km/h
1427 15-09-2010 21:24:01 15 C 6.41 g/m*3 15 C 0 km/h
1428 15-09-2010 21:37:02 15.1 C 6.32 g/m*3 15.1 C 0 km/h
1429 15-09-2010 21:49:02 15.2 C 6.36 g/m*3 15.2 C 0 km/h
1430 15-09-2010 22:01:02 15.1 C 6.32 g/m*3 15.1 C 0 km/h
1431 15-09-2010 22:13:02 15.1 C 6.06 g/m*3 15.1 C 0 km/h
1432 15-09-2010 22:25:02 14.9 C 5.86 g/m*3 14.9 C 0 km/h
1433 15-09-2010 22:37:02 14.8 C 5.83 g/m*3 14.8 C 0 km/h
1434 15-09-2010 22:49:02 14.9 C 5.74 g/m*3 14.9 C 0 km/h
1435 15-09-2010 23:01:02 15 C 5.51 g/m*3 15 C 0 km/h
1436 15-09-2010 23:13:02 15 C 5.51 g/m*3 15 C 0 km/h
1437 15-09-2010 23:25:02 14.9 C 5.74 g/m*3 14.9 C 0 km/h
1438 15-09-2010 23:37:02 14.8 C 5.7 g/m*3 14.8 C 0 km/h
1439 15-09-2010 23:49:02 14.6 C 5.76 g/m*3 14.6 C 0 km/h
1440 16-09-2010 00:01:02 14.5 C 5.97 g/m*3 14.5 C 0 km/h
1441 16-09-2010 00:13:02 14.4 C 5.93 g/m*3 14.4 C 0 km/h
1442 16-09-2010 00:25:02 14.2 C 5.86 g/m*3 14.2 C 0 km/h
1443 16-09-2010 00:37:02 13.8 C 5.96 g/m*3 13.8 C 0 km/h
1444 16-09-2010 00:49:02 14 C 5.79 g/m*3 14 C 0 km/h
1445 16-09-2010 01:01:02 14.1 C 5.58 g/m*3 14.1 C 0 km/h
1446 16-09-2010 01:13:03 14.2 C 5.49 g/m*3 14.2 C 0 km/h
1447 16-09-2010 01:25:03 14.1 C 5.34 g/m*3 14.1 C 0 km/h
1448 16-09-2010 01:37:03 14.1 C 5.34 g/m*3 14.1 C 0 km/h
1449 16-09-2010 01:49:03 14 C 5.31 g/m*3 14 C 0 km/h
1450 16-09-2010 02:01:03 13.9 C 5.51 g/m*3 13.9 C 0 km/h
Sensor: Nr:Datum:Temp:Abs-Feuchte:Windchill:Wind:
Aussen-T/F 1451 16-09-2010 02:13:03 14.1 C 5.58 g/m*3 14.1 C 0 km/h
1452 16-09-2010 02:25:03 14 C 5.79 g/m*3 14 C 0 km/h
1453 16-09-2010 02:37:03 13.7 C 5.92 g/m*3 13.7 C 0 km/h
1454 16-09-2010 02:49:03 14 C 6.15 g/m*3 14 C 0 km/h
1455 16-09-2010 03:01:03 13.9 C 6.35 g/m*3 13.9 C 0 km/h
1456 16-09-2010 03:13:03 13.9 C 6.59 g/m*3 13.9 C 0 km/h
1457 16-09-2010 03:25:03 13.9 C 6.71 g/m*3 13.9 C 0 km/h
1458 16-09-2010 03:37:03 13.8 C 6.79 g/m*3 13.8 C 0 km/h
1459 16-09-2010 03:49:03 13.7 C 7.1 g/m*3 13.7 C 0 km/h
1460 16-09-2010 04:01:03 13.2 C 7.12 g/m*3 13.2 C 0 km/h
1461 16-09-2010 04:13:03 13.6 C 6.94 g/m*3 13.6 C 0 km/h
1462 16-09-2010 04:25:03 13.7 C 6.87 g/m*3 13.7 C 0 km/h
1463 16-09-2010 04:37:03 13.7 C 6.99 g/m*3 13.7 C 0 km/h
1464 16-09-2010 04:49:03 13.7 C 6.99 g/m*3 13.7 C 0 km/h
1465 16-09-2010 05:01:03 13.7 C 6.99 g/m*3 13.7 C 0 km/h
1466 16-09-2010 05:13:03 13.6 C 7.06 g/m*3 13.6 C 0 km/h
1467 16-09-2010 05:25:04 13.2 C 7.35 g/m*3 13.2 C 0 km/h
1468 16-09-2010 05:37:04 13.1 C 7.42 g/m*3 13.1 C 0 km/h
1469 16-09-2010 05:49:04 13.2 C 7.46 g/m*3 13.2 C 0 km/h
1470 16-09-2010 06:01:04 13.1 C 7.65 g/m*3 13.1 C 0 km/h
1471 16-09-2010 06:13:04 12.6 C 7.97 g/m*3 12.6 C 0 km/h
1472 16-09-2010 06:25:04 12.5 C 8.03 g/m*3 12.5 C 0 km/h
1473 16-09-2010 06:37:04 12.1 C 8.26 g/m*3 12.1 C 0 km/h
1474 16-09-2010 06:49:04 11.9 C 8.47 g/m*3 11.9 C 0 km/h
1475 16-09-2010 07:01:04 11.9 C 8.47 g/m*3 11.9 C 0 km/h
Sensor: Nr:Datum:Temp:Abs-Feuchte:Windchill:Wind:
Aussen-T/F 1476 16-09-2010 07:13:04 11.9 C 8.58 g/m*3 11.9 C 0 km/h
1477 16-09-2010 07:25:04 11.9 C 8.79 g/m*3 11.9 C 0 km/h
1478 16-09-2010 07:37:04 11.6 C 8.73 g/m*3 11.6 C 0 km/h
1479 16-09-2010 07:49:04 11.6 C 8.83 g/m*3 11.6 C 0 km/h
1480 16-09-2010 08:01:02 11.6 C 8.83 g/m*3 11.6 C 0 km/h
1481 16-09-2010 08:13:02 11.7 C 8.79 g/m*3 11.7 C 0 km/h
1482 16-09-2010 08:25:02 12 C 8.85 g/m*3 12 C 0 km/h
1483 16-09-2010 08:37:02 12 C 8.85 g/m*3 12 C 0 km/h
1484 16-09-2010 08:49:02 12 C 8.85 g/m*3 12 C 0 km/h
1485 16-09-2010 09:01:02 12 C 8.95 g/m*3 12 C 0 km/h
1486 16-09-2010 09:13:02 12.1 C 9.01 g/m*3 12.1 C 0 km/h
1487 16-09-2010 09:25:01 12.6 C 9.29 g/m*3 12.6 C 0 km/h
1488 16-09-2010 09:37:02 13 C 9.41 g/m*3 13 C 0 km/h
1489 16-09-2010 09:49:02 13.5 C 9.59 g/m*3 13.5 C 0 km/h
1490 16-09-2010 10:01:02 13.7 C 9.12 g/m*3 13.7 C 0 km/h
1491 16-09-2010 10:13:02 14 C 8.68 g/m*3 14 C 0 km/h
1492 16-09-2010 10:25:02 14 C 8.56 g/m*3 14 C 0 km/h
1493 16-09-2010 10:37:02 14.3 C 8.35 g/m*3 14.3 C 0 km/h
1494 16-09-2010 10:49:02 14.6 C 8.51 g/m*3 14.6 C 0 km/h
1495 16-09-2010 11:01:02 15.2 C 8.18 g/m*3 15.2 C 0 km/h
1496 16-09-2010 11:13:02 15 C 8.08 g/m*3 15 C 0 km/h
1497 16-09-2010 11:25:02 15.2 C 8.44 g/m*3 15.2 C 0 km/h
1498 16-09-2010 11:37:02 15.1 C 8.26 g/m*3 15.1 C 0 km/h
1499 16-09-2010 11:49:01 15.8 C 8.21 g/m*3 15.8 C 0 km/h
1500 16-09-2010 12:01:02 16.4 C 7.82 g/m*3 16.4 C 0 km/h
Sensor: Nr:Datum:Temp:Abs-Feuchte:Windchill:Wind:
Aussen-T/F 1501 16-09-2010 12:13:02 16.7 C 7.82 g/m*3 16.7 C 0 km/h
1502 16-09-2010 12:25:02 17.2 C 7.61 g/m*3 17.2 C 0 km/h
1503 16-09-2010 12:37:02 17.1 C 7.42 g/m*3 17.1 C 0 km/h
1504 16-09-2010 12:49:02 17.7 C 7.69 g/m*3 17.7 C 0 km/h
1505 16-09-2010 13:01:01 17.7 C 7.09 g/m*3 17.7 C 0 km/h
1506 16-09-2010 13:13:01 17.9 C 7.02 g/m*3 17.9 C 0 km/h
1507 16-09-2010 13:25:02 17.4 C 6.97 g/m*3 17.4 C 0 km/h
1508 16-09-2010 13:37:01 16.9 C 7.34 g/m*3 16.9 C 0 km/h
1509 16-09-2010 13:49:01 16.7 C 7.39 g/m*3 16.7 C 0 km/h
1510 16-09-2010 14:01:01 17 C 7.23 g/m*3 17 C 0 km/h
1511 16-09-2010 14:13:01 16 C 7.36 g/m*3 16 C 0 km/h
1512 16-09-2010 14:25:01 14 C 8.81 g/m*3 14 C 0 km/h
1513 16-09-2010 14:37:02 14.2 C 9.52 g/m*3 14.2 C 0 km/h
1514 16-09-2010 14:49:02 15.2 C 10.25 g/m*3 15.2 C 0 km/h
1515 16-09-2010 15:01:02 15.9 C 10.29 g/m*3 15.9 C 0 km/h
1516 16-09-2010 15:13:02 16.8 C 9.44 g/m*3 16.8 C 0 km/h
1517 16-09-2010 15:25:01 17 C 8.97 g/m*3 17 C 0 km/h
1518 16-09-2010 15:37:02 18.5 C 9.02 g/m*3 18.5 C 0 km/h
1519 16-09-2010 15:49:02 17.9 C 7.79 g/m*3 17.9 C 0 km/h
1520 16-09-2010 16:01:02 18.3 C 7.82 g/m*3 18.3 C 0 km/h
1521 16-09-2010 16:13:03 17.4 C 7.56 g/m*3 17.4 C 0 km/h
1522 16-09-2010 16:25:01 16.6 C 8.05 g/m*3 16.6 C 0 km/h
1523 16-09-2010 16:37:02 15 C 8.85 g/m*3 15 C 0 km/h
1524 16-09-2010 16:49:02 14.5 C 9.7 g/m*3 14.5 C 0 km/h
1525 16-09-2010 17:01:02 14.5 C 9.83 g/m*3 14.5 C 0 km/h
Sensor: Nr:Datum:Temp:Abs-Feuchte:Windchill:Wind:
Aussen-T/F 1526 16-09-2010 17:13:02 15.1 C 10.06 g/m*3 15.1 C 0 km/h
1527 16-09-2010 17:25:02 15.5 C 9.65 g/m*3 15.5 C 0 km/h
1528 16-09-2010 17:37:02 15.2 C 9.22 g/m*3 15.2 C 0 km/h
1529 16-09-2010 17:49:02 16.2 C 8.69 g/m*3 16.2 C 0 km/h
1530 16-09-2010 18:01:02 15.3 C 8.88 g/m*3 15.3 C 0 km/h
1531 16-09-2010 18:13:02 15 C 8.72 g/m*3 15 C 0 km/h
1532 16-09-2010 18:25:02 15 C 8.85 g/m*3 15 C 0 km/h
1533 16-09-2010 18:37:01 14.8 C 8.99 g/m*3 14.8 C 0 km/h
1534 16-09-2010 18:49:02 14.4 C 9.27 g/m*3 14.4 C 0 km/h
1535 16-09-2010 19:01:01 13.8 C 9.41 g/m*3 13.8 C 0 km/h
1536 16-09-2010 19:13:01 13.5 C 9.59 g/m*3 13.5 C 0 km/h
1537 16-09-2010 19:25:02 13.4 C 9.76 g/m*3 13.4 C 0 km/h
1538 16-09-2010 19:37:02 13.3 C 9.82 g/m*3 13.3 C 0 km/h
1539 16-09-2010 19:49:02 13.1 C 9.81 g/m*3 13.1 C 0 km/h
1540 16-09-2010 20:01:02 13 C 9.87 g/m*3 13 C 0 km/h
1541 16-09-2010 20:13:02 13 C 9.98 g/m*3 13 C 0 km/h
1542 16-09-2010 20:25:02 12.8 C 10.08 g/m*3 12.8 C 0 km/h
1543 16-09-2010 20:37:02 12.7 C 10.02 g/m*3 12.7 C 0 km/h
1544 16-09-2010 20:49:02 12.7 C 10.13 g/m*3 12.7 C 0 km/h
1545 16-09-2010 21:01:02 12.6 C 10.07 g/m*3 12.6 C 0 km/h
1546 16-09-2010 21:13:02 12.7 C 10.13 g/m*3 12.7 C 0 km/h
1547 16-09-2010 21:25:01 12.7 C 10.13 g/m*3 12.7 C 0 km/h
1548 16-09-2010 21:37:02 12.6 C 10.07 g/m*3 12.6 C 0 km/h
1549 16-09-2010 21:49:02 12.5 C 10 g/m*3 12.5 C 0 km/h
1550 16-09-2010 22:01:02 12.2 C 9.71 g/m*3 12.2 C 0 km/h
Sensor: Nr:Datum:Temp:Abs-Feuchte:Windchill:Wind:
Aussen-T/F 1551 16-09-2010 22:13:02 12.2 C 9.6 g/m*3 12.2 C 0 km/h
1552 16-09-2010 22:25:02 12.2 C 9.6 g/m*3 12.2 C 0 km/h
1553 16-09-2010 22:38:02 12.2 C 9.5 g/m*3 12.2 C 0 km/h
1554 16-09-2010 22:50:02 12.2 C 9.5 g/m*3 12.2 C 0 km/h
1555 16-09-2010 23:02:02 12.2 C 9.5 g/m*3 12.2 C 0 km/h
1556 16-09-2010 23:14:02 12.1 C 9.33 g/m*3 12.1 C 0 km/h
1557 16-09-2010 23:26:02 12.1 C 9.22 g/m*3 12.1 C 0 km/h
1558 16-09-2010 23:38:02 12.1 C 9.22 g/m*3 12.1 C 0 km/h
1559 16-09-2010 23:50:02 12 C 9.17 g/m*3 12 C 0 km/h
1560 17-09-2010 00:02:02 12.1 C 9.12 g/m*3 12.1 C 0 km/h
1561 17-09-2010 00:14:02 12.1 C 9.22 g/m*3 12.1 C 0 km/h
1562 17-09-2010 00:26:02 12.2 C 9.28 g/m*3 12.2 C 0 km/h
1563 17-09-2010 00:38:02 12.2 C 9.28 g/m*3 12.2 C 0 km/h
1564 17-09-2010 00:50:02 12.2 C 9.28 g/m*3 12.2 C 0 km/h
1565 17-09-2010 01:02:02 12.1 C 9.22 g/m*3 12.1 C 0 km/h
1566 17-09-2010 01:14:03 12.1 C 9.22 g/m*3 12.1 C 0 km/h
1567 17-09-2010 01:26:03 12.1 C 9.33 g/m*3 12.1 C 0 km/h
1568 17-09-2010 01:38:03 12 C 9.27 g/m*3 12 C 0 km/h
1569 17-09-2010 01:50:03 12 C 9.27 g/m*3 12 C 0 km/h
1570 17-09-2010 02:02:03 11.9 C 9.32 g/m*3 11.9 C 0 km/h
1571 17-09-2010 02:14:03 11.9 C 9.32 g/m*3 11.9 C 0 km/h
1572 17-09-2010 02:26:03 12 C 9.38 g/m*3 12 C 0 km/h
1573 17-09-2010 02:38:03 12 C 9.27 g/m*3 12 C 0 km/h
1574 17-09-2010 02:50:03 12 C 9.17 g/m*3 12 C 0 km/h
1575 17-09-2010 03:02:03 12.1 C 9.01 g/m*3 12.1 C 0 km/h
Sensor: Nr:Datum:Temp:Abs-Feuchte:Windchill:Wind:
Aussen-T/F 1576 17-09-2010 03:14:03 12.1 C 8.9 g/m*3 12.1 C 0 km/h
1577 17-09-2010 03:26:03 12.1 C 8.9 g/m*3 12.1 C 0 km/h
1578 17-09-2010 03:38:03 12 C 8.95 g/m*3 12 C 0 km/h
1579 17-09-2010 03:50:03 12 C 8.95 g/m*3 12 C 0 km/h
1580 17-09-2010 04:02:03 12 C 9.06 g/m*3 12 C 0 km/h
1581 17-09-2010 04:14:03 11.9 C 8.9 g/m*3 11.9 C 0 km/h
1582 17-09-2010 04:26:03 12 C 8.85 g/m*3 12 C 0 km/h
1583 17-09-2010 04:38:03 11.8 C 8.63 g/m*3 11.8 C 0 km/h
1584 17-09-2010 04:50:03 12 C 8.21 g/m*3 12 C 0 km/h
1585 17-09-2010 05:02:03 11.9 C 8.15 g/m*3 11.9 C 0 km/h
1586 17-09-2010 05:14:03 11.5 C 8.16 g/m*3 11.5 C 0 km/h
1587 17-09-2010 05:26:04 11.1 C 8.16 g/m*3 11.1 C 0 km/h
1588 17-09-2010 05:38:04 10.8 C 8.3 g/m*3 10.8 C 0 km/h
1589 17-09-2010 05:50:04 10.7 C 8.35 g/m*3 10.7 C 0 km/h
1590 17-09-2010 06:02:04 10.5 C 8.34 g/m*3 10.5 C 0 km/h
1591 17-09-2010 06:14:04 10.5 C 8.44 g/m*3 10.5 C 0 km/h
1592 17-09-2010 06:26:04 10.7 C 8.74 g/m*3 10.7 C 0 km/h
1593 17-09-2010 06:38:04 10.8 C 8.8 g/m*3 10.8 C 0 km/h
1594 17-09-2010 06:50:04 10.5 C 8.63 g/m*3 10.5 C 0 km/h
1595 17-09-2010 07:02:02 10.2 C 8.37 g/m*3 10.2 C 0 km/h
1596 17-09-2010 07:14:02 10 C 8.27 g/m*3 10 C 0 km/h
1597 17-09-2010 07:26:02 9.9 C 8.31 g/m*3 9.9 C 0 km/h
1598 17-09-2010 07:38:01 10 C 7.99 g/m*3 10 C 0 km/h
1599 17-09-2010 07:50:02 10 C 7.8 g/m*3 10 C 0 km/h
1600 17-09-2010 08:02:01 9.9 C 7.84 g/m*3 9.9 C 0 km/h
Sensor: Nr:Datum:Temp:Abs-Feuchte:Windchill:Wind:
Aussen-T/F 1601 17-09-2010 08:14:01 10 C 7.8 g/m*3 10 C 0 km/h
1602 17-09-2010 08:26:01 10.1 C 7.66 g/m*3 10.1 C 0 km/h
1603 17-09-2010 08:38:01 10.3 C 7.57 g/m*3 10.3 C 0 km/h
1604 17-09-2010 08:50:01 10.8 C 7.41 g/m*3 10.8 C 0 km/h
1605 17-09-2010 09:02:01 10.8 C 7.31 g/m*3 10.8 C 0 km/h
1606 17-09-2010 09:14:01 10.7 C 7.27 g/m*3 10.7 C 0 km/h
1607 17-09-2010 09:26:02 10.8 C 7.31 g/m*3 10.8 C 0 km/h
1608 17-09-2010 09:38:01 10.9 C 7.26 g/m*3 10.9 C 0 km/h
1609 17-09-2010 09:50:02 11.1 C 7.25 g/m*3 11.1 C 0 km/h
1610 17-09-2010 10:02:02 11.4 C 7.39 g/m*3 11.4 C 0 km/h
1611 17-09-2010 10:14:02 11.7 C 7.53 g/m*3 11.7 C 0 km/h
1612 17-09-2010 10:26:02 12.1 C 7.61 g/m*3 12.1 C 0 km/h
1613 17-09-2010 10:38:01 12.4 C 7.54 g/m*3 12.4 C 0 km/h
1614 17-09-2010 10:50:02 12.7 C 7.68 g/m*3 12.7 C 0 km/h
1615 17-09-2010 11:02:01 13.1 C 7.65 g/m*3 13.1 C 0 km/h
1616 17-09-2010 11:14:01 13.3 C 7.63 g/m*3 13.3 C 0 km/h
1617 17-09-2010 11:26:01 13.8 C 7.74 g/m*3 13.8 C 0 km/h
1618 17-09-2010 11:38:02 14.1 C 7.4 g/m*3 14.1 C 0 km/h
1619 17-09-2010 11:50:02 14.3 C 7.37 g/m*3 14.3 C 0 km/h
1620 17-09-2010 12:02:02 15.2 C 7.01 g/m*3 15.2 C 0 km/h
1621 17-09-2010 12:14:02 15.2 C 6.62 g/m*3 15.2 C 0 km/h
1622 17-09-2010 12:26:02 15.7 C 6.42 g/m*3 15.7 C 0 km/h
1623 17-09-2010 12:38:02 16.2 C 6.62 g/m*3 16.2 C 0 km/h
1624 17-09-2010 12:50:02 16.2 C 6.21 g/m*3 16.2 C 0 km/h
1625 17-09-2010 13:02:02 15.9 C 6.23 g/m*3 15.9 C 0 km/h
Sensor: Nr:Datum:Temp:Abs-Feuchte:Windchill:Wind:
Aussen-T/F 1626 17-09-2010 13:14:02 16.2 C 5.93 g/m*3 16.2 C 0 km/h
1627 17-09-2010 13:26:02 16.3 C 5.83 g/m*3 16.3 C 0 km/h
1628 17-09-2010 13:38:02 17 C 5.79 g/m*3 17 C 0 km/h
1629 17-09-2010 13:50:02 17.9 C 5.65 g/m*3 17.9 C 0 km/h
1630 17-09-2010 14:02:02 18.5 C 5.54 g/m*3 18.5 C 0 km/h
1631 17-09-2010 14:14:02 17.1 C 5.24 g/m*3 17.1 C 0 km/h
1632 17-09-2010 14:26:02 16.8 C 5.29 g/m*3 16.8 C 0 km/h
1633 17-09-2010 14:38:02 17.4 C 5.34 g/m*3 17.4 C 0 km/h
1634 17-09-2010 14:50:02 18.3 C 5 g/m*3 18.3 C 0 km/h
1635 17-09-2010 15:02:02 18.6 C 4.93 g/m*3 18.6 C 0 km/h
1636 17-09-2010 15:14:02 18.2 C 4.97 g/m*3 18.2 C 0 km/h
1637 17-09-2010 15:26:02 17.2 C 5.13 g/m*3 17.2 C 0 km/h
1638 17-09-2010 15:38:02 16.6 C 5.09 g/m*3 16.6 C 0 km/h
1639 17-09-2010 15:50:02 16.8 C 5.15 g/m*3 16.8 C 0 km/h
1640 17-09-2010 16:02:02 18.4 C 5.19 g/m*3 18.4 C 0 km/h
1641 17-09-2010 16:14:02 18.9 C 5.02 g/m*3 18.9 C 0 km/h
1642 17-09-2010 16:26:02 19.3 C 4.81 g/m*3 19.3 C 0 km/h
1643 17-09-2010 16:38:01 18.9 C 4.86 g/m*3 18.9 C 0 km/h
1644 17-09-2010 16:50:02 19.8 C 4.78 g/m*3 19.8 C 0 km/h
1645 17-09-2010 17:02:01 20.1 C 4.69 g/m*3 20.1 C 0 km/h
1646 17-09-2010 17:14:01 19.7 C 4.25 g/m*3 19.7 C 0 km/h
1647 17-09-2010 17:26:01 18.8 C 4.35 g/m*3 18.8 C 0 km/h
1648 17-09-2010 17:38:02 19.3 C 4.31 g/m*3 19.3 C 0 km/h
1649 17-09-2010 17:50:02 19.4 C 4.67 g/m*3 19.4 C 0 km/h
1650 17-09-2010 18:02:02 17.5 C 5.22 g/m*3 17.5 C 0 km/h
Sensor: Nr:Datum:Temp:Abs-Feuchte:Windchill:Wind:
Aussen-T/F 1651 17-09-2010 18:14:02 16 C 5.99 g/m*3 16 C 0 km/h
1652 17-09-2010 18:26:02 17.2 C 6.3 g/m*3 17.2 C 0 km/h
1653 17-09-2010 18:38:02 16.3 C 6.24 g/m*3 16.3 C 0 km/h
1654 17-09-2010 18:50:01 16.3 C 6.66 g/m*3 16.3 C 0 km/h
1655 17-09-2010 19:02:01 16.3 C 6.66 g/m*3 16.3 C 0 km/h
1656 17-09-2010 19:14:02 15.7 C 6.56 g/m*3 15.7 C 0 km/h
1657 17-09-2010 19:26:01 15 C 6.54 g/m*3 15 C 0 km/h
1658 17-09-2010 19:38:01 14.7 C 6.8 g/m*3 14.7 C 0 km/h
1659 17-09-2010 19:50:02 14.5 C 6.84 g/m*3 14.5 C 0 km/h
1660 17-09-2010 20:02:02 14.5 C 6.96 g/m*3 14.5 C 0 km/h
1661 17-09-2010 20:14:02 14.5 C 6.96 g/m*3 14.5 C 0 km/h
1662 17-09-2010 20:26:02 14.5 C 7.09 g/m*3 14.5 C 0 km/h
1663 17-09-2010 20:38:02 14.1 C 7.28 g/m*3 14.1 C 0 km/h
1664 17-09-2010 20:50:01 13.7 C 6.99 g/m*3 13.7 C 0 km/h
1665 17-09-2010 21:02:02 13.7 C 7.22 g/m*3 13.7 C 0 km/h
1666 17-09-2010 21:14:02 13.5 C 7.13 g/m*3 13.5 C 0 km/h
1667 17-09-2010 21:26:01 13.4 C 7.09 g/m*3 13.4 C 0 km/h
1668 17-09-2010 21:38:01 13.4 C 7.09 g/m*3 13.4 C 0 km/h
1669 17-09-2010 21:50:01 13.4 C 7.21 g/m*3 13.4 C 0 km/h
1670 17-09-2010 22:02:01 13.6 C 6.94 g/m*3 13.6 C 0 km/h
1671 17-09-2010 22:14:01 13.6 C 6.71 g/m*3 13.6 C 0 km/h
1672 17-09-2010 22:26:02 13.4 C 6.63 g/m*3 13.4 C 0 km/h
1673 17-09-2010 22:39:36 13.1 C 6.62 g/m*3 13.1 C 0 km/h
1674 17-09-2010 22:51:37 13 C 6.69 g/m*3 13 C 0 km/h
1675 17-09-2010 23:03:37 12.8 C 6.72 g/m*3 12.8 C 0 km/h
Sensor: Nr:Datum:Temp:Abs-Feuchte:Windchill:Wind:
Aussen-T/F 1676 17-09-2010 23:15:37 12.6 C 6.75 g/m*3 12.6 C 0 km/h
1677 17-09-2010 23:27:37 12.6 C 6.86 g/m*3 12.6 C 0 km/h
1678 17-09-2010 23:39:37 12.5 C 6.82 g/m*3 12.5 C 0 km/h
1679 17-09-2010 23:51:37 12.4 C 6.88 g/m*3 12.4 C 0 km/h
1680 18-09-2010 00:03:37 12.2 C 6.8 g/m*3 12.2 C 0 km/h
1681 18-09-2010 00:15:37 12.3 C 6.95 g/m*3 12.3 C 0 km/h
1682 18-09-2010 00:27:37 12 C 6.82 g/m*3 12 C 0 km/h
1683 18-09-2010 00:39:37 12 C 7.03 g/m*3 12 C 0 km/h
1684 18-09-2010 00:51:37 12.1 C 7.08 g/m*3 12.1 C 0 km/h
1685 18-09-2010 01:03:37 11.9 C 7.2 g/m*3 11.9 C 0 km/h
1686 18-09-2010 01:15:37 11.2 C 6.99 g/m*3 11.2 C 0 km/h
1687 18-09-2010 01:27:37 10.8 C 7.02 g/m*3 10.8 C 0 km/h
1688 18-09-2010 01:39:37 10.4 C 6.94 g/m*3 10.4 C 0 km/h
1689 18-09-2010 01:51:37 10.2 C 6.85 g/m*3 10.2 C 0 km/h
1690 18-09-2010 02:03:37 10.2 C 6.95 g/m*3 10.2 C 0 km/h
1691 18-09-2010 02:15:37 10 C 7.05 g/m*3 10 C 0 km/h
1692 18-09-2010 02:27:37 10 C 7.24 g/m*3 10 C 0 km/h
1693 18-09-2010 02:39:37 9.8 C 7.33 g/m*3 9.8 C 0 km/h
1694 18-09-2010 02:51:37 10 C 7.42 g/m*3 10 C 0 km/h
1695 18-09-2010 03:03:38 9.9 C 7.47 g/m*3 9.9 C 0 km/h
1696 18-09-2010 03:15:38 9.5 C 7.28 g/m*3 9.5 C 0 km/h
1697 18-09-2010 03:27:38 9.4 C 7.33 g/m*3 9.4 C 0 km/h
1698 18-09-2010 03:39:38 9.1 C 7.19 g/m*3 9.1 C 0 km/h
1699 18-09-2010 03:51:38 9 C 7.23 g/m*3 9 C 0 km/h
1700 18-09-2010 04:03:38 8.9 C 7.36 g/m*3 8.9 C 0 km/h
Sensor: Nr:Datum:Temp:Abs-Feuchte:Windchill:Wind:
Aussen-T/F 1701 18-09-2010 04:15:38 8.7 C 7.26 g/m*3 8.7 C 0 km/h
1702 18-09-2010 04:27:38 8.5 C 7.17 g/m*3 8.5 C 0 km/h
1703 18-09-2010 04:39:38 8.4 C 7.13 g/m*3 8.4 C 0 km/h
1704 18-09-2010 04:51:38 8.2 C 7.03 g/m*3 8.2 C 0 km/h
1705 18-09-2010 05:03:38 8.2 C 7.12 g/m*3 8.2 C 0 km/h
1706 18-09-2010 05:15:38 8.1 C 7.16 g/m*3 8.1 C 0 km/h
1707 18-09-2010 05:27:38 7.9 C 7.23 g/m*3 7.9 C 0 km/h
1708 18-09-2010 05:39:38 7.7 C 7.14 g/m*3 7.7 C 0 km/h
1709 18-09-2010 05:51:38 7.8 C 7.26 g/m*3 7.8 C 0 km/h
1710 18-09-2010 06:03:38 7.8 C 7.35 g/m*3 7.8 C 0 km/h
1711 18-09-2010 06:15:38 7.5 C 7.28 g/m*3 7.5 C 0 km/h
1712 18-09-2010 06:27:38 7.5 C 7.28 g/m*3 7.5 C 0 km/h
1713 18-09-2010 06:39:38 7.6 C 7.41 g/m*3 7.6 C 0 km/h
1714 18-09-2010 06:51:38 7.7 C 7.46 g/m*3 7.7 C 0 km/h
1715 18-09-2010 07:03:39 7.7 C 7.46 g/m*3 7.7 C 0 km/h
1716 18-09-2010 07:15:39 7.6 C 7.33 g/m*3 7.6 C 0 km/h
1717 18-09-2010 07:27:39 7.5 C 7.28 g/m*3 7.5 C 0 km/h
1718 18-09-2010 07:39:39 7.3 C 7.19 g/m*3 7.3 C 0 km/h
1719 18-09-2010 07:51:39 7.4 C 7.24 g/m*3 7.4 C 0 km/h
1720 18-09-2010 08:03:02 7.3 C 7.11 g/m*3 7.3 C 0 km/h
1721 18-09-2010 08:15:03 7.4 C 7.16 g/m*3 7.4 C 0 km/h
1722 18-09-2010 08:27:03 7.5 C 7.28 g/m*3 7.5 C 0 km/h
1723 18-09-2010 08:39:02 7.5 C 7.28 g/m*3 7.5 C 0 km/h
1724 18-09-2010 08:51:02 7.6 C 7.33 g/m*3 7.6 C 0 km/h
1725 18-09-2010 09:03:02 7.7 C 7.38 g/m*3 7.7 C 0 km/h
Sensor: Nr:Datum:Temp:Abs-Feuchte:Windchill:Wind:
Aussen-T/F 1726 18-09-2010 09:15:02 7.8 C 7.43 g/m*3 7.8 C 0 km/h
1727 18-09-2010 09:27:02 8 C 7.44 g/m*3 8 C 0 km/h
1728 18-09-2010 09:39:02 8.2 C 7.54 g/m*3 8.2 C 0 km/h
1729 18-09-2010 09:51:02 8.9 C 7.97 g/m*3 8.9 C 0 km/h
1730 18-09-2010 10:03:02 9.3 C 8.09 g/m*3 9.3 C 0 km/h
1731 18-09-2010 10:15:02 9.5 C 8.1 g/m*3 9.5 C 0 km/h
1732 18-09-2010 10:27:03 9.8 C 8.07 g/m*3 9.8 C 0 km/h
1733 18-09-2010 10:39:01 10.7 C 8.25 g/m*3 10.7 C 0 km/h
1734 18-09-2010 10:51:02 11.7 C 8.37 g/m*3 11.7 C 0 km/h
1735 18-09-2010 11:03:02 12.2 C 6.91 g/m*3 12.2 C 0 km/h
1736 18-09-2010 11:15:02 13 C 6.8 g/m*3 13 C 0 km/h
1737 18-09-2010 11:27:02 13.6 C 6.59 g/m*3 13.6 C 0 km/h
1738 18-09-2010 11:39:02 14 C 6.39 g/m*3 14 C 0 km/h
1739 18-09-2010 11:51:01 14.5 C 6.47 g/m*3 14.5 C 0 km/h
1740 18-09-2010 12:03:02 14.6 C 6.13 g/m*3 14.6 C 0 km/h
1741 18-09-2010 12:15:01 15.7 C 6.15 g/m*3 15.7 C 0 km/h
1742 18-09-2010 12:27:01 15.1 C 5.42 g/m*3 15.1 C 0 km/h
1743 18-09-2010 12:39:01 15.4 C 6.04 g/m*3 15.4 C 0 km/h
1744 18-09-2010 12:51:01 14.9 C 5.86 g/m*3 14.9 C 0 km/h
1745 18-09-2010 13:03:02 14.9 C 5.86 g/m*3 14.9 C 0 km/h
1746 18-09-2010 13:15:01 15.3 C 5.48 g/m*3 15.3 C 0 km/h
1747 18-09-2010 13:27:01 15.6 C 5.32 g/m*3 15.6 C 0 km/h
1748 18-09-2010 13:39:01 15.8 C 5.25 g/m*3 15.8 C 0 km/h
1749 18-09-2010 13:51:01 16.4 C 5.16 g/m*3 16.4 C 0 km/h
1750 18-09-2010 14:03:01 16.2 C 4.96 g/m*3 16.2 C 0 km/h
Sensor: Nr:Datum:Temp:Abs-Feuchte:Windchill:Wind:
Aussen-T/F 1751 18-09-2010 14:15:02 15.4 C 4.73 g/m*3 15.4 C 0 km/h
1752 18-09-2010 14:27:02 14.7 C 4.66 g/m*3 14.7 C 0 km/h
1753 18-09-2010 14:39:01 14.9 C 4.72 g/m*3 14.9 C 0 km/h
1754 18-09-2010 14:51:02 15.1 C 4.77 g/m*3 15.1 C 0 km/h
1755 18-09-2010 15:03:02 15.4 C 4.6 g/m*3 15.4 C 0 km/h
1756 18-09-2010 15:15:02 16.1 C 4.52 g/m*3 16.1 C 0 km/h
1757 18-09-2010 15:27:02 15.9 C 4.74 g/m*3 15.9 C 0 km/h
1758 18-09-2010 15:39:02 17.3 C 4.57 g/m*3 17.3 C 0 km/h
1759 18-09-2010 15:51:02 16.8 C 4.43 g/m*3 16.8 C 0 km/h
1760 18-09-2010 16:03:01 16.4 C 4.75 g/m*3 16.4 C 0 km/h
1761 18-09-2010 16:15:02 16.2 C 4.55 g/m*3 16.2 C 0 km/h
1762 18-09-2010 16:27:03 16.1 C 4.66 g/m*3 16.1 C 0 km/h
1763 18-09-2010 16:39:01 16.1 C 4.8 g/m*3 16.1 C 0 km/h
1764 18-09-2010 16:51:02 16.3 C 5.55 g/m*3 16.3 C 0 km/h
1765 18-09-2010 17:03:02 16.3 C 4.99 g/m*3 16.3 C 0 km/h
1766 18-09-2010 17:15:02 16.4 C 6.14 g/m*3 16.4 C 0 km/h
1767 18-09-2010 17:27:02 16.3 C 5.41 g/m*3 16.3 C 0 km/h
1768 18-09-2010 17:39:02 15.6 C 6.12 g/m*3 15.6 C 0 km/h
1769 18-09-2010 17:51:01 14.7 C 5.92 g/m*3 14.7 C 0 km/h
1770 18-09-2010 18:03:02 14.5 C 6.09 g/m*3 14.5 C 0 km/h
1771 18-09-2010 18:15:01 15.6 C 5.98 g/m*3 15.6 C 0 km/h
1772 18-09-2010 18:27:01 16.2 C 5.93 g/m*3 16.2 C 0 km/h
1773 18-09-2010 18:39:01 16.2 C 6.07 g/m*3 16.2 C 0 km/h
1774 18-09-2010 18:51:01 15.8 C 6.19 g/m*3 15.8 C 0 km/h
1775 18-09-2010 19:03:02 15.2 C 6.1 g/m*3 15.2 C 0 km/h
Sensor: Nr:Datum:Temp:Abs-Feuchte:Windchill:Wind:
Aussen-T/F 1776 18-09-2010 19:15:01 14 C 5.91 g/m*3 14 C 0 km/h
1777 18-09-2010 19:27:01 13 C 6.12 g/m*3 13 C 0 km/h
1778 18-09-2010 19:39:01 12.2 C 6.04 g/m*3 12.2 C 0 km/h
1779 18-09-2010 19:51:01 11.9 C 6.14 g/m*3 11.9 C 0 km/h
1780 18-09-2010 20:03:02 11.4 C 6.36 g/m*3 11.4 C 0 km/h
1781 18-09-2010 20:15:02 11.2 C 6.39 g/m*3 11.2 C 0 km/h
1782 18-09-2010 20:27:02 11.1 C 6.75 g/m*3 11.1 C 0 km/h
1783 18-09-2010 20:39:01 10.9 C 6.76 g/m*3 10.9 C 0 km/h
1784 18-09-2010 20:51:01 10.8 C 6.72 g/m*3 10.8 C 0 km/h
1785 18-09-2010 21:03:01 10.6 C 6.73 g/m*3 10.6 C 0 km/h
1786 18-09-2010 21:15:02 10.2 C 6.66 g/m*3 10.2 C 0 km/h
1787 18-09-2010 21:27:02 10 C 6.48 g/m*3 10 C 0 km/h
1788 18-09-2010 21:39:01 9.7 C 6.64 g/m*3 9.7 C 0 km/h
1789 18-09-2010 21:51:02 9.6 C 6.6 g/m*3 9.6 C 0 km/h
1790 18-09-2010 22:03:02 9.3 C 6.56 g/m*3 9.3 C 0 km/h
1791 18-09-2010 22:15:02 9.2 C 6.61 g/m*3 9.2 C 0 km/h
1792 18-09-2010 22:27:02 9 C 6.7 g/m*3 9 C 0 km/h
1793 18-09-2010 22:40:03 8.8 C 6.79 g/m*3 8.8 C 0 km/h
1794 18-09-2010 22:52:03 8.6 C 6.79 g/m*3 8.6 C 0 km/h
1795 18-09-2010 23:04:03 8.5 C 6.74 g/m*3 8.5 C 0 km/h
1796 18-09-2010 23:16:03 8.4 C 6.87 g/m*3 8.4 C 0 km/h
1797 18-09-2010 23:28:03 8.2 C 6.78 g/m*3 8.2 C 0 km/h
1798 18-09-2010 23:40:03 8 C 6.7 g/m*3 8 C 0 km/h
1799 18-09-2010 23:52:03 7.9 C 6.74 g/m*3 7.9 C 0 km/h
1800 19-09-2010 00:04:03 7.8 C 6.77 g/m*3 7.8 C 0 km/h
Sensor: Nr:Datum:Temp:Abs-Feuchte:Windchill:Wind:
Aussen-T/F 1801 19-09-2010 00:16:03 7.7 C 6.73 g/m*3 7.7 C 0 km/h
1802 19-09-2010 00:28:03 7.6 C 6.77 g/m*3 7.6 C 0 km/h
1803 19-09-2010 00:40:03 7.4 C 6.68 g/m*3 7.4 C 0 km/h
1804 19-09-2010 00:52:03 7.3 C 6.64 g/m*3 7.3 C 0 km/h
1805 19-09-2010 01:04:04 7.1 C 6.47 g/m*3 7.1 C 0 km/h
1806 19-09-2010 01:16:04 7.1 C 6.55 g/m*3 7.1 C 0 km/h
1807 19-09-2010 01:28:04 6.9 C 6.54 g/m*3 6.9 C 0 km/h
1808 19-09-2010 01:40:04 6.8 C 6.58 g/m*3 6.8 C 0 km/h
1809 19-09-2010 01:52:04 6.7 C 6.53 g/m*3 6.7 C 0 km/h
1810 19-09-2010 02:04:04 6.6 C 6.57 g/m*3 6.6 C 0 km/h
1811 19-09-2010 02:16:04 6.4 C 6.48 g/m*3 6.4 C 0 km/h
1812 19-09-2010 02:28:04 6.4 C 6.48 g/m*3 6.4 C 0 km/h
1813 19-09-2010 02:40:04 6.4 C 6.56 g/m*3 6.4 C 0 km/h
1814 19-09-2010 02:52:04 6.4 C 6.56 g/m*3 6.4 C 0 km/h
1815 19-09-2010 03:04:04 6.4 C 6.56 g/m*3 6.4 C 0 km/h
1816 19-09-2010 03:16:04 6.4 C 6.56 g/m*3 6.4 C 0 km/h
1817 19-09-2010 03:28:04 6.4 C 6.56 g/m*3 6.4 C 0 km/h
1818 19-09-2010 03:40:04 6.5 C 6.6 g/m*3 6.5 C 0 km/h
1819 19-09-2010 03:52:04 6.4 C 6.56 g/m*3 6.4 C 0 km/h
1820 19-09-2010 04:04:04 6.3 C 6.51 g/m*3 6.3 C 0 km/h
1821 19-09-2010 04:16:04 6.1 C 6.43 g/m*3 6.1 C 0 km/h
1822 19-09-2010 04:28:04 5.9 C 6.42 g/m*3 5.9 C 0 km/h
1823 19-09-2010 04:40:04 6.2 C 6.47 g/m*3 6.2 C 0 km/h
1824 19-09-2010 04:52:04 6.5 C 6.67 g/m*3 6.5 C 0 km/h
1825 19-09-2010 05:04:05 6.6 C 6.72 g/m*3 6.6 C 0 km/h
Sensor: Nr:Datum:Temp:Abs-Feuchte:Windchill:Wind:
Aussen-T/F 1826 19-09-2010 05:16:05 6.2 C 6.47 g/m*3 6.2 C 0 km/h
1827 19-09-2010 05:28:05 6 C 6.39 g/m*3 6 C 0 km/h
1828 19-09-2010 05:40:05 5.8 C 6.3 g/m*3 5.8 C 0 km/h
1829 19-09-2010 05:52:05 5.6 C 6.22 g/m*3 5.6 C 0 km/h
1830 19-09-2010 06:04:05 5.5 C 6.18 g/m*3 5.5 C 0 km/h
1831 19-09-2010 06:16:05 5.5 C 6.18 g/m*3 5.5 C 0 km/h
1832 19-09-2010 06:28:05 5.7 C 6.33 g/m*3 5.7 C 0 km/h
1833 19-09-2010 06:40:05 6 C 6.46 g/m*3 6 C 0 km/h
1834 19-09-2010 06:52:05 6.1 C 6.5 g/m*3 6.1 C 0 km/h
1835 19-09-2010 07:04:05 6.3 C 6.59 g/m*3 6.3 C 0 km/h
1836 19-09-2010 07:16:05 6.1 C 6.5 g/m*3 6.1 C 0 km/h
1837 19-09-2010 07:28:05 5.8 C 6.38 g/m*3 5.8 C 0 km/h
1838 19-09-2010 07:40:05 5.9 C 6.42 g/m*3 5.9 C 0 km/h
1839 19-09-2010 07:52:05 5.9 C 6.42 g/m*3 5.9 C 0 km/h
1840 19-09-2010 08:04:05 6.2 C 6.47 g/m*3 6.2 C 0 km/h
1841 19-09-2010 08:16:05 6.7 C 6.76 g/m*3 6.7 C 0 km/h
1842 19-09-2010 08:28:05 7.3 C 6.95 g/m*3 7.3 C 0 km/h
1843 19-09-2010 08:40:05 7.4 C 7 g/m*3 7.4 C 0 km/h
1844 19-09-2010 08:52:02 7.2 C 6.75 g/m*3 7.2 C 0 km/h
1845 19-09-2010 09:04:02 7.2 C 6.67 g/m*3 7.2 C 0 km/h
1846 19-09-2010 09:16:02 7.3 C 6.79 g/m*3 7.3 C 0 km/h
1847 19-09-2010 09:28:02 7.7 C 6.97 g/m*3 7.7 C 0 km/h
1848 19-09-2010 09:40:02 8.8 C 7.31 g/m*3 8.8 C 0 km/h
1849 19-09-2010 09:52:01 9.6 C 7.15 g/m*3 9.6 C 0 km/h
1850 19-09-2010 10:04:01 10.2 C 6.76 g/m*3 10.2 C 0 km/h
Sensor: Nr:Datum:Temp:Abs-Feuchte:Windchill:Wind:
Aussen-T/F 1851 19-09-2010 10:16:01 10.9 C 6.86 g/m*3 10.9 C 0 km/h
1852 19-09-2010 10:28:01 10.8 C 6.62 g/m*3 10.8 C 0 km/h
1853 19-09-2010 10:40:01 10.7 C 6.58 g/m*3 10.7 C 0 km/h
1854 19-09-2010 10:52:01 11 C 6.61 g/m*3 11 C 0 km/h
1855 19-09-2010 11:04:01 11.5 C 6.51 g/m*3 11.5 C 0 km/h
1856 19-09-2010 11:16:02 12.2 C 6.58 g/m*3 12.2 C 0 km/h
1857 19-09-2010 11:28:02 13.3 C 6.47 g/m*3 13.3 C 0 km/h
1858 19-09-2010 11:40:01 13.8 C 5.96 g/m*3 13.8 C 0 km/h
1859 19-09-2010 11:52:03 13.8 C 5.72 g/m*3 13.8 C 0 km/h
1860 19-09-2010 12:04:02 13.8 C 5.84 g/m*3 13.8 C 0 km/h
1861 19-09-2010 12:16:02 14.3 C 5.9 g/m*3 14.3 C 0 km/h
1862 19-09-2010 12:28:02 15.2 C 5.84 g/m*3 15.2 C 0 km/h
1863 19-09-2010 12:40:02 15.7 C 5.35 g/m*3 15.7 C 0 km/h
1864 19-09-2010 12:52:02 15.7 C 5.35 g/m*3 15.7 C 0 km/h
1865 19-09-2010 13:04:01 16.2 C 5.52 g/m*3 16.2 C 0 km/h
1866 19-09-2010 13:16:02 16.4 C 5.58 g/m*3 16.4 C 0 km/h
1867 19-09-2010 13:28:02 16.1 C 5.48 g/m*3 16.1 C 0 km/h
1868 19-09-2010 13:40:02 16 C 5.59 g/m*3 16 C 0 km/h
1869 19-09-2010 13:52:01 15.9 C 5.55 g/m*3 15.9 C 0 km/h
1870 19-09-2010 14:04:02 16.5 C 5.62 g/m*3 16.5 C 0 km/h
1871 19-09-2010 14:16:01 17.5 C 5.67 g/m*3 17.5 C 0 km/h
1872 19-09-2010 14:28:01 17.5 C 5.67 g/m*3 17.5 C 0 km/h
1873 19-09-2010 14:40:01 17.5 C 5.67 g/m*3 17.5 C 0 km/h
1874 19-09-2010 14:52:01 17.9 C 5.8 g/m*3 17.9 C 0 km/h
1875 19-09-2010 15:04:02 17.8 C 5.46 g/m*3 17.8 C 0 km/h
Sensor: Nr:Datum:Temp:Abs-Feuchte:Windchill:Wind:
Aussen-T/F 1876 19-09-2010 15:16:01 18.6 C 5.73 g/m*3 18.6 C 0 km/h
1877 19-09-2010 15:28:01 18.4 C 5.66 g/m*3 18.4 C 0 km/h
1878 19-09-2010 15:40:02 19 C 5.38 g/m*3 19 C 0 km/h
1879 19-09-2010 15:52:01 19.3 C 4.98 g/m*3 19.3 C 0 km/h
1880 19-09-2010 16:04:02 18.8 C 5.31 g/m*3 18.8 C 0 km/h
1881 19-09-2010 16:16:01 18.6 C 5.41 g/m*3 18.6 C 0 km/h
1882 19-09-2010 16:28:01 18.8 C 5.31 g/m*3 18.8 C 0 km/h
1883 19-09-2010 16:40:02 19.6 C 5.4 g/m*3 19.6 C 0 km/h
1884 19-09-2010 16:52:01 19.4 C 5.01 g/m*3 19.4 C 0 km/h
1885 19-09-2010 17:04:02 19.8 C 5.3 g/m*3 19.8 C 0 km/h
1886 19-09-2010 17:16:02 19.1 C 5.25 g/m*3 19.1 C 0 km/h
1887 19-09-2010 17:28:02 18.6 C 5.57 g/m*3 18.6 C 0 km/h
1888 19-09-2010 17:40:01 18.4 C 6.29 g/m*3 18.4 C 0 km/h
1889 19-09-2010 17:52:02 18 C 5.99 g/m*3 18 C 0 km/h
1890 19-09-2010 18:04:01 17.6 C 6 g/m*3 17.6 C 0 km/h
1891 19-09-2010 18:16:02 17.2 C 6.3 g/m*3 17.2 C 0 km/h
1892 19-09-2010 18:28:03 17.1 C 5.82 g/m*3 17.1 C 0 km/h
1893 19-09-2010 18:40:01 17 C 6.08 g/m*3 17 C 0 km/h
1894 19-09-2010 18:52:02 16.5 C 5.76 g/m*3 16.5 C 0 km/h
1895 19-09-2010 19:04:02 16.2 C 5.79 g/m*3 16.2 C 0 km/h
1896 19-09-2010 19:16:02 16 C 5.99 g/m*3 16 C 0 km/h
1897 19-09-2010 19:28:02 15.8 C 5.92 g/m*3 15.8 C 0 km/h
1898 19-09-2010 19:40:03 15.6 C 5.98 g/m*3 15.6 C 0 km/h
1899 19-09-2010 19:52:02 15.3 C 6.14 g/m*3 15.3 C 0 km/h
1900 19-09-2010 20:04:02 14.8 C 6.33 g/m*3 14.8 C 0 km/h
Sensor: Nr:Datum:Temp:Abs-Feuchte:Windchill:Wind:
Aussen-T/F 1901 19-09-2010 20:16:02 14.5 C 6.34 g/m*3 14.5 C 0 km/h
1902 19-09-2010 20:28:02 14.3 C 6.27 g/m*3 14.3 C 0 km/h
1903 19-09-2010 20:40:02 14.3 C 6.39 g/m*3 14.3 C 0 km/h
1904 19-09-2010 20:52:02 14.4 C 6.18 g/m*3 14.4 C 0 km/h
1905 19-09-2010 21:04:02 14.4 C 6.43 g/m*3 14.4 C 0 km/h
1906 19-09-2010 21:16:02 14.2 C 6.47 g/m*3 14.2 C 0 km/h
1907 19-09-2010 21:28:02 14 C 6.51 g/m*3 14 C 0 km/h
1908 19-09-2010 21:40:02 13.7 C 6.87 g/m*3 13.7 C 0 km/h
1909 19-09-2010 21:52:03 13.5 C 6.78 g/m*3 13.5 C 0 km/h
1910 19-09-2010 22:04:03 13.4 C 6.74 g/m*3 13.4 C 0 km/h
1911 19-09-2010 22:17:01 13.3 C 6.7 g/m*3 13.3 C 0 km/h
1912 19-09-2010 22:29:01 13.4 C 6.86 g/m*3 13.4 C 0 km/h
1913 19-09-2010 22:41:01 13.3 C 6.82 g/m*3 13.3 C 0 km/h
1914 19-09-2010 22:53:01 13.2 C 6.77 g/m*3 13.2 C 0 km/h
1915 19-09-2010 23:05:01 13 C 6.8 g/m*3 13 C 0 km/h
1916 19-09-2010 23:17:01 12.5 C 6.82 g/m*3 12.5 C 0 km/h
1917 19-09-2010 23:29:01 12.2 C 6.8 g/m*3 12.2 C 0 km/h
1918 19-09-2010 23:41:01 11.9 C 6.67 g/m*3 11.9 C 0 km/h
1919 19-09-2010 23:53:01 11.8 C 6.74 g/m*3 11.8 C 0 km/h
1920 20-09-2010 00:05:01 11.9 C 6.88 g/m*3 11.9 C 0 km/h
1921 20-09-2010 00:17:01 11.9 C 6.99 g/m*3 11.9 C 0 km/h
1922 20-09-2010 00:29:02 11.9 C 6.88 g/m*3 11.9 C 0 km/h
1923 20-09-2010 00:41:02 11.4 C 6.77 g/m*3 11.4 C 0 km/h
1924 20-09-2010 00:53:02 11.3 C 6.83 g/m*3 11.3 C 0 km/h
1925 20-09-2010 01:05:02 10.8 C 6.72 g/m*3 10.8 C 0 km/h
Sensor: Nr:Datum:Temp:Abs-Feuchte:Windchill:Wind:
Aussen-T/F 1926 20-09-2010 01:17:02 10.5 C 6.69 g/m*3 10.5 C 0 km/h
1927 20-09-2010 01:29:02 10.4 C 6.75 g/m*3 10.4 C 0 km/h
1928 20-09-2010 01:41:02 10.2 C 6.85 g/m*3 10.2 C 0 km/h
1929 20-09-2010 01:53:02 10.3 C 6.9 g/m*3 10.3 C 0 km/h
1930 20-09-2010 02:05:02 10.1 C 6.81 g/m*3 10.1 C 0 km/h
1931 20-09-2010 02:17:02 10 C 6.77 g/m*3 10 C 0 km/h
1932 20-09-2010 02:29:02 9.8 C 6.96 g/m*3 9.8 C 0 km/h
1933 20-09-2010 02:41:02 9.6 C 6.87 g/m*3 9.6 C 0 km/h
1934 20-09-2010 02:53:02 9.7 C 7.01 g/m*3 9.7 C 0 km/h
1935 20-09-2010 03:05:02 9.8 C 6.96 g/m*3 9.8 C 0 km/h
1936 20-09-2010 03:17:02 9.6 C 6.96 g/m*3 9.6 C 0 km/h
1937 20-09-2010 03:29:02 9.7 C 7.1 g/m*3 9.7 C 0 km/h
1938 20-09-2010 03:41:02 9.7 C 7.1 g/m*3 9.7 C 0 km/h
1939 20-09-2010 03:53:02 9.4 C 6.96 g/m*3 9.4 C 0 km/h
1940 20-09-2010 04:05:02 9.3 C 6.92 g/m*3 9.3 C 0 km/h
1941 20-09-2010 04:17:02 9.2 C 6.88 g/m*3 9.2 C 0 km/h
1942 20-09-2010 04:29:02 9 C 6.88 g/m*3 9 C 0 km/h
1943 20-09-2010 04:41:03 8.8 C 6.88 g/m*3 8.8 C 0 km/h
1944 20-09-2010 04:53:03 8.6 C 6.87 g/m*3 8.6 C 0 km/h
1945 20-09-2010 05:05:03 8.4 C 6.87 g/m*3 8.4 C 0 km/h
1946 20-09-2010 05:17:03 8.4 C 6.87 g/m*3 8.4 C 0 km/h
1947 20-09-2010 05:29:03 8.3 C 6.91 g/m*3 8.3 C 0 km/h
1948 20-09-2010 05:41:03 8.2 C 6.87 g/m*3 8.2 C 0 km/h
1949 20-09-2010 05:53:03 8.3 C 6.91 g/m*3 8.3 C 0 km/h
1950 20-09-2010 06:05:03 8.3 C 6.91 g/m*3 8.3 C 0 km/h
Sensor: Nr:Datum:Temp:Abs-Feuchte:Windchill:Wind:
Aussen-T/F 1951 20-09-2010 06:17:03 8.4 C 7.04 g/m*3 8.4 C 0 km/h
1952 20-09-2010 06:29:03 8.5 C 7 g/m*3 8.5 C 0 km/h
1953 20-09-2010 06:41:03 8.5 C 7 g/m*3 8.5 C 0 km/h
1954 20-09-2010 06:53:03 8.7 C 7.18 g/m*3 8.7 C 0 km/h
1955 20-09-2010 07:05:01 8.6 C 7.13 g/m*3 8.6 C 0 km/h
1956 20-09-2010 07:17:02 8.4 C 7.04 g/m*3 8.4 C 0 km/h
1957 20-09-2010 07:29:02 8.5 C 7.09 g/m*3 8.5 C 0 km/h
1958 20-09-2010 07:41:01 8.5 C 7.09 g/m*3 8.5 C 0 km/h
1959 20-09-2010 07:53:02 8.6 C 7.13 g/m*3 8.6 C 0 km/h
1960 20-09-2010 08:05:02 9 C 7.14 g/m*3 9 C 0 km/h
1961 20-09-2010 08:17:02 9.2 C 6.97 g/m*3 9.2 C 0 km/h
1962 20-09-2010 08:29:02 9.2 C 6.79 g/m*3 9.2 C 0 km/h
1963 20-09-2010 08:41:02 9.3 C 6.74 g/m*3 9.3 C 0 km/h
1964 20-09-2010 08:53:01 9.2 C 6.7 g/m*3 9.2 C 0 km/h
1965 20-09-2010 09:05:02 9.3 C 6.83 g/m*3 9.3 C 0 km/h
1966 20-09-2010 09:17:01 9.6 C 6.87 g/m*3 9.6 C 0 km/h
1967 20-09-2010 09:29:01 9.7 C 6.82 g/m*3 9.7 C 0 km/h
1968 20-09-2010 09:41:01 10 C 6.95 g/m*3 10 C 0 km/h
1969 20-09-2010 09:53:01 10.6 C 7.12 g/m*3 10.6 C 0 km/h
1970 20-09-2010 10:05:02 11.4 C 7.29 g/m*3 11.4 C 0 km/h
1971 20-09-2010 10:17:02 12.1 C 7.18 g/m*3 12.1 C 0 km/h
1972 20-09-2010 10:29:02 12.4 C 7.1 g/m*3 12.4 C 0 km/h
1973 20-09-2010 10:41:01 12.9 C 7.33 g/m*3 12.9 C 0 km/h
1974 20-09-2010 10:53:01 13.2 C 7.12 g/m*3 13.2 C 0 km/h
1975 20-09-2010 11:05:01 13.3 C 7.39 g/m*3 13.3 C 0 km/h
Sensor: Nr:Datum:Temp:Abs-Feuchte:Windchill:Wind:
Aussen-T/F 1976 20-09-2010 11:17:02 13.8 C 7.15 g/m*3 13.8 C 0 km/h
1977 20-09-2010 11:29:02 14.8 C 6.84 g/m*3 14.8 C 0 km/h
1978 20-09-2010 11:41:01 15.3 C 6.66 g/m*3 15.3 C 0 km/h
1979 20-09-2010 11:53:02 15.9 C 6.77 g/m*3 15.9 C 0 km/h
1980 20-09-2010 12:05:02 16.1 C 6.31 g/m*3 16.1 C 0 km/h
1981 20-09-2010 12:17:02 15.9 C 6.5 g/m*3 15.9 C 0 km/h
1982 20-09-2010 12:29:03 16.1 C 6.31 g/m*3 16.1 C 0 km/h
1983 20-09-2010 12:41:02 16.4 C 6.42 g/m*3 16.4 C 0 km/h
1984 20-09-2010 12:53:02 16.8 C 6.15 g/m*3 16.8 C 0 km/h
1985 20-09-2010 13:05:01 17.1 C 6.11 g/m*3 17.1 C 0 km/h
1986 20-09-2010 13:17:02 17.5 C 6.26 g/m*3 17.5 C 0 km/h
1987 20-09-2010 13:29:02 18.1 C 6.33 g/m*3 18.1 C 0 km/h
1988 20-09-2010 13:41:02 18.5 C 6.01 g/m*3 18.5 C 0 km/h
1989 20-09-2010 13:53:02 18.9 C 5.83 g/m*3 18.9 C 0 km/h
1990 20-09-2010 14:05:03 19.5 C 6.04 g/m*3 19.5 C 0 km/h
1991 20-09-2010 14:17:02 19.7 C 5.94 g/m*3 19.7 C 0 km/h
1992 20-09-2010 14:29:02 20.1 C 5.91 g/m*3 20.1 C 0 km/h
1993 20-09-2010 14:41:02 20.5 C 5.69 g/m*3 20.5 C 0 km/h
1994 20-09-2010 14:53:01 20.3 C 5.45 g/m*3 20.3 C 0 km/h
1995 20-09-2010 15:05:02 20.8 C 5.79 g/m*3 20.8 C 0 km/h
1996 20-09-2010 15:17:01 21.4 C 5.81 g/m*3 21.4 C 0 km/h
1997 20-09-2010 15:29:01 21.5 C 5.85 g/m*3 21.5 C 0 km/h
1998 20-09-2010 15:41:01 21.6 C 5.88 g/m*3 21.6 C 0 km/h
1999 20-09-2010 15:53:01 21.8 C 5.95 g/m*3 21.8 C 0 km/h
2000 20-09-2010 16:05:01 22.2 C 6.48 g/m*3 22.2 C 0 km/h
Sensor: Nr:Datum:Temp:Abs-Feuchte:Windchill:Wind:
Aussen-T/F 2001 20-09-2010 16:17:02 22.6 C 6.23 g/m*3 22.6 C 0 km/h
2002 20-09-2010 16:29:02 22.8 C 6.1 g/m*3 22.8 C 0 km/h
2003 20-09-2010 16:41:01 22.6 C 6.23 g/m*3 22.6 C 0 km/h
2004 20-09-2010 16:53:01 22.1 C 6.05 g/m*3 22.1 C 0 km/h
2005 20-09-2010 17:05:01 22.2 C 6.28 g/m*3 22.2 C 0 km/h
2006 20-09-2010 17:17:02 22.1 C 5.86 g/m*3 22.1 C 0 km/h
2007 20-09-2010 17:29:02 22.3 C 6.32 g/m*3 22.3 C 0 km/h
2008 20-09-2010 17:41:01 22.1 C 5.86 g/m*3 22.1 C 0 km/h
2009 20-09-2010 17:53:02 22.7 C 6.26 g/m*3 22.7 C 0 km/h
2010 20-09-2010 18:05:02 22.7 C 6.47 g/m*3 22.7 C 0 km/h
2011 20-09-2010 18:17:02 22.2 C 6.28 g/m*3 22.2 C 0 km/h
2012 20-09-2010 18:29:02 21.6 C 6.64 g/m*3 21.6 C 0 km/h
2013 20-09-2010 18:41:02 20.6 C 6.8 g/m*3 20.6 C 0 km/h
2014 20-09-2010 18:53:02 19.4 C 7.01 g/m*3 19.4 C 0 km/h
2015 20-09-2010 19:05:01 18.9 C 6.97 g/m*3 18.9 C 0 km/h
2016 20-09-2010 19:17:01 18.1 C 7.11 g/m*3 18.1 C 0 km/h
2017 20-09-2010 19:29:01 17.5 C 7.31 g/m*3 17.5 C 0 km/h
2018 20-09-2010 19:41:02 16.8 C 7.29 g/m*3 16.8 C 0 km/h
2019 20-09-2010 19:53:02 16.2 C 7.17 g/m*3 16.2 C 0 km/h
2020 20-09-2010 20:05:02 15.9 C 7.31 g/m*3 15.9 C 0 km/h
2021 20-09-2010 20:17:02 15.6 C 7.45 g/m*3 15.6 C 0 km/h
2022 20-09-2010 20:29:02 15.3 C 7.57 g/m*3 15.3 C 0 km/h
2023 20-09-2010 20:41:02 15.1 C 7.74 g/m*3 15.1 C 0 km/h
2024 20-09-2010 20:53:02 14.8 C 7.6 g/m*3 14.8 C 0 km/h
2025 20-09-2010 21:05:02 14.7 C 7.68 g/m*3 14.7 C 0 km/h
Sensor: Nr:Datum:Temp:Abs-Feuchte:Windchill:Wind:
Aussen-T/F 2026 20-09-2010 21:17:02 14.4 C 7.66 g/m*3 14.4 C 0 km/h
2027 20-09-2010 21:29:02 14.2 C 7.69 g/m*3 14.2 C 0 km/h
2028 20-09-2010 21:41:02 14 C 7.72 g/m*3 14 C 0 km/h
2029 20-09-2010 21:53:02 13.7 C 7.82 g/m*3 13.7 C 0 km/h
2030 20-09-2010 22:06:02 13.6 C 8 g/m*3 13.6 C 0 km/h
2031 20-09-2010 22:18:02 13.5 C 7.95 g/m*3 13.5 C 0 km/h
2032 20-09-2010 22:30:02 13.5 C 8.07 g/m*3 13.5 C 0 km/h
2033 20-09-2010 22:42:02 12.9 C 8.11 g/m*3 12.9 C 0 km/h
2034 20-09-2010 22:54:02 12.6 C 8.19 g/m*3 12.6 C 0 km/h
2035 20-09-2010 23:06:02 12.6 C 8.19 g/m*3 12.6 C 0 km/h
2036 20-09-2010 23:18:02 12.5 C 8.14 g/m*3 12.5 C 0 km/h
2037 20-09-2010 23:30:02 12.3 C 8.04 g/m*3 12.3 C 0 km/h
2038 20-09-2010 23:42:02 12.1 C 7.94 g/m*3 12.1 C 0 km/h
2039 20-09-2010 23:54:02 11.9 C 7.94 g/m*3 11.9 C 0 km/h
2040 21-09-2010 00:06:03 11.8 C 7.89 g/m*3 11.8 C 0 km/h
2041 21-09-2010 00:18:03 11.6 C 7.9 g/m*3 11.6 C 0 km/h
2042 21-09-2010 00:30:03 11.5 C 7.85 g/m*3 11.5 C 0 km/h
2043 21-09-2010 00:42:03 11.4 C 7.9 g/m*3 11.4 C 0 km/h
2044 21-09-2010 00:54:03 11.3 C 7.85 g/m*3 11.3 C 0 km/h
2045 21-09-2010 01:06:03 11.2 C 7.8 g/m*3 11.2 C 0 km/h
2046 21-09-2010 01:18:03 11.1 C 7.86 g/m*3 11.1 C 0 km/h
2047 21-09-2010 01:30:03 10.9 C 7.86 g/m*3 10.9 C 0 km/h
2048 21-09-2010 01:42:03 10.8 C 7.81 g/m*3 10.8 C 0 km/h
2049 21-09-2010 01:54:03 10.5 C 7.66 g/m*3 10.5 C 0 km/h
2050 21-09-2010 02:06:03 10.4 C 7.71 g/m*3 10.4 C 0 km/h
Sensor: Nr:Datum:Temp:Abs-Feuchte:Windchill:Wind:
Aussen-T/F 2051 21-09-2010 02:18:03 10.4 C 7.71 g/m*3 10.4 C 0 km/h
2052 21-09-2010 02:30:03 10.3 C 7.76 g/m*3 10.3 C 0 km/h
2053 21-09-2010 02:42:03 10.1 C 7.66 g/m*3 10.1 C 0 km/h
2054 21-09-2010 02:54:03 10 C 7.61 g/m*3 10 C 0 km/h
2055 21-09-2010 03:06:03 10 C 7.71 g/m*3 10 C 0 km/h
2056 21-09-2010 03:18:03 9.9 C 7.75 g/m*3 9.9 C 0 km/h
2057 21-09-2010 03:30:03 9.8 C 7.79 g/m*3 9.8 C 0 km/h
2058 21-09-2010 03:42:03 9.5 C 7.65 g/m*3 9.5 C 0 km/h
2059 21-09-2010 03:54:03 9.5 C 7.65 g/m*3 9.5 C 0 km/h
2060 21-09-2010 04:06:04 9.4 C 7.6 g/m*3 9.4 C 0 km/h
2061 21-09-2010 04:18:04 9.3 C 7.55 g/m*3 9.3 C 0 km/h
2062 21-09-2010 04:30:04 9.2 C 7.5 g/m*3 9.2 C 0 km/h
2063 21-09-2010 04:42:04 9.2 C 7.5 g/m*3 9.2 C 0 km/h
2064 21-09-2010 04:54:04 9 C 7.41 g/m*3 9 C 0 km/h
2065 21-09-2010 05:06:04 9 C 7.49 g/m*3 9 C 0 km/h
2066 21-09-2010 05:18:04 8.8 C 7.49 g/m*3 8.8 C 0 km/h
2067 21-09-2010 05:30:04 8.8 C 7.49 g/m*3 8.8 C 0 km/h
2068 21-09-2010 05:42:04 8.7 C 7.44 g/m*3 8.7 C 0 km/h
2069 21-09-2010 05:54:04 8.6 C 7.39 g/m*3 8.6 C 0 km/h
2070 21-09-2010 06:06:04 8.5 C 7.43 g/m*3 8.5 C 0 km/h
2071 21-09-2010 06:18:04 8.4 C 7.38 g/m*3 8.4 C 0 km/h
2072 21-09-2010 06:30:04 8.3 C 7.33 g/m*3 8.3 C 0 km/h
2073 21-09-2010 06:42:04 8.2 C 7.29 g/m*3 8.2 C 0 km/h
2074 21-09-2010 06:54:04 8.3 C 7.42 g/m*3 8.3 C 0 km/h
2075 21-09-2010 07:06:02 8.2 C 7.37 g/m*3 8.2 C 0 km/h
Sensor: Nr:Datum:Temp:Abs-Feuchte:Windchill:Wind:
Aussen-T/F 2076 21-09-2010 07:18:02 8.2 C 7.37 g/m*3 8.2 C 0 km/h
2077 21-09-2010 07:30:02 8.1 C 7.32 g/m*3 8.1 C 0 km/h
2078 21-09-2010 07:42:03 8.1 C 7.32 g/m*3 8.1 C 0 km/h
2079 21-09-2010 07:54:02 8.1 C 7.32 g/m*3 8.1 C 0 km/h
2080 21-09-2010 08:06:01 8 C 7.36 g/m*3 8 C 0 km/h
2081 21-09-2010 08:18:02 8.1 C 7.41 g/m*3 8.1 C 0 km/h
2082 21-09-2010 08:30:02 8.2 C 7.54 g/m*3 8.2 C 0 km/h
2083 21-09-2010 08:42:02 8.4 C 7.63 g/m*3 8.4 C 0 km/h
2084 21-09-2010 08:54:02 8.6 C 7.73 g/m*3 8.6 C 0 km/h
2085 21-09-2010 09:06:02 8.7 C 7.78 g/m*3 8.7 C 0 km/h
2086 21-09-2010 09:18:02 8.9 C 7.88 g/m*3 8.9 C 0 km/h
2087 21-09-2010 09:30:02 9.3 C 8 g/m*3 9.3 C 0 km/h
2088 21-09-2010 09:42:02 9.5 C 8.1 g/m*3 9.5 C 0 km/h
2089 21-09-2010 09:54:01 9.5 C 8.1 g/m*3 9.5 C 0 km/h
2090 21-09-2010 10:06:02 9.9 C 8.31 g/m*3 9.9 C 0 km/h
2091 21-09-2010 10:18:01 10.5 C 8.53 g/m*3 10.5 C 0 km/h
2092 21-09-2010 10:30:01 11.1 C 8.76 g/m*3 11.1 C 0 km/h
2093 21-09-2010 10:42:01 11.7 C 8.99 g/m*3 11.7 C 0 km/h
2094 21-09-2010 10:54:01 12.4 C 8.96 g/m*3 12.4 C 0 km/h
2095 21-09-2010 11:06:01 13 C 8.51 g/m*3 13 C 0 km/h
2096 21-09-2010 11:18:02 13.6 C 8.59 g/m*3 13.6 C 0 km/h
2097 21-09-2010 11:30:02 14 C 8.56 g/m*3 14 C 0 km/h
2098 21-09-2010 11:42:01 14.7 C 8.81 g/m*3 14.7 C 0 km/h
2099 21-09-2010 11:54:03 15.3 C 8.75 g/m*3 15.3 C 0 km/h
2100 21-09-2010 12:06:02 15.8 C 8.75 g/m*3 15.8 C 0 km/h
Sensor: Nr:Datum:Temp:Abs-Feuchte:Windchill:Wind:
Aussen-T/F 2101 21-09-2010 12:18:02 16.5 C 8.85 g/m*3 16.5 C 0 km/h
2102 21-09-2010 12:30:03 16.5 C 9.13 g/m*3 16.5 C 0 km/h
2103 21-09-2010 12:42:02 16 C 8.86 g/m*3 16 C 0 km/h
2104 21-09-2010 12:54:02 15.9 C 9.34 g/m*3 15.9 C 0 km/h
2105 21-09-2010 13:06:02 16.4 C 9.77 g/m*3 16.4 C 0 km/h
2106 21-09-2010 13:18:02 16.6 C 9.46 g/m*3 16.6 C 0 km/h
2107 21-09-2010 13:30:02 16.8 C 9.72 g/m*3 16.8 C 0 km/h
2108 21-09-2010 13:42:02 17.3 C 9.87 g/m*3 17.3 C 0 km/h
2109 21-09-2010 13:54:02 18 C 9.37 g/m*3 18 C 0 km/h
2110 21-09-2010 14:06:02 17.5 C 9.54 g/m*3 17.5 C 0 km/h
2111 21-09-2010 14:18:01 17.4 C 9.63 g/m*3 17.4 C 0 km/h
2112 21-09-2010 14:30:01 17.2 C 9.52 g/m*3 17.2 C 0 km/h
2113 21-09-2010 14:42:02 17.5 C 9.54 g/m*3 17.5 C 0 km/h
2114 21-09-2010 14:54:02 19.5 C 9.06 g/m*3 19.5 C 0 km/h
2115 21-09-2010 15:06:02 21.3 C 8.76 g/m*3 21.3 C 0 km/h
2116 21-09-2010 15:18:02 22.6 C 8.44 g/m*3 22.6 C 0 km/h
2117 21-09-2010 15:30:02 23.3 C 7.95 g/m*3 23.3 C 0 km/h
2118 21-09-2010 15:42:02 23.9 C 7.79 g/m*3 23.9 C 0 km/h
2119 21-09-2010 15:54:02 24.5 C 7.83 g/m*3 24.5 C 0 km/h
2120 21-09-2010 16:06:02 25 C 7.6 g/m*3 25 C 0 km/h
2121 21-09-2010 16:18:02 25.2 C 7.45 g/m*3 25.2 C 0 km/h
2122 21-09-2010 16:30:02 25.2 C 7.68 g/m*3 25.2 C 0 km/h
2123 21-09-2010 16:42:02 25.1 C 7.87 g/m*3 25.1 C 0 km/h
2124 21-09-2010 16:54:02 25.3 C 7.49 g/m*3 25.3 C 0 km/h
2125 21-09-2010 17:06:02 25.4 C 7.53 g/m*3 25.4 C 0 km/h
Sensor: Nr:Datum:Temp:Abs-Feuchte:Windchill:Wind:
Aussen-T/F 2126 21-09-2010 17:18:02 25.5 C 7.81 g/m*3 25.5 C 0 km/h
2127 21-09-2010 17:30:02 24.5 C 7.39 g/m*3 24.5 C 0 km/h
2128 21-09-2010 17:42:02 24.1 C 7.44 g/m*3 24.1 C 0 km/h
2129 21-09-2010 17:54:02 23.5 C 7.61 g/m*3 23.5 C 0 km/h
2130 21-09-2010 18:06:02 23.2 C 7.69 g/m*3 23.2 C 0 km/h
2131 21-09-2010 18:18:02 22.7 C 7.88 g/m*3 22.7 C 0 km/h
2132 21-09-2010 18:30:02 22.2 C 7.85 g/m*3 22.2 C 0 km/h
2133 21-09-2010 18:42:02 21.7 C 8.01 g/m*3 21.7 C 0 km/h
2134 21-09-2010 18:54:02 21.1 C 7.92 g/m*3 21.1 C 0 km/h
2135 21-09-2010 19:06:01 20.2 C 8.04 g/m*3 20.2 C 0 km/h
2136 21-09-2010 19:18:02 19.5 C 8.22 g/m*3 19.5 C 0 km/h
2137 21-09-2010 19:30:02 18.5 C 8.39 g/m*3 18.5 C 0 km/h
2138 21-09-2010 19:42:02 17.8 C 8.5 g/m*3 17.8 C 0 km/h
2139 21-09-2010 19:54:02 17.2 C 8.49 g/m*3 17.2 C 0 km/h
2140 21-09-2010 20:06:03 16.8 C 8.58 g/m*3 16.8 C 0 km/h
2141 21-09-2010 20:18:02 16.5 C 8.43 g/m*3 16.5 C 0 km/h
2142 21-09-2010 20:30:02 16.3 C 8.46 g/m*3 16.3 C 0 km/h
2143 21-09-2010 20:42:02 16.1 C 8.5 g/m*3 16.1 C 0 km/h
2144 21-09-2010 20:54:02 15.8 C 8.62 g/m*3 15.8 C 0 km/h
2145 21-09-2010 21:06:02 15.6 C 8.51 g/m*3 15.6 C 0 km/h
2146 21-09-2010 21:18:01 15.4 C 8.41 g/m*3 15.4 C 0 km/h
2147 21-09-2010 21:30:01 15.1 C 8.51 g/m*3 15.1 C 0 km/h
2148 21-09-2010 21:42:02 14.7 C 8.56 g/m*3 14.7 C 0 km/h
2149 21-09-2010 21:54:02 14.5 C 8.46 g/m*3 14.5 C 0 km/h
2150 21-09-2010 22:06:02 14.4 C 8.53 g/m*3 14.4 C 0 km/h
Sensor: Nr:Datum:Temp:Abs-Feuchte:Windchill:Wind:
Aussen-T/F 2151 21-09-2010 22:18:01 14.1 C 8.5 g/m*3 14.1 C 0 km/h
2152 21-09-2010 22:30:01 13.9 C 8.51 g/m*3 13.9 C 0 km/h
2153 21-09-2010 22:42:01 13.6 C 8.47 g/m*3 13.6 C 0 km/h
2154 21-09-2010 22:54:01 13.5 C 8.54 g/m*3 13.5 C 0 km/h
2155 21-09-2010 23:06:01 13.2 C 8.38 g/m*3 13.2 C 0 km/h
2156 21-09-2010 23:18:01 13.1 C 8.44 g/m*3 13.1 C 0 km/h
2157 21-09-2010 23:30:01 13 C 8.51 g/m*3 13 C 0 km/h
2158 21-09-2010 23:42:01 12.9 C 8.68 g/m*3 12.9 C 0 km/h
2159 21-09-2010 23:54:01 12.7 C 8.68 g/m*3 12.7 C 0 km/h
2160 22-09-2010 00:06:01 12.5 C 8.69 g/m*3 12.5 C 0 km/h
2161 22-09-2010 00:18:01 12.3 C 8.58 g/m*3 12.3 C 0 km/h
2162 22-09-2010 00:30:01 12.2 C 8.52 g/m*3 12.2 C 0 km/h
2163 22-09-2010 00:42:01 12.1 C 8.47 g/m*3 12.1 C 0 km/h
2164 22-09-2010 00:54:01 11.9 C 8.47 g/m*3 11.9 C 0 km/h
2165 22-09-2010 01:06:02 11.8 C 8.53 g/m*3 11.8 C 0 km/h
2166 22-09-2010 01:18:02 11.6 C 8.42 g/m*3 11.6 C 0 km/h
2167 22-09-2010 01:30:02 11.5 C 8.47 g/m*3 11.5 C 0 km/h
2168 22-09-2010 01:42:02 11.3 C 8.26 g/m*3 11.3 C 0 km/h
2169 22-09-2010 01:54:02 11.3 C 8.36 g/m*3 11.3 C 0 km/h
2170 22-09-2010 02:06:02 11 C 8.21 g/m*3 11 C 0 km/h
2171 22-09-2010 02:18:02 10.9 C 8.16 g/m*3 10.9 C 0 km/h
2172 22-09-2010 02:30:02 10.8 C 8.2 g/m*3 10.8 C 0 km/h
2173 22-09-2010 02:42:02 10.7 C 8.15 g/m*3 10.7 C 0 km/h
2174 22-09-2010 02:54:02 10.5 C 8.05 g/m*3 10.5 C 0 km/h
2175 22-09-2010 03:06:02 10.4 C 8 g/m*3 10.4 C 0 km/h
Sensor: Nr:Datum:Temp:Abs-Feuchte:Windchill:Wind:
Aussen-T/F 2176 22-09-2010 03:18:02 10.4 C 8 g/m*3 10.4 C 0 km/h
2177 22-09-2010 03:30:02 10.3 C 8.04 g/m*3 10.3 C 0 km/h
2178 22-09-2010 03:42:02 10.1 C 7.94 g/m*3 10.1 C 0 km/h
2179 22-09-2010 03:54:02 9.9 C 8.03 g/m*3 9.9 C 0 km/h
2180 22-09-2010 04:06:02 9.9 C 8.03 g/m*3 9.9 C 0 km/h
2181 22-09-2010 04:18:02 9.7 C 7.93 g/m*3 9.7 C 0 km/h
2182 22-09-2010 04:30:02 9.6 C 7.79 g/m*3 9.6 C 0 km/h
2183 22-09-2010 04:42:02 9.6 C 7.88 g/m*3 9.6 C 0 km/h
2184 22-09-2010 04:54:02 9.8 C 8.07 g/m*3 9.8 C 0 km/h
2185 22-09-2010 05:06:02 9.8 C 8.07 g/m*3 9.8 C 0 km/h
2186 22-09-2010 05:18:02 9.9 C 8.22 g/m*3 9.9 C 0 km/h
2187 22-09-2010 05:30:03 9.9 C 8.22 g/m*3 9.9 C 0 km/h
2188 22-09-2010 05:42:03 9.9 C 8.22 g/m*3 9.9 C 0 km/h
2189 22-09-2010 05:54:03 9.7 C 8.02 g/m*3 9.7 C 0 km/h
2190 22-09-2010 06:06:03 9.8 C 8.16 g/m*3 9.8 C 0 km/h
2191 22-09-2010 06:18:03 9.8 C 8.16 g/m*3 9.8 C 0 km/h
2192 22-09-2010 06:30:03 9.8 C 8.16 g/m*3 9.8 C 0 km/h
2193 22-09-2010 06:42:03 9.7 C 8.11 g/m*3 9.7 C 0 km/h
2194 22-09-2010 06:54:03 9.8 C 8.16 g/m*3 9.8 C 0 km/h
2195 22-09-2010 07:06:01 9.8 C 8.16 g/m*3 9.8 C 0 km/h
2196 22-09-2010 07:18:02 9.8 C 8.16 g/m*3 9.8 C 0 km/h
2197 22-09-2010 07:30:02 9.6 C 8.06 g/m*3 9.6 C 0 km/h
2198 22-09-2010 07:42:01 9.3 C 7.91 g/m*3 9.3 C 0 km/h
2199 22-09-2010 07:54:01 9.3 C 7.91 g/m*3 9.3 C 0 km/h
2200 22-09-2010 08:06:01 9.3 C 7.91 g/m*3 9.3 C 0 km/h
Sensor: Nr:Datum:Temp:Abs-Feuchte:Windchill:Wind:
Aussen-T/F 2201 22-09-2010 08:18:02 9.3 C 7.91 g/m*3 9.3 C 0 km/h
2202 22-09-2010 08:30:02 9.6 C 8.15 g/m*3 9.6 C 0 km/h
2203 22-09-2010 08:42:01 9.3 C 7.91 g/m*3 9.3 C 0 km/h
2204 22-09-2010 08:54:02 9.3 C 7.91 g/m*3 9.3 C 0 km/h
2205 22-09-2010 09:06:01 9.6 C 8.06 g/m*3 9.6 C 0 km/h
2206 22-09-2010 09:18:02 9.8 C 8.16 g/m*3 9.8 C 0 km/h
2207 22-09-2010 09:30:02 10.2 C 8.09 g/m*3 10.2 C 0 km/h
2208 22-09-2010 09:42:01 10.3 C 8.04 g/m*3 10.3 C 0 km/h
2209 22-09-2010 09:54:02 11 C 8.41 g/m*3 11 C 0 km/h
2210 22-09-2010 10:06:01 11.8 C 8.63 g/m*3 11.8 C 0 km/h
2211 22-09-2010 10:18:01 12.4 C 8.74 g/m*3 12.4 C 0 km/h
2212 22-09-2010 10:30:01 12 C 8.31 g/m*3 12 C 0 km/h
2213 22-09-2010 10:42:02 12.7 C 8.79 g/m*3 12.7 C 0 km/h
2214 22-09-2010 10:54:01 13.2 C 8.73 g/m*3 13.2 C 0 km/h
2215 22-09-2010 11:06:02 12.9 C 8.68 g/m*3 12.9 C 0 km/h
2216 22-09-2010 11:18:01 13.1 C 8.9 g/m*3 13.1 C 0 km/h
2217 22-09-2010 11:30:01 13.6 C 9.3 g/m*3 13.6 C 0 km/h
2218 22-09-2010 11:42:02 14.2 C 9.52 g/m*3 14.2 C 0 km/h
2219 22-09-2010 11:54:01 15.1 C 9.55 g/m*3 15.1 C 0 km/h
2220 22-09-2010 12:06:02 15.6 C 9.71 g/m*3 15.6 C 0 km/h
2221 22-09-2010 12:18:01 16 C 9.67 g/m*3 16 C 0 km/h
2222 22-09-2010 12:30:01 16.5 C 9.97 g/m*3 16.5 C 0 km/h
2223 22-09-2010 12:42:01 17.1 C 10.19 g/m*3 17.1 C 0 km/h
2224 22-09-2010 12:54:01 17.5 C 10.29 g/m*3 17.5 C 0 km/h
2225 22-09-2010 13:06:01 18.4 C 9.91 g/m*3 18.4 C 0 km/h
Sensor: Nr:Datum:Temp:Abs-Feuchte:Windchill:Wind:
Aussen-T/F 2226 22-09-2010 13:18:02 19.1 C 9.84 g/m*3 19.1 C 0 km/h
2227 22-09-2010 13:30:02 19.7 C 10.19 g/m*3 19.7 C 0 km/h
2228 22-09-2010 13:42:01 20.4 C 10.26 g/m*3 20.4 C 0 km/h
2229 22-09-2010 13:54:01 21.2 C 10.19 g/m*3 21.2 C 0 km/h
2230 22-09-2010 14:06:01 21.8 C 10.36 g/m*3 21.8 C 0 km/h
2231 22-09-2010 14:18:02 22.2 C 10.01 g/m*3 22.2 C 0 km/h
2232 22-09-2010 14:30:02 22.9 C 10.22 g/m*3 22.9 C 0 km/h
2233 22-09-2010 14:42:01 23.4 C 9.88 g/m*3 23.4 C 0 km/h
2234 22-09-2010 14:54:02 24 C 9.79 g/m*3 24 C 0 km/h
2235 22-09-2010 15:06:01 24.2 C 9.9 g/m*3 24.2 C 0 km/h
2236 22-09-2010 15:18:01 24.1 C 9.63 g/m*3 24.1 C 0 km/h
2237 22-09-2010 15:30:01 24.9 C 9.61 g/m*3 24.9 C 0 km/h
2238 22-09-2010 15:42:01 25.6 C 8.81 g/m*3 25.6 C 0 km/h
2239 22-09-2010 15:54:01 26.5 C 8.26 g/m*3 26.5 C 0 km/h
2240 22-09-2010 16:06:01 26.9 C 8.7 g/m*3 26.9 C 0 km/h
2241 22-09-2010 16:18:01 27.1 C 8.8 g/m*3 27.1 C 0 km/h
2242 22-09-2010 16:30:01 27.4 C 8.68 g/m*3 27.4 C 0 km/h
2243 22-09-2010 16:42:02 27.6 C 8.51 g/m*3 27.6 C 0 km/h
2244 22-09-2010 16:54:01 27.6 C 8.25 g/m*3 27.6 C 0 km/h
2245 22-09-2010 17:06:02 27.3 C 7.85 g/m*3 27.3 C 0 km/h
2246 22-09-2010 17:18:01 27.4 C 8.16 g/m*3 27.4 C 0 km/h
2247 22-09-2010 17:30:01 27.2 C 8.07 g/m*3 27.2 C 0 km/h
2248 22-09-2010 17:42:01 26.9 C 7.93 g/m*3 26.9 C 0 km/h
2249 22-09-2010 17:54:01 26.5 C 8.76 g/m*3 26.5 C 0 km/h
2250 22-09-2010 18:06:02 26.1 C 8.81 g/m*3 26.1 C 0 km/h
Sensor: Nr:Datum:Temp:Abs-Feuchte:Windchill:Wind:
Aussen-T/F 2251 22-09-2010 18:18:01 25.6 C 9.05 g/m*3 25.6 C 0 km/h
2252 22-09-2010 18:30:01 25.3 C 9.36 g/m*3 25.3 C 0 km/h
2253 22-09-2010 18:42:01 24.1 C 8.97 g/m*3 24.1 C 0 km/h
2254 22-09-2010 18:54:01 23.3 C 9.2 g/m*3 23.3 C 0 km/h
2255 22-09-2010 19:06:01 22.5 C 9.19 g/m*3 22.5 C 0 km/h
2256 22-09-2010 19:18:02 21.8 C 9.4 g/m*3 21.8 C 0 km/h
2257 22-09-2010 19:30:02 20.6 C 9.31 g/m*3 20.6 C 0 km/h
2258 22-09-2010 19:42:01 20 C 8.99 g/m*3 20 C 0 km/h
2259 22-09-2010 19:54:01 19.5 C 9.06 g/m*3 19.5 C 0 km/h
2260 22-09-2010 20:06:01 19 C 9.13 g/m*3 19 C 0 km/h
2261 22-09-2010 20:18:02 18.7 C 9.13 g/m*3 18.7 C 0 km/h
2262 22-09-2010 20:30:02 18.5 C 9.02 g/m*3 18.5 C 0 km/h
2263 22-09-2010 20:42:01 18.4 C 9.12 g/m*3 18.4 C 0 km/h
2264 22-09-2010 20:54:02 18.1 C 9.12 g/m*3 18.1 C 0 km/h
2265 22-09-2010 21:06:01 17.9 C 9.31 g/m*3 17.9 C 0 km/h
2266 22-09-2010 21:18:01 17.6 C 9.45 g/m*3 17.6 C 0 km/h
2267 22-09-2010 21:30:01 17.5 C 9.24 g/m*3 17.5 C 0 km/h
2268 22-09-2010 21:42:01 17.3 C 9.28 g/m*3 17.3 C 0 km/h
2269 22-09-2010 21:54:01 17 C 9.26 g/m*3 17 C 0 km/h
2270 22-09-2010 22:08:02 16.8 C 9.29 g/m*3 16.8 C 0 km/h
2271 22-09-2010 22:20:02 16.4 C 9.35 g/m*3 16.4 C 0 km/h
2272 22-09-2010 22:32:02 16.1 C 9.32 g/m*3 16.1 C 0 km/h
2273 22-09-2010 22:44:02 15.9 C 9.21 g/m*3 15.9 C 0 km/h
2274 22-09-2010 22:56:02 15.7 C 9.1 g/m*3 15.7 C 0 km/h
2275 22-09-2010 23:08:02 15.4 C 8.8 g/m*3 15.4 C 0 km/h
Sensor: Nr:Datum:Temp:Abs-Feuchte:Windchill:Wind:
Aussen-T/F 2276 22-09-2010 23:20:02 15.1 C 8.77 g/m*3 15.1 C 0 km/h
2277 22-09-2010 23:32:02 14.9 C 8.79 g/m*3 14.9 C 0 km/h
2278 22-09-2010 23:44:02 14.7 C 8.81 g/m*3 14.7 C 0 km/h
2279 22-09-2010 23:56:02 14.5 C 8.71 g/m*3 14.5 C 0 km/h
2280 23-09-2010 00:08:02 14.4 C 8.53 g/m*3 14.4 C 0 km/h
2281 23-09-2010 00:20:02 14.2 C 8.67 g/m*3 14.2 C 0 km/h
2282 23-09-2010 00:32:02 14 C 8.56 g/m*3 14 C 0 km/h
2283 23-09-2010 00:44:02 13.8 C 8.7 g/m*3 13.8 C 0 km/h
2284 23-09-2010 00:56:02 13.7 C 8.76 g/m*3 13.7 C 0 km/h
2285 23-09-2010 01:08:02 13.5 C 8.77 g/m*3 13.5 C 0 km/h
2286 23-09-2010 01:20:02 13.4 C 8.72 g/m*3 13.4 C 0 km/h
2287 23-09-2010 01:32:02 13.2 C 8.73 g/m*3 13.2 C 0 km/h
2288 23-09-2010 01:44:02 13.1 C 8.67 g/m*3 13.1 C 0 km/h
2289 23-09-2010 01:56:03 12.9 C 8.68 g/m*3 12.9 C 0 km/h
2290 23-09-2010 02:08:03 12.8 C 8.74 g/m*3 12.8 C 0 km/h
2291 23-09-2010 02:20:03 12.6 C 8.74 g/m*3 12.6 C 0 km/h
2292 23-09-2010 02:32:03 12.4 C 8.74 g/m*3 12.4 C 0 km/h
2293 23-09-2010 02:44:03 12.3 C 8.69 g/m*3 12.3 C 0 km/h
2294 23-09-2010 02:56:03 12.1 C 8.58 g/m*3 12.1 C 0 km/h
2295 23-09-2010 03:08:03 12 C 8.53 g/m*3 12 C 0 km/h
2296 23-09-2010 03:20:03 11.8 C 8.53 g/m*3 11.8 C 0 km/h
2297 23-09-2010 03:32:03 11.8 C 8.53 g/m*3 11.8 C 0 km/h
2298 23-09-2010 03:44:03 11.8 C 8.63 g/m*3 11.8 C 0 km/h
2299 23-09-2010 03:56:03 11.6 C 8.63 g/m*3 11.6 C 0 km/h
2300 23-09-2010 04:08:03 11.4 C 8.52 g/m*3 11.4 C 0 km/h
Sensor: Nr:Datum:Temp:Abs-Feuchte:Windchill:Wind:
Aussen-T/F 2301 23-09-2010 04:20:03 11.2 C 8.41 g/m*3 11.2 C 0 km/h
2302 23-09-2010 04:32:03 11.2 C 8.41 g/m*3 11.2 C 0 km/h
2303 23-09-2010 04:44:03 11 C 8.31 g/m*3 11 C 0 km/h
2304 23-09-2010 04:56:03 11 C 8.31 g/m*3 11 C 0 km/h
2305 23-09-2010 05:08:03 10.9 C 8.36 g/m*3 10.9 C 0 km/h
2306 23-09-2010 05:20:03 10.7 C 8.25 g/m*3 10.7 C 0 km/h
2307 23-09-2010 05:32:03 10.6 C 8.2 g/m*3 10.6 C 0 km/h
2308 23-09-2010 05:44:03 10.5 C 8.15 g/m*3 10.5 C 0 km/h
2309 23-09-2010 05:56:03 10.5 C 8.15 g/m*3 10.5 C 0 km/h
2310 23-09-2010 06:08:03 10.4 C 8.1 g/m*3 10.4 C 0 km/h
2311 23-09-2010 06:20:04 10.5 C 8.24 g/m*3 10.5 C 0 km/h
2312 23-09-2010 06:32:04 10.6 C 8.3 g/m*3 10.6 C 0 km/h
2313 23-09-2010 06:44:04 10.4 C 8.19 g/m*3 10.4 C 0 km/h
2314 23-09-2010 06:56:04 10.4 C 8.19 g/m*3 10.4 C 0 km/h
2315 23-09-2010 07:08:02 10.5 C 8.24 g/m*3 10.5 C 0 km/h
2316 23-09-2010 07:20:01 10.4 C 8.19 g/m*3 10.4 C 0 km/h
2317 23-09-2010 07:32:02 10.5 C 8.24 g/m*3 10.5 C 0 km/h
2318 23-09-2010 07:44:02 10.6 C 8.3 g/m*3 10.6 C 0 km/h
2319 23-09-2010 07:56:02 10.6 C 8.3 g/m*3 10.6 C 0 km/h
2320 23-09-2010 08:08:02 10.6 C 8.3 g/m*3 10.6 C 0 km/h
2321 23-09-2010 08:20:01 10.7 C 8.35 g/m*3 10.7 C 0 km/h
2322 23-09-2010 08:32:02 10.8 C 8.4 g/m*3 10.8 C 0 km/h
2323 23-09-2010 08:44:02 11 C 8.51 g/m*3 11 C 0 km/h
2324 23-09-2010 08:56:02 11.3 C 8.57 g/m*3 11.3 C 0 km/h
2325 23-09-2010 09:08:01 11.4 C 8.52 g/m*3 11.4 C 0 km/h
Sensor: Nr:Datum:Temp:Abs-Feuchte:Windchill:Wind:
Aussen-T/F 2326 23-09-2010 09:20:01 11.4 C 8.52 g/m*3 11.4 C 0 km/h
2327 23-09-2010 09:32:02 11.4 C 8.52 g/m*3 11.4 C 0 km/h
2328 23-09-2010 09:44:02 11.7 C 8.79 g/m*3 11.7 C 0 km/h
2329 23-09-2010 09:56:02 12.3 C 8.9 g/m*3 12.3 C 0 km/h
2330 23-09-2010 10:08:02 12.4 C 8.96 g/m*3 12.4 C 0 km/h
2331 23-09-2010 10:20:02 12.5 C 9.02 g/m*3 12.5 C 0 km/h
2332 23-09-2010 10:32:02 12.9 C 9.24 g/m*3 12.9 C 0 km/h
2333 23-09-2010 10:44:02 13.3 C 9.36 g/m*3 13.3 C 0 km/h
2334 23-09-2010 10:56:02 13.8 C 9.65 g/m*3 13.8 C 0 km/h
2335 23-09-2010 11:08:02 14.1 C 9.71 g/m*3 14.1 C 0 km/h
2336 23-09-2010 11:20:02 15 C 10 g/m*3 15 C 0 km/h
2337 23-09-2010 11:32:02 15.8 C 10.23 g/m*3 15.8 C 0 km/h
2338 23-09-2010 11:44:02 16.3 C 10.13 g/m*3 16.3 C 0 km/h
2339 23-09-2010 11:56:02 17 C 10.27 g/m*3 17 C 0 km/h
2340 23-09-2010 12:08:02 17.5 C 10.44 g/m*3 17.5 C 0 km/h
2341 23-09-2010 12:20:02 18 C 10.44 g/m*3 18 C 0 km/h
2342 23-09-2010 12:32:02 18.7 C 10.73 g/m*3 18.7 C 0 km/h
2343 23-09-2010 12:44:02 19.2 C 10.55 g/m*3 19.2 C 0 km/h
2344 23-09-2010 12:56:02 19.9 C 10.82 g/m*3 19.9 C 0 km/h
2345 23-09-2010 13:08:02 20.5 C 11.03 g/m*3 20.5 C 0 km/h
2346 23-09-2010 13:20:02 21.4 C 11.06 g/m*3 21.4 C 0 km/h
2347 23-09-2010 13:32:01 22.3 C 11.26 g/m*3 22.3 C 0 km/h
2348 23-09-2010 13:44:01 23.3 C 10.66 g/m*3 23.3 C 0 km/h
2349 23-09-2010 13:56:02 24 C 9.14 g/m*3 24 C 0 km/h
2350 23-09-2010 14:08:01 24.5 C 9.62 g/m*3 24.5 C 0 km/h
Sensor: Nr:Datum:Temp:Abs-Feuchte:Windchill:Wind:
Aussen-T/F 2351 23-09-2010 14:20:02 23.8 C 10.11 g/m*3 23.8 C 0 km/h
2352 23-09-2010 14:32:02 23.7 C 10.48 g/m*3 23.7 C 0 km/h
2353 23-09-2010 14:44:02 23.8 C 10.54 g/m*3 23.8 C 0 km/h
2354 23-09-2010 14:56:02 24.5 C 10.3 g/m*3 24.5 C 0 km/h
2355 23-09-2010 15:08:02 25.2 C 8.85 g/m*3 25.2 C 0 km/h
2356 23-09-2010 15:20:02 25.2 C 9.78 g/m*3 25.2 C 0 km/h
2357 23-09-2010 15:32:02 24.8 C 9.33 g/m*3 24.8 C 0 km/h
2358 23-09-2010 15:44:03 25.1 C 9.26 g/m*3 25.1 C 0 km/h
2359 23-09-2010 15:56:01 24.9 C 9.61 g/m*3 24.9 C 0 km/h
2360 23-09-2010 16:08:02 25.1 C 10.19 g/m*3 25.1 C 0 km/h
2361 23-09-2010 16:20:01 26 C 9.74 g/m*3 26 C 0 km/h
2362 23-09-2010 16:32:01 25.6 C 9.05 g/m*3 25.6 C 0 km/h
2363 23-09-2010 16:44:01 24.9 C 10.07 g/m*3 24.9 C 0 km/h
2364 23-09-2010 16:56:01 24.1 C 10.28 g/m*3 24.1 C 0 km/h
2365 23-09-2010 17:08:01 23.7 C 10.91 g/m*3 23.7 C 0 km/h
2366 23-09-2010 17:20:02 23.4 C 10.72 g/m*3 23.4 C 0 km/h
2367 23-09-2010 17:32:01 23.2 C 10.81 g/m*3 23.2 C 0 km/h
2368 23-09-2010 17:44:01 23.3 C 10.45 g/m*3 23.3 C 0 km/h
2369 23-09-2010 17:56:02 23.8 C 10.76 g/m*3 23.8 C 0 km/h
2370 23-09-2010 18:08:01 23.3 C 10.45 g/m*3 23.3 C 0 km/h
2371 23-09-2010 18:20:02 22.6 C 10.25 g/m*3 22.6 C 0 km/h
2372 23-09-2010 18:32:01 21.7 C 10.68 g/m*3 21.7 C 0 km/h
2373 23-09-2010 18:44:01 21.6 C 10.81 g/m*3 21.6 C 0 km/h
2374 23-09-2010 18:56:02 21.4 C 10.87 g/m*3 21.4 C 0 km/h
2375 23-09-2010 19:08:02 20.9 C 10.93 g/m*3 20.9 C 0 km/h
Sensor: Nr:Datum:Temp:Abs-Feuchte:Windchill:Wind:
Aussen-T/F 2376 23-09-2010 19:20:02 20.4 C 10.97 g/m*3 20.4 C 0 km/h
2377 23-09-2010 19:32:02 19.8 C 11.1 g/m*3 19.8 C 0 km/h
2378 23-09-2010 19:44:02 19.4 C 11.18 g/m*3 19.4 C 0 km/h
2379 23-09-2010 19:56:02 19 C 11.08 g/m*3 19 C 0 km/h
2380 23-09-2010 20:08:01 18.8 C 11.43 g/m*3 18.8 C 0 km/h
2381 23-09-2010 20:20:02 18.6 C 11.3 g/m*3 18.6 C 0 km/h
2382 23-09-2010 20:32:02 18.6 C 11.3 g/m*3 18.6 C 0 km/h
2383 23-09-2010 20:44:02 18.4 C 11.32 g/m*3 18.4 C 0 km/h
2384 23-09-2010 20:56:02 18.1 C 11.12 g/m*3 18.1 C 0 km/h
2385 23-09-2010 21:08:02 18.4 C 11.48 g/m*3 18.4 C 0 km/h
2386 23-09-2010 21:20:01 18.3 C 11.41 g/m*3 18.3 C 0 km/h
2387 23-09-2010 21:32:02 18.4 C 11.64 g/m*3 18.4 C 0 km/h
2388 23-09-2010 21:44:02 18.7 C 11.53 g/m*3 18.7 C 0 km/h
2389 23-09-2010 21:57:02 18.7 C 11.37 g/m*3 18.7 C 0 km/h
2390 23-09-2010 22:09:02 18.5 C 11.23 g/m*3 18.5 C 0 km/h
2391 23-09-2010 22:21:02 18.5 C 11.39 g/m*3 18.5 C 0 km/h
2392 23-09-2010 22:33:02 17.9 C 11.6 g/m*3 17.9 C 0 km/h
2393 23-09-2010 22:45:02 17.7 C 12.52 g/m*3 17.7 C 0 km/h
2394 23-09-2010 22:57:02 17.1 C 12.23 g/m*3 17.1 C 0 km/h
2395 23-09-2010 23:09:02 16.9 C 12.37 g/m*3 16.9 C 0 km/h
2396 23-09-2010 23:21:02 16.5 C 12.22 g/m*3 16.5 C 0 km/h
2397 23-09-2010 23:33:02 16.4 C 12.28 g/m*3 16.4 C 0 km/h
2398 23-09-2010 23:45:02 16.2 C 12.14 g/m*3 16.2 C 0 km/h
2399 23-09-2010 23:57:02 16.2 C 12.27 g/m*3 16.2 C 0 km/h
2400 24-09-2010 00:09:02 16 C 12.13 g/m*3 16 C 0 km/h
Sensor: Nr:Datum:Temp:Abs-Feuchte:Windchill:Wind:
Aussen-T/F 2401 24-09-2010 00:21:02 15.9 C 12.32 g/m*3 15.9 C 0 km/h
2402 24-09-2010 00:33:02 15.6 C 12.1 g/m*3 15.6 C 0 km/h
2403 24-09-2010 00:45:02 15.5 C 12.16 g/m*3 15.5 C 0 km/h
2404 24-09-2010 00:57:02 15.5 C 12.16 g/m*3 15.5 C 0 km/h
2405 24-09-2010 01:09:02 15.5 C 12.16 g/m*3 15.5 C 0 km/h
2406 24-09-2010 01:21:02 15.5 C 12.29 g/m*3 15.5 C 0 km/h
2407 24-09-2010 01:33:02 15.6 C 12.37 g/m*3 15.6 C 0 km/h
2408 24-09-2010 01:45:02 15.6 C 12.37 g/m*3 15.6 C 0 km/h
2409 24-09-2010 01:57:03 15.5 C 12.29 g/m*3 15.5 C 0 km/h
2410 24-09-2010 02:09:03 15.5 C 12.29 g/m*3 15.5 C 0 km/h
2411 24-09-2010 02:21:03 15.5 C 12.29 g/m*3 15.5 C 0 km/h
2412 24-09-2010 02:33:03 15.4 C 12.22 g/m*3 15.4 C 0 km/h
2413 24-09-2010 02:45:03 15.3 C 12.01 g/m*3 15.3 C 0 km/h
2414 24-09-2010 02:57:03 15.2 C 11.94 g/m*3 15.2 C 0 km/h
2415 24-09-2010 03:09:03 15.1 C 11.87 g/m*3 15.1 C 0 km/h
2416 24-09-2010 03:21:03 14.9 C 11.85 g/m*3 14.9 C 0 km/h
2417 24-09-2010 03:33:03 14.9 C 11.85 g/m*3 14.9 C 0 km/h
2418 24-09-2010 03:45:03 14.9 C 11.98 g/m*3 14.9 C 0 km/h
2419 24-09-2010 03:57:03 14.9 C 11.98 g/m*3 14.9 C 0 km/h
2420 24-09-2010 04:09:03 14.8 C 11.91 g/m*3 14.8 C 0 km/h
2421 24-09-2010 04:21:03 14.8 C 11.91 g/m*3 14.8 C 0 km/h
2422 24-09-2010 04:33:03 14.8 C 11.91 g/m*3 14.8 C 0 km/h
2423 24-09-2010 04:45:03 14.8 C 11.91 g/m*3 14.8 C 0 km/h
2424 24-09-2010 04:57:03 14.7 C 11.83 g/m*3 14.7 C 0 km/h
2425 24-09-2010 05:09:03 14.5 C 11.69 g/m*3 14.5 C 0 km/h
Sensor: Nr:Datum:Temp:Abs-Feuchte:Windchill:Wind:
Aussen-T/F 2426 24-09-2010 05:21:03 14.5 C 11.69 g/m*3 14.5 C 0 km/h
2427 24-09-2010 05:33:03 14.5 C 11.69 g/m*3 14.5 C 0 km/h
2428 24-09-2010 05:45:03 14.6 C 11.76 g/m*3 14.6 C 0 km/h
2429 24-09-2010 05:57:03 14.6 C 11.76 g/m*3 14.6 C 0 km/h
2430 24-09-2010 06:09:03 14.7 C 11.83 g/m*3 14.7 C 0 km/h
2431 24-09-2010 06:21:04 14.7 C 11.83 g/m*3 14.7 C 0 km/h
2432 24-09-2010 06:33:04 14.7 C 11.83 g/m*3 14.7 C 0 km/h
2433 24-09-2010 06:45:04 14.7 C 11.83 g/m*3 14.7 C 0 km/h
2434 24-09-2010 06:57:04 14.7 C 11.83 g/m*3 14.7 C 0 km/h
2435 24-09-2010 07:09:04 14.5 C 11.69 g/m*3 14.5 C 0 km/h
2436 24-09-2010 07:21:04 14.4 C 11.62 g/m*3 14.4 C 0 km/h
2437 24-09-2010 07:33:02 14.3 C 11.55 g/m*3 14.3 C 0 km/h
2438 24-09-2010 07:45:02 14.4 C 11.62 g/m*3 14.4 C 0 km/h
2439 24-09-2010 07:57:02 14.4 C 11.62 g/m*3 14.4 C 0 km/h
2440 24-09-2010 08:09:02 14.4 C 11.62 g/m*3 14.4 C 0 km/h
2441 24-09-2010 08:21:01 14.3 C 11.55 g/m*3 14.3 C 0 km/h
2442 24-09-2010 08:33:02 14.6 C 11.89 g/m*3 14.6 C 0 km/h
2443 24-09-2010 08:45:02 14.8 C 12.03 g/m*3 14.8 C 0 km/h
2444 24-09-2010 08:57:02 14.8 C 12.03 g/m*3 14.8 C 0 km/h
2445 24-09-2010 09:09:01 14.8 C 12.03 g/m*3 14.8 C 0 km/h
2446 24-09-2010 09:21:02 14.8 C 12.03 g/m*3 14.8 C 0 km/h
2447 24-09-2010 09:33:01 14.9 C 12.11 g/m*3 14.9 C 0 km/h
2448 24-09-2010 09:45:02 14.9 C 12.11 g/m*3 14.9 C 0 km/h
2449 24-09-2010 09:57:02 15 C 12.05 g/m*3 15 C 0 km/h
2450 24-09-2010 10:09:02 15 C 12.05 g/m*3 15 C 0 km/h
Sensor: Nr:Datum:Temp:Abs-Feuchte:Windchill:Wind:
Aussen-T/F 2451 24-09-2010 10:21:02 14.9 C 12.11 g/m*3 14.9 C 0 km/h
2452 24-09-2010 10:33:02 15 C 12.05 g/m*3 15 C 0 km/h
2453 24-09-2010 10:45:01 15 C 12.05 g/m*3 15 C 0 km/h
2454 24-09-2010 10:57:01 15 C 12.05 g/m*3 15 C 0 km/h
2455 24-09-2010 11:09:02 15.1 C 12.13 g/m*3 15.1 C 0 km/h
2456 24-09-2010 11:21:01 15.1 C 12.13 g/m*3 15.1 C 0 km/h
2457 24-09-2010 11:33:01 15.4 C 12.35 g/m*3 15.4 C 0 km/h
2458 24-09-2010 11:45:02 15.4 C 12.35 g/m*3 15.4 C 0 km/h
2459 24-09-2010 11:57:02 15.1 C 12.13 g/m*3 15.1 C 0 km/h
2460 24-09-2010 12:09:02 15.1 C 12.13 g/m*3 15.1 C 0 km/h
2461 24-09-2010 12:21:02 15.1 C 12.13 g/m*3 15.1 C 0 km/h
2462 24-09-2010 12:33:03 15.4 C 12.48 g/m*3 15.4 C 0 km/h
2463 24-09-2010 12:45:02 15.1 C 12.13 g/m*3 15.1 C 0 km/h
2464 24-09-2010 12:57:03 15 C 12.05 g/m*3 15 C 0 km/h
2465 24-09-2010 13:09:02 14.8 C 11.91 g/m*3 14.8 C 0 km/h
2466 24-09-2010 13:21:02 14.6 C 11.76 g/m*3 14.6 C 0 km/h
2467 24-09-2010 13:33:02 14.5 C 11.69 g/m*3 14.5 C 0 km/h
2468 24-09-2010 13:45:02 14.5 C 11.69 g/m*3 14.5 C 0 km/h
2469 24-09-2010 13:57:02 14.4 C 11.62 g/m*3 14.4 C 0 km/h
2470 24-09-2010 14:09:03 14.1 C 11.41 g/m*3 14.1 C 0 km/h
2471 24-09-2010 14:21:02 13.8 C 11.2 g/m*3 13.8 C 0 km/h
2472 24-09-2010 14:33:03 13.5 C 10.99 g/m*3 13.5 C 0 km/h
2473 24-09-2010 14:45:02 13.2 C 10.79 g/m*3 13.2 C 0 km/h
2474 24-09-2010 14:57:02 13.1 C 10.73 g/m*3 13.1 C 0 km/h
2475 24-09-2010 15:09:02 12.9 C 10.71 g/m*3 12.9 C 0 km/h
Sensor: Nr:Datum:Temp:Abs-Feuchte:Windchill:Wind:
Aussen-T/F 2476 24-09-2010 15:21:03 13.1 C 10.73 g/m*3 13.1 C 0 km/h
2477 24-09-2010 15:33:02 13 C 10.77 g/m*3 13 C 0 km/h
2478 24-09-2010 15:45:03 13.2 C 10.91 g/m*3 13.2 C 0 km/h
2479 24-09-2010 15:57:03 13.2 C 10.91 g/m*3 13.2 C 0 km/h
2480 24-09-2010 16:09:02 13.3 C 10.98 g/m*3 13.3 C 0 km/h
2481 24-09-2010 16:21:02 13.7 C 11.25 g/m*3 13.7 C 0 km/h
2482 24-09-2010 16:33:02 14 C 11.46 g/m*3 14 C 0 km/h
2483 24-09-2010 16:45:02 14.1 C 11.53 g/m*3 14.1 C 0 km/h
2484 24-09-2010 16:57:02 13.9 C 11.39 g/m*3 13.9 C 0 km/h
2485 24-09-2010 17:09:02 13.9 C 11.39 g/m*3 13.9 C 0 km/h
2486 24-09-2010 17:21:02 13.9 C 11.39 g/m*3 13.9 C 0 km/h
2487 24-09-2010 17:33:02 13.4 C 10.93 g/m*3 13.4 C 0 km/h
2488 24-09-2010 17:45:02 13.2 C 10.79 g/m*3 13.2 C 0 km/h
2489 24-09-2010 17:57:02 13 C 10.66 g/m*3 13 C 0 km/h
2490 24-09-2010 18:09:01 13.2 C 10.79 g/m*3 13.2 C 0 km/h
2491 24-09-2010 18:21:01 13.3 C 10.86 g/m*3 13.3 C 0 km/h
2492 24-09-2010 18:33:02 13.3 C 10.86 g/m*3 13.3 C 0 km/h
2493 24-09-2010 18:45:02 13.3 C 10.86 g/m*3 13.3 C 0 km/h
2494 24-09-2010 18:57:02 13.2 C 10.79 g/m*3 13.2 C 0 km/h
2495 24-09-2010 19:09:02 13.1 C 10.73 g/m*3 13.1 C 0 km/h
2496 24-09-2010 19:21:01 12.9 C 10.71 g/m*3 12.9 C 0 km/h
2497 24-09-2010 19:33:02 12.8 C 10.64 g/m*3 12.8 C 0 km/h
2498 24-09-2010 19:45:02 12.7 C 10.58 g/m*3 12.7 C 0 km/h
2499 24-09-2010 19:57:02 12.7 C 10.58 g/m*3 12.7 C 0 km/h
2500 24-09-2010 20:09:02 12.7 C 10.58 g/m*3 12.7 C 0 km/h
Sensor: Nr:Datum:Temp:Abs-Feuchte:Windchill:Wind:
Aussen-T/F 2501 24-09-2010 20:21:01 12.7 C 10.58 g/m*3 12.7 C 0 km/h
2502 24-09-2010 20:33:02 12.7 C 10.58 g/m*3 12.7 C 0 km/h
2503 24-09-2010 20:45:01 12.7 C 10.58 g/m*3 12.7 C 0 km/h
2504 24-09-2010 20:57:01 12.7 C 10.58 g/m*3 12.7 C 0 km/h
2505 24-09-2010 21:09:02 12.8 C 10.64 g/m*3 12.8 C 0 km/h
2506 24-09-2010 21:21:02 12.8 C 10.64 g/m*3 12.8 C 0 km/h
2507 24-09-2010 21:33:02 12.9 C 10.71 g/m*3 12.9 C 0 km/h
2508 24-09-2010 21:45:02 12.8 C 10.64 g/m*3 12.8 C 0 km/h
2509 24-09-2010 21:57:02 12.8 C 10.64 g/m*3 12.8 C 0 km/h
2510 24-09-2010 22:09:01 12.8 C 10.64 g/m*3 12.8 C 0 km/h
2511 24-09-2010 22:21:02 12.8 C 10.64 g/m*3 12.8 C 0 km/h
2512 24-09-2010 22:33:02 12.7 C 10.58 g/m*3 12.7 C 0 km/h
2513 24-09-2010 22:46:04 12.6 C 10.51 g/m*3 12.6 C 0 km/h
2514 24-09-2010 22:58:04 12.6 C 10.51 g/m*3 12.6 C 0 km/h
2515 24-09-2010 23:10:04 12.5 C 10.44 g/m*3 12.5 C 0 km/h
2516 24-09-2010 23:22:04 12.4 C 10.38 g/m*3 12.4 C 0 km/h
2517 24-09-2010 23:34:04 12.4 C 10.38 g/m*3 12.4 C 0 km/h
2518 24-09-2010 23:46:04 12.3 C 10.32 g/m*3 12.3 C 0 km/h
2519 24-09-2010 23:58:04 12.4 C 10.38 g/m*3 12.4 C 0 km/h
2520 25-09-2010 00:10:04 12.4 C 10.38 g/m*3 12.4 C 0 km/h
2521 25-09-2010 00:22:04 12.5 C 10.44 g/m*3 12.5 C 0 km/h
2522 25-09-2010 00:34:04 12.5 C 10.44 g/m*3 12.5 C 0 km/h
2523 25-09-2010 00:46:04 12.5 C 10.44 g/m*3 12.5 C 0 km/h
2524 25-09-2010 00:58:05 12.5 C 10.44 g/m*3 12.5 C 0 km/h
2525 25-09-2010 01:10:05 12.5 C 10.44 g/m*3 12.5 C 0 km/h
Sensor: Nr:Datum:Temp:Abs-Feuchte:Windchill:Wind:
Aussen-T/F 2526 25-09-2010 01:22:05 12.5 C 10.44 g/m*3 12.5 C 0 km/h
2527 25-09-2010 01:34:05 12.5 C 10.44 g/m*3 12.5 C 0 km/h
2528 25-09-2010 01:46:05 12.5 C 10.44 g/m*3 12.5 C 0 km/h
2529 25-09-2010 01:58:05 12.6 C 10.51 g/m*3 12.6 C 0 km/h
2530 25-09-2010 02:10:05 12.6 C 10.51 g/m*3 12.6 C 0 km/h
2531 25-09-2010 02:22:05 12.6 C 10.51 g/m*3 12.6 C 0 km/h
2532 25-09-2010 02:34:05 12.6 C 10.51 g/m*3 12.6 C 0 km/h
2533 25-09-2010 02:46:05 12.6 C 10.51 g/m*3 12.6 C 0 km/h
2534 25-09-2010 02:58:05 12.6 C 10.51 g/m*3 12.6 C 0 km/h
2535 25-09-2010 03:10:05 12.7 C 10.58 g/m*3 12.7 C 0 km/h
2536 25-09-2010 03:22:05 12.6 C 10.51 g/m*3 12.6 C 0 km/h
2537 25-09-2010 03:34:05 12.6 C 10.51 g/m*3 12.6 C 0 km/h
2538 25-09-2010 03:46:05 12.6 C 10.51 g/m*3 12.6 C 0 km/h
2539 25-09-2010 03:58:05 12.6 C 10.51 g/m*3 12.6 C 0 km/h
2540 25-09-2010 04:10:05 12.6 C 10.51 g/m*3 12.6 C 0 km/h
2541 25-09-2010 04:22:05 12.5 C 10.44 g/m*3 12.5 C 0 km/h
2542 25-09-2010 04:34:05 12.6 C 10.51 g/m*3 12.6 C 0 km/h
2543 25-09-2010 04:46:05 12.5 C 10.44 g/m*3 12.5 C 0 km/h
2544 25-09-2010 04:58:06 12.5 C 10.44 g/m*3 12.5 C 0 km/h
2545 25-09-2010 05:10:06 12.5 C 10.44 g/m*3 12.5 C 0 km/h
2546 25-09-2010 05:22:06 12.4 C 10.38 g/m*3 12.4 C 0 km/h
2547 25-09-2010 05:34:06 12.4 C 10.38 g/m*3 12.4 C 0 km/h
2548 25-09-2010 05:46:06 12.3 C 10.32 g/m*3 12.3 C 0 km/h
2549 25-09-2010 05:58:06 12.3 C 10.21 g/m*3 12.3 C 0 km/h
2550 25-09-2010 06:10:06 12.1 C 10.08 g/m*3 12.1 C 0 km/h
Sensor: Nr:Datum:Temp:Abs-Feuchte:Windchill:Wind:
Aussen-T/F 2551 25-09-2010 06:22:06 12.1 C 10.08 g/m*3 12.1 C 0 km/h
2552 25-09-2010 06:34:06 12.1 C 10.08 g/m*3 12.1 C 0 km/h
2553 25-09-2010 06:46:06 12 C 10.02 g/m*3 12 C 0 km/h
2554 25-09-2010 06:58:06 12 C 10.02 g/m*3 12 C 0 km/h
2555 25-09-2010 07:10:06 12 C 10.02 g/m*3 12 C 0 km/h
2556 25-09-2010 07:22:06 11.9 C 9.96 g/m*3 11.9 C 0 km/h
2557 25-09-2010 07:34:06 11.9 C 9.96 g/m*3 11.9 C 0 km/h
2558 25-09-2010 07:46:02 11.8 C 9.89 g/m*3 11.8 C 0 km/h
2559 25-09-2010 07:58:02 11.8 C 9.89 g/m*3 11.8 C 0 km/h
2560 25-09-2010 08:10:02 11.7 C 9.83 g/m*3 11.7 C 0 km/h
2561 25-09-2010 08:22:02 11.6 C 9.77 g/m*3 11.6 C 0 km/h
2562 25-09-2010 08:34:02 11.2 C 9.43 g/m*3 11.2 C 0 km/h
2563 25-09-2010 08:46:02 11 C 9.31 g/m*3 11 C 0 km/h
2564 25-09-2010 08:58:02 10.8 C 9.19 g/m*3 10.8 C 0 km/h
2565 25-09-2010 09:10:01 10.6 C 9.08 g/m*3 10.6 C 0 km/h
2566 25-09-2010 09:22:02 10.4 C 8.96 g/m*3 10.4 C 0 km/h
2567 25-09-2010 09:34:02 10.5 C 8.92 g/m*3 10.5 C 0 km/h
2568 25-09-2010 09:46:02 10.5 C 8.83 g/m*3 10.5 C 0 km/h
2569 25-09-2010 09:58:02 10.4 C 8.29 g/m*3 10.4 C 0 km/h
2570 25-09-2010 10:10:03 10.5 C 8.15 g/m*3 10.5 C 0 km/h
2571 25-09-2010 10:22:02 10.8 C 8.2 g/m*3 10.8 C 0 km/h
2572 25-09-2010 10:34:02 11.1 C 8.36 g/m*3 11.1 C 0 km/h
2573 25-09-2010 10:46:01 11.3 C 8.36 g/m*3 11.3 C 0 km/h
2574 25-09-2010 10:58:01 11.5 C 8.16 g/m*3 11.5 C 0 km/h
2575 25-09-2010 11:10:02 11.6 C 7.8 g/m*3 11.6 C 0 km/h
Sensor: Nr:Datum:Temp:Abs-Feuchte:Windchill:Wind:
Aussen-T/F 2576 25-09-2010 11:22:01 12.1 C 7.72 g/m*3 12.1 C 0 km/h
2577 25-09-2010 11:34:02 12.3 C 7.38 g/m*3 12.3 C 0 km/h
2578 25-09-2010 11:46:01 12.5 C 7.26 g/m*3 12.5 C 0 km/h
2579 25-09-2010 11:58:01 13 C 7.03 g/m*3 13 C 0 km/h
2580 25-09-2010 12:10:02 12.8 C 6.83 g/m*3 12.8 C 0 km/h
2581 25-09-2010 12:22:01 12.8 C 7.06 g/m*3 12.8 C 0 km/h
2582 25-09-2010 12:34:02 12.4 C 6.88 g/m*3 12.4 C 0 km/h
2583 25-09-2010 12:46:02 11.8 C 6.84 g/m*3 11.8 C 0 km/h
2584 25-09-2010 12:58:02 12.4 C 6.88 g/m*3 12.4 C 0 km/h
2585 25-09-2010 13:10:02 12.7 C 6.68 g/m*3 12.7 C 0 km/h
2586 25-09-2010 13:22:01 13 C 6.35 g/m*3 13 C 0 km/h
2587 25-09-2010 13:34:02 13.8 C 6.43 g/m*3 13.8 C 0 km/h
2588 25-09-2010 13:46:01 13.5 C 5.38 g/m*3 13.5 C 0 km/h
2589 25-09-2010 13:58:01 13.3 C 5.31 g/m*3 13.3 C 0 km/h
2590 25-09-2010 14:10:02 13.7 C 5.45 g/m*3 13.7 C 0 km/h
2591 25-09-2010 14:22:01 13.5 C 5.5 g/m*3 13.5 C 0 km/h
2592 25-09-2010 14:34:02 13.8 C 5.36 g/m*3 13.8 C 0 km/h
2593 25-09-2010 14:46:01 14.4 C 5.32 g/m*3 14.4 C 0 km/h
2594 25-09-2010 14:58:01 15.8 C 5.12 g/m*3 15.8 C 0 km/h
2595 25-09-2010 15:10:02 14.8 C 4.43 g/m*3 14.8 C 0 km/h
2596 25-09-2010 15:22:02 14.5 C 4.6 g/m*3 14.5 C 0 km/h
2597 25-09-2010 15:34:01 15.7 C 4.68 g/m*3 15.7 C 0 km/h
2598 25-09-2010 15:46:02 15.5 C 4.63 g/m*3 15.5 C 0 km/h
2599 25-09-2010 15:58:02 14.7 C 5.04 g/m*3 14.7 C 0 km/h
2600 25-09-2010 16:10:01 14.2 C 4.88 g/m*3 14.2 C 0 km/h
Sensor: Nr:Datum:Temp:Abs-Feuchte:Windchill:Wind:
Aussen-T/F 2601 25-09-2010 16:22:02 14.4 C 5.07 g/m*3 14.4 C 0 km/h
2602 25-09-2010 16:34:01 14.7 C 5.16 g/m*3 14.7 C 0 km/h
2603 25-09-2010 16:46:02 15.6 C 4.79 g/m*3 15.6 C 0 km/h
2604 25-09-2010 16:58:02 14.7 C 4.91 g/m*3 14.7 C 0 km/h
2605 25-09-2010 17:10:02 14.3 C 4.91 g/m*3 14.3 C 0 km/h
2606 25-09-2010 17:22:02 14.8 C 5.32 g/m*3 14.8 C 0 km/h
2607 25-09-2010 17:34:03 15.6 C 5.19 g/m*3 15.6 C 0 km/h
2608 25-09-2010 17:46:02 16.8 C 5.15 g/m*3 16.8 C 0 km/h
2609 25-09-2010 17:58:02 16.5 C 4.77 g/m*3 16.5 C 0 km/h
2610 25-09-2010 18:10:01 15.4 C 4.47 g/m*3 15.4 C 0 km/h
2611 25-09-2010 18:22:01 14.3 C 4.67 g/m*3 14.3 C 0 km/h
2612 25-09-2010 18:34:02 13.9 C 4.92 g/m*3 13.9 C 0 km/h
2613 25-09-2010 18:46:02 13.8 C 5.36 g/m*3 13.8 C 0 km/h
2614 25-09-2010 18:58:02 13.7 C 5.8 g/m*3 13.7 C 0 km/h
2615 25-09-2010 19:10:02 13.5 C 5.5 g/m*3 13.5 C 0 km/h
2616 25-09-2010 19:22:02 13.1 C 5.59 g/m*3 13.1 C 0 km/h
2617 25-09-2010 19:34:02 13 C 5.67 g/m*3 13 C 0 km/h
2618 25-09-2010 19:46:02 12.7 C 5.9 g/m*3 12.7 C 0 km/h
2619 25-09-2010 19:58:02 12.6 C 6.08 g/m*3 12.6 C 0 km/h
2620 25-09-2010 20:10:02 12.5 C 5.72 g/m*3 12.5 C 0 km/h
2621 25-09-2010 20:22:02 12.2 C 5.61 g/m*3 12.2 C 0 km/h
2622 25-09-2010 20:34:02 11.8 C 5.79 g/m*3 11.8 C 0 km/h
2623 25-09-2010 20:46:02 11.1 C 6.04 g/m*3 11.1 C 0 km/h
2624 25-09-2010 20:58:02 10.9 C 6.17 g/m*3 10.9 C 0 km/h
2625 25-09-2010 21:10:02 10.4 C 6.17 g/m*3 10.4 C 0 km/h
Sensor: Nr:Datum:Temp:Abs-Feuchte:Windchill:Wind:
Aussen-T/F 2626 25-09-2010 21:22:03 10.2 C 6.28 g/m*3 10.2 C 0 km/h
2627 25-09-2010 21:34:02 10.1 C 6.34 g/m*3 10.1 C 0 km/h
2628 25-09-2010 21:46:03 10 C 6.3 g/m*3 10 C 0 km/h
2629 25-09-2010 21:58:03 9.9 C 6.44 g/m*3 9.9 C 0 km/h
2630 25-09-2010 22:10:02 9.9 C 6.54 g/m*3 9.9 C 0 km/h
2631 25-09-2010 22:22:02 10.2 C 6.57 g/m*3 10.2 C 0 km/h
2632 25-09-2010 22:34:02 10.5 C 6.69 g/m*3 10.5 C 0 km/h
2633 25-09-2010 22:46:02 10.5 C 6.69 g/m*3 10.5 C 0 km/h
2634 25-09-2010 22:58:02 10.3 C 6.9 g/m*3 10.3 C 0 km/h
2635 25-09-2010 23:10:02 9.6 C 7.15 g/m*3 9.6 C 0 km/h
2636 25-09-2010 23:22:02 9.3 C 7.28 g/m*3 9.3 C 0 km/h
2637 25-09-2010 23:34:01 9.2 C 7.5 g/m*3 9.2 C 0 km/h
2638 25-09-2010 23:46:02 9.1 C 7.45 g/m*3 9.1 C 0 km/h
2639 25-09-2010 23:58:02 9.2 C 7.59 g/m*3 9.2 C 0 km/h
2640 26-09-2010 00:10:01 9.1 C 7.63 g/m*3 9.1 C 0 km/h
2641 26-09-2010 00:22:02 9.5 C 7.92 g/m*3 9.5 C 0 km/h
2642 26-09-2010 00:34:02 9.5 C 7.92 g/m*3 9.5 C 0 km/h
2643 26-09-2010 00:46:02 9.6 C 7.79 g/m*3 9.6 C 0 km/h
2644 26-09-2010 00:58:02 9.5 C 7.55 g/m*3 9.5 C 0 km/h
2645 26-09-2010 01:10:02 9.5 C 7.37 g/m*3 9.5 C 0 km/h
2646 26-09-2010 01:22:02 9.5 C 7.28 g/m*3 9.5 C 0 km/h
2647 26-09-2010 01:34:02 9.4 C 7.15 g/m*3 9.4 C 0 km/h
2648 26-09-2010 01:46:01 9.5 C 7.19 g/m*3 9.5 C 0 km/h
2649 26-09-2010 01:58:01 9.5 C 7.19 g/m*3 9.5 C 0 km/h
2650 26-09-2010 02:10:02 9.5 C 7.19 g/m*3 9.5 C 0 km/h
Sensor: Nr:Datum:Temp:Abs-Feuchte:Windchill:Wind:
Aussen-T/F 2651 26-09-2010 02:22:01 9.5 C 7.1 g/m*3 9.5 C 0 km/h
2652 26-09-2010 02:34:01 9.3 C 7.01 g/m*3 9.3 C 0 km/h
2653 26-09-2010 02:46:01 9.4 C 6.96 g/m*3 9.4 C 0 km/h
2654 26-09-2010 02:58:01 9.4 C 6.96 g/m*3 9.4 C 0 km/h
2655 26-09-2010 03:10:01 9.3 C 6.92 g/m*3 9.3 C 0 km/h
2656 26-09-2010 03:22:01 9.3 C 7.01 g/m*3 9.3 C 0 km/h
2657 26-09-2010 03:34:01 9.3 C 7.1 g/m*3 9.3 C 0 km/h
2658 26-09-2010 03:46:01 9.1 C 7.1 g/m*3 9.1 C 0 km/h
2659 26-09-2010 03:58:01 9 C 7.23 g/m*3 9 C 0 km/h
2660 26-09-2010 04:10:01 9 C 7.32 g/m*3 9 C 0 km/h
2661 26-09-2010 04:22:01 9 C 7.23 g/m*3 9 C 0 km/h
2662 26-09-2010 04:34:02 8.9 C 7.27 g/m*3 8.9 C 0 km/h
2663 26-09-2010 04:46:01 8.7 C 7.26 g/m*3 8.7 C 0 km/h
2664 26-09-2010 04:58:01 8.8 C 7.31 g/m*3 8.8 C 0 km/h
2665 26-09-2010 05:10:02 9 C 7.32 g/m*3 9 C 0 km/h
2666 26-09-2010 05:22:01 9.1 C 7.36 g/m*3 9.1 C 0 km/h
2667 26-09-2010 05:34:01 9 C 7.32 g/m*3 9 C 0 km/h
2668 26-09-2010 05:46:01 9 C 7.32 g/m*3 9 C 0 km/h
2669 26-09-2010 05:58:01 9 C 7.32 g/m*3 9 C 0 km/h
2670 26-09-2010 06:10:02 9 C 7.32 g/m*3 9 C 0 km/h
2671 26-09-2010 06:22:01 9.1 C 7.36 g/m*3 9.1 C 0 km/h
2672 26-09-2010 06:34:01 8.8 C 7.31 g/m*3 8.8 C 0 km/h
2673 26-09-2010 06:46:01 8.8 C 7.4 g/m*3 8.8 C 0 km/h
2674 26-09-2010 06:58:01 8.8 C 7.49 g/m*3 8.8 C 0 km/h
2675 26-09-2010 07:10:01 8.8 C 7.49 g/m*3 8.8 C 0 km/h
Sensor: Nr:Datum:Temp:Abs-Feuchte:Windchill:Wind:
Aussen-T/F 2676 26-09-2010 07:22:02 8.5 C 7.26 g/m*3 8.5 C 0 km/h
2677 26-09-2010 07:34:01 8.6 C 7.39 g/m*3 8.6 C 0 km/h
2678 26-09-2010 07:46:02 8.9 C 7.62 g/m*3 8.9 C 0 km/h
2679 26-09-2010 07:58:02 9.2 C 7.5 g/m*3 9.2 C 0 km/h
2680 26-09-2010 08:10:01 9.5 C 7.55 g/m*3 9.5 C 0 km/h
2681 26-09-2010 08:22:02 9.6 C 7.33 g/m*3 9.6 C 0 km/h
2682 26-09-2010 08:34:01 9.7 C 7.19 g/m*3 9.7 C 0 km/h
2683 26-09-2010 08:46:02 9.7 C 7.19 g/m*3 9.7 C 0 km/h
2684 26-09-2010 08:58:02 9.6 C 7.24 g/m*3 9.6 C 0 km/h
2685 26-09-2010 09:10:01 9.4 C 7.24 g/m*3 9.4 C 0 km/h
2686 26-09-2010 09:22:01 9.4 C 7.33 g/m*3 9.4 C 0 km/h
2687 26-09-2010 09:34:02 10.5 C 7.57 g/m*3 10.5 C 0 km/h
2688 26-09-2010 09:46:01 11 C 7.11 g/m*3 11 C 0 km/h
2689 26-09-2010 09:58:01 11 C 6.61 g/m*3 11 C 0 km/h
2690 26-09-2010 10:10:02 11 C 6.61 g/m*3 11 C 0 km/h
2691 26-09-2010 10:22:01 11.6 C 6.76 g/m*3 11.6 C 0 km/h
2692 26-09-2010 10:34:02 12 C 6.61 g/m*3 12 C 0 km/h
2693 26-09-2010 10:46:01 11.9 C 6.78 g/m*3 11.9 C 0 km/h
2694 26-09-2010 10:58:01 12.7 C 7.01 g/m*3 12.7 C 0 km/h
2695 26-09-2010 11:10:02 12.9 C 6.42 g/m*3 12.9 C 0 km/h
2696 26-09-2010 11:22:01 13.1 C 6.5 g/m*3 13.1 C 0 km/h
2697 26-09-2010 11:34:02 13.2 C 6.66 g/m*3 13.2 C 0 km/h
2698 26-09-2010 11:46:02 13.5 C 6.32 g/m*3 13.5 C 0 km/h
2699 26-09-2010 11:58:02 13.4 C 6.28 g/m*3 13.4 C 0 km/h
2700 26-09-2010 12:10:01 14 C 6.39 g/m*3 14 C 0 km/h
Sensor: Nr:Datum:Temp:Abs-Feuchte:Windchill:Wind:
Aussen-T/F 2701 26-09-2010 12:22:02 14.3 C 6.51 g/m*3 14.3 C 0 km/h
2702 26-09-2010 12:34:01 14.6 C 6.51 g/m*3 14.6 C 0 km/h
2703 26-09-2010 12:46:01 15 C 6.28 g/m*3 15 C 0 km/h
2704 26-09-2010 12:58:01 14.5 C 6.22 g/m*3 14.5 C 0 km/h
2705 26-09-2010 13:10:02 14.5 C 6.34 g/m*3 14.5 C 0 km/h
2706 26-09-2010 13:22:01 13.2 C 7.12 g/m*3 13.2 C 0 km/h
2707 26-09-2010 13:34:01 12.6 C 7.63 g/m*3 12.6 C 0 km/h
2708 26-09-2010 13:46:01 12.4 C 8.3 g/m*3 12.4 C 0 km/h
2709 26-09-2010 13:58:01 12.3 C 8.25 g/m*3 12.3 C 0 km/h
2710 26-09-2010 14:10:01 13.2 C 8.61 g/m*3 13.2 C 0 km/h
2711 26-09-2010 14:22:01 13.4 C 8.37 g/m*3 13.4 C 0 km/h
2712 26-09-2010 14:34:01 13.3 C 8.43 g/m*3 13.3 C 0 km/h
2713 26-09-2010 14:46:01 13.2 C 8.15 g/m*3 13.2 C 0 km/h
2714 26-09-2010 14:58:01 13.4 C 7.9 g/m*3 13.4 C 0 km/h
2715 26-09-2010 15:10:01 13.6 C 7.89 g/m*3 13.6 C 0 km/h
2716 26-09-2010 15:22:02 13.9 C 8.39 g/m*3 13.9 C 0 km/h
2717 26-09-2010 15:34:01 14.4 C 8.16 g/m*3 14.4 C 0 km/h
2718 26-09-2010 15:46:02 14.5 C 7.96 g/m*3 14.5 C 0 km/h
2719 26-09-2010 15:58:02 14.5 C 8.21 g/m*3 14.5 C 0 km/h
2720 26-09-2010 16:10:01 13.7 C 7.7 g/m*3 13.7 C 0 km/h
2721 26-09-2010 16:22:02 13.8 C 7.51 g/m*3 13.8 C 0 km/h
2722 26-09-2010 16:34:01 15.7 C 7.09 g/m*3 15.7 C 0 km/h
2723 26-09-2010 16:46:01 15.5 C 6.21 g/m*3 15.5 C 0 km/h
2724 26-09-2010 16:58:01 15.9 C 6.5 g/m*3 15.9 C 0 km/h
2725 26-09-2010 17:10:01 16.1 C 6.44 g/m*3 16.1 C 0 km/h
Sensor: Nr:Datum:Temp:Abs-Feuchte:Windchill:Wind:
Aussen-T/F 2726 26-09-2010 17:22:01 15.6 C 6.38 g/m*3 15.6 C 0 km/h
2727 26-09-2010 17:34:02 15.4 C 6.7 g/m*3 15.4 C 0 km/h
2728 26-09-2010 17:46:01 14.6 C 6.76 g/m*3 14.6 C 0 km/h
2729 26-09-2010 17:58:01 14.2 C 6.72 g/m*3 14.2 C 0 km/h
2730 26-09-2010 18:10:02 13.6 C 6.83 g/m*3 13.6 C 0 km/h
2731 26-09-2010 18:22:01 13.1 C 6.85 g/m*3 13.1 C 0 km/h
2732 26-09-2010 18:34:01 12.9 C 6.99 g/m*3 12.9 C 0 km/h
2733 26-09-2010 18:46:01 12.7 C 7.01 g/m*3 12.7 C 0 km/h
2734 26-09-2010 18:58:01 12.5 C 7.04 g/m*3 12.5 C 0 km/h
2735 26-09-2010 19:10:02 12.4 C 7.1 g/m*3 12.4 C 0 km/h
2736 26-09-2010 19:22:01 12.4 C 7.1 g/m*3 12.4 C 0 km/h
2737 26-09-2010 19:34:01 12.2 C 7.01 g/m*3 12.2 C 0 km/h
2738 26-09-2010 19:46:01 12.1 C 7.18 g/m*3 12.1 C 0 km/h
2739 26-09-2010 19:58:01 12.1 C 7.08 g/m*3 12.1 C 0 km/h
2740 26-09-2010 20:10:02 12 C 7.25 g/m*3 12 C 0 km/h
2741 26-09-2010 20:22:01 11.9 C 7.31 g/m*3 11.9 C 0 km/h
2742 26-09-2010 20:34:01 11.7 C 7.22 g/m*3 11.7 C 0 km/h
2743 26-09-2010 20:46:01 11.7 C 7.22 g/m*3 11.7 C 0 km/h
2744 26-09-2010 20:58:01 11.6 C 7.07 g/m*3 11.6 C 0 km/h
2745 26-09-2010 21:10:01 11.6 C 7.07 g/m*3 11.6 C 0 km/h
2746 26-09-2010 21:22:01 11.4 C 7.08 g/m*3 11.4 C 0 km/h
2747 26-09-2010 21:34:01 11.2 C 7.1 g/m*3 11.2 C 0 km/h
2748 26-09-2010 21:46:01 10.9 C 7.16 g/m*3 10.9 C 0 km/h
2749 26-09-2010 21:58:01 10.7 C 7.17 g/m*3 10.7 C 0 km/h
2750 26-09-2010 22:10:01 10.3 C 6.99 g/m*3 10.3 C 0 km/h
Sensor: Nr:Datum:Temp:Abs-Feuchte:Windchill:Wind:
Aussen-T/F 2751 26-09-2010 22:22:01 10 C 7.05 g/m*3 10 C 0 km/h
2752 26-09-2010 22:34:01 9.7 C 7.1 g/m*3 9.7 C 0 km/h
2753 26-09-2010 22:47:04 9.3 C 7.1 g/m*3 9.3 C 0 km/h
2754 26-09-2010 22:59:04 9.2 C 7.05 g/m*3 9.2 C 0 km/h
2755 26-09-2010 23:11:04 9 C 7.05 g/m*3 9 C 0 km/h
2756 26-09-2010 23:23:04 8.9 C 7.18 g/m*3 8.9 C 0 km/h
2757 26-09-2010 23:35:04 8.9 C 7.27 g/m*3 8.9 C 0 km/h
2758 26-09-2010 23:47:04 8.8 C 7.22 g/m*3 8.8 C 0 km/h
2759 26-09-2010 23:59:04 8.6 C 7.13 g/m*3 8.6 C 0 km/h
2760 27-09-2010 00:11:04 8.5 C 7.17 g/m*3 8.5 C 0 km/h
2761 27-09-2010 00:23:04 8.2 C 7.03 g/m*3 8.2 C 0 km/h
2762 27-09-2010 00:35:04 8.1 C 6.99 g/m*3 8.1 C 0 km/h
2763 27-09-2010 00:47:04 7.9 C 6.98 g/m*3 7.9 C 0 km/h
2764 27-09-2010 00:59:04 7.9 C 7.15 g/m*3 7.9 C 0 km/h
2765 27-09-2010 01:11:04 7.8 C 7.18 g/m*3 7.8 C 0 km/h
2766 27-09-2010 01:23:04 7.6 C 7.09 g/m*3 7.6 C 0 km/h
2767 27-09-2010 01:35:04 7.5 C 7.04 g/m*3 7.5 C 0 km/h
2768 27-09-2010 01:47:04 7.3 C 6.95 g/m*3 7.3 C 0 km/h
2769 27-09-2010 01:59:04 7.1 C 6.94 g/m*3 7.1 C 0 km/h
2770 27-09-2010 02:11:04 7 C 6.9 g/m*3 7 C 0 km/h
2771 27-09-2010 02:23:04 7 C 6.9 g/m*3 7 C 0 km/h
2772 27-09-2010 02:35:05 6.8 C 6.81 g/m*3 6.8 C 0 km/h
2773 27-09-2010 02:47:05 6.7 C 6.84 g/m*3 6.7 C 0 km/h
2774 27-09-2010 02:59:05 6.7 C 6.84 g/m*3 6.7 C 0 km/h
2775 27-09-2010 03:11:05 6.5 C 6.75 g/m*3 6.5 C 0 km/h
Sensor: Nr:Datum:Temp:Abs-Feuchte:Windchill:Wind:
Aussen-T/F 2776 27-09-2010 03:23:05 6.7 C 6.84 g/m*3 6.7 C 0 km/h
2777 27-09-2010 03:35:05 6.4 C 6.71 g/m*3 6.4 C 0 km/h
2778 27-09-2010 03:47:05 6.3 C 6.66 g/m*3 6.3 C 0 km/h
2779 27-09-2010 03:59:05 6.4 C 6.78 g/m*3 6.4 C 0 km/h
2780 27-09-2010 04:11:05 6.5 C 6.9 g/m*3 6.5 C 0 km/h
2781 27-09-2010 04:23:05 6.4 C 6.85 g/m*3 6.4 C 0 km/h
2782 27-09-2010 04:35:05 6.3 C 6.81 g/m*3 6.3 C 0 km/h
2783 27-09-2010 04:47:05 6.1 C 6.72 g/m*3 6.1 C 0 km/h
2784 27-09-2010 04:59:05 5.9 C 6.71 g/m*3 5.9 C 0 km/h
2785 27-09-2010 05:11:05 5.9 C 6.71 g/m*3 5.9 C 0 km/h
2786 27-09-2010 05:23:05 6.1 C 6.72 g/m*3 6.1 C 0 km/h
2787 27-09-2010 05:35:05 6.3 C 6.81 g/m*3 6.3 C 0 km/h
2788 27-09-2010 05:47:05 6.4 C 6.93 g/m*3 6.4 C 0 km/h
2789 27-09-2010 05:59:05 6.5 C 6.97 g/m*3 6.5 C 0 km/h
2790 27-09-2010 06:11:05 6.5 C 6.97 g/m*3 6.5 C 0 km/h
2791 27-09-2010 06:23:05 6.4 C 6.93 g/m*3 6.4 C 0 km/h
2792 27-09-2010 06:35:05 6.2 C 6.84 g/m*3 6.2 C 0 km/h
2793 27-09-2010 06:47:06 6.2 C 6.84 g/m*3 6.2 C 0 km/h
2794 27-09-2010 06:59:06 6.3 C 6.88 g/m*3 6.3 C 0 km/h
2795 27-09-2010 07:11:04 6.3 C 6.88 g/m*3 6.3 C 0 km/h
2796 27-09-2010 07:23:04 6.6 C 7.02 g/m*3 6.6 C 0 km/h
2797 27-09-2010 07:35:04 6.7 C 7.14 g/m*3 6.7 C 0 km/h
2798 27-09-2010 07:47:02 6.9 C 7.24 g/m*3 6.9 C 0 km/h
2799 27-09-2010 07:59:02 7.2 C 7.38 g/m*3 7.2 C 0 km/h
2800 27-09-2010 08:11:02 7.5 C 7.52 g/m*3 7.5 C 0 km/h
Sensor: Nr:Datum:Temp:Abs-Feuchte:Windchill:Wind:
Aussen-T/F 2801 27-09-2010 08:23:02 7.5 C 7.52 g/m*3 7.5 C 0 km/h
2802 27-09-2010 08:35:02 7.6 C 7.57 g/m*3 7.6 C 0 km/h
2803 27-09-2010 08:47:02 7.8 C 7.67 g/m*3 7.8 C 0 km/h
2804 27-09-2010 08:59:02 8.1 C 7.74 g/m*3 8.1 C 0 km/h
2805 27-09-2010 09:11:02 8.5 C 7.94 g/m*3 8.5 C 0 km/h
2806 27-09-2010 09:23:02 8.8 C 8.09 g/m*3 8.8 C 0 km/h
2807 27-09-2010 09:35:02 9.2 C 8.22 g/m*3 9.2 C 0 km/h
2808 27-09-2010 09:47:01 9.6 C 8.34 g/m*3 9.6 C 0 km/h
2809 27-09-2010 09:59:01 10.1 C 8.42 g/m*3 10.1 C 0 km/h
2810 27-09-2010 10:11:02 10.4 C 8.29 g/m*3 10.4 C 0 km/h
2811 27-09-2010 10:23:01 10.4 C 7.9 g/m*3 10.4 C 0 km/h
2812 27-09-2010 10:35:02 10.8 C 7.51 g/m*3 10.8 C 0 km/h
2813 27-09-2010 10:47:01 11 C 7.11 g/m*3 11 C 0 km/h
2814 27-09-2010 10:59:01 11.2 C 6.99 g/m*3 11.2 C 0 km/h
2815 27-09-2010 11:11:02 11.7 C 7.01 g/m*3 11.7 C 0 km/h
2816 27-09-2010 11:23:01 11.8 C 6.74 g/m*3 11.8 C 0 km/h
2817 27-09-2010 11:35:02 12.2 C 6.8 g/m*3 12.2 C 0 km/h
2818 27-09-2010 11:47:01 12 C 6.61 g/m*3 12 C 0 km/h
2819 27-09-2010 11:59:01 12.2 C 6.8 g/m*3 12.2 C 0 km/h
2820 27-09-2010 12:11:02 12.4 C 6.77 g/m*3 12.4 C 0 km/h
2821 27-09-2010 12:23:01 12.8 C 6.94 g/m*3 12.8 C 0 km/h
2822 27-09-2010 12:35:02 12.8 C 6.83 g/m*3 12.8 C 0 km/h
2823 27-09-2010 12:47:01 13 C 6.8 g/m*3 13 C 0 km/h
2824 27-09-2010 12:59:01 12.9 C 6.76 g/m*3 12.9 C 0 km/h
2825 27-09-2010 13:11:02 13.1 C 6.73 g/m*3 13.1 C 0 km/h
Sensor: Nr:Datum:Temp:Abs-Feuchte:Windchill:Wind:
Aussen-T/F 2826 27-09-2010 13:23:02 13.4 C 6.97 g/m*3 13.4 C 0 km/h
2827 27-09-2010 13:35:01 13.6 C 6.71 g/m*3 13.6 C 0 km/h
2828 27-09-2010 13:47:02 13.6 C 6.71 g/m*3 13.6 C 0 km/h
2829 27-09-2010 13:59:02 13.7 C 6.51 g/m*3 13.7 C 0 km/h
2830 27-09-2010 14:11:01 13.4 C 6.51 g/m*3 13.4 C 0 km/h
2831 27-09-2010 14:23:02 13.3 C 6.7 g/m*3 13.3 C 0 km/h
2832 27-09-2010 14:35:01 13.4 C 6.74 g/m*3 13.4 C 0 km/h
2833 27-09-2010 14:47:03 13.2 C 6.77 g/m*3 13.2 C 0 km/h
2834 27-09-2010 14:59:03 13 C 6.58 g/m*3 13 C 0 km/h
2835 27-09-2010 15:11:02 13.4 C 6.74 g/m*3 13.4 C 0 km/h
2836 27-09-2010 15:23:02 13.6 C 6.59 g/m*3 13.6 C 0 km/h
2837 27-09-2010 15:35:02 13.6 C 6.47 g/m*3 13.6 C 0 km/h
2838 27-09-2010 15:47:02 13.2 C 6.66 g/m*3 13.2 C 0 km/h
2839 27-09-2010 15:59:02 13.2 C 6.77 g/m*3 13.2 C 0 km/h
2840 27-09-2010 16:11:01 13.4 C 6.97 g/m*3 13.4 C 0 km/h
2841 27-09-2010 16:23:02 13.4 C 7.44 g/m*3 13.4 C 0 km/h
2842 27-09-2010 16:35:02 13.4 C 7.44 g/m*3 13.4 C 0 km/h
2843 27-09-2010 16:47:01 13.3 C 7.05 g/m*3 13.3 C 0 km/h
2844 27-09-2010 16:59:01 13.4 C 7.09 g/m*3 13.4 C 0 km/h
2845 27-09-2010 17:11:01 13.2 C 7.58 g/m*3 13.2 C 0 km/h
2846 27-09-2010 17:23:01 13 C 7.6 g/m*3 13 C 0 km/h
2847 27-09-2010 17:35:02 12.8 C 7.73 g/m*3 12.8 C 0 km/h
2848 27-09-2010 17:47:02 12.8 C 7.84 g/m*3 12.8 C 0 km/h
2849 27-09-2010 17:59:02 12.7 C 7.68 g/m*3 12.7 C 0 km/h
2850 27-09-2010 18:11:02 12.5 C 7.59 g/m*3 12.5 C 0 km/h
Sensor: Nr:Datum:Temp:Abs-Feuchte:Windchill:Wind:
Aussen-T/F 2851 27-09-2010 18:23:01 12.3 C 7.71 g/m*3 12.3 C 0 km/h
2852 27-09-2010 18:35:02 11.9 C 7.73 g/m*3 11.9 C 0 km/h
2853 27-09-2010 18:47:02 11.7 C 7.74 g/m*3 11.7 C 0 km/h
2854 27-09-2010 18:59:02 11.3 C 7.85 g/m*3 11.3 C 0 km/h
2855 27-09-2010 19:11:02 10.8 C 8.01 g/m*3 10.8 C 0 km/h
2856 27-09-2010 19:23:02 10.7 C 8.15 g/m*3 10.7 C 0 km/h
2857 27-09-2010 19:35:02 10.5 C 8.15 g/m*3 10.5 C 0 km/h
2858 27-09-2010 19:47:02 10.5 C 8.15 g/m*3 10.5 C 0 km/h
2859 27-09-2010 19:59:02 10.4 C 8.19 g/m*3 10.4 C 0 km/h
2860 27-09-2010 20:11:02 10.3 C 8.24 g/m*3 10.3 C 0 km/h
2861 27-09-2010 20:23:02 10.3 C 8.33 g/m*3 10.3 C 0 km/h
2862 27-09-2010 20:35:02 10.3 C 8.43 g/m*3 10.3 C 0 km/h
2863 27-09-2010 20:47:01 10.3 C 8.43 g/m*3 10.3 C 0 km/h
2864 27-09-2010 20:59:01 10.3 C 8.52 g/m*3 10.3 C 0 km/h
2865 27-09-2010 21:11:02 10.4 C 8.58 g/m*3 10.4 C 0 km/h
2866 27-09-2010 21:23:01 10.2 C 8.47 g/m*3 10.2 C 0 km/h
2867 27-09-2010 21:35:02 10.3 C 8.52 g/m*3 10.3 C 0 km/h
2868 27-09-2010 21:47:02 10.4 C 8.58 g/m*3 10.4 C 0 km/h
2869 27-09-2010 21:59:03 10.4 C 8.58 g/m*3 10.4 C 0 km/h
2870 27-09-2010 22:11:02 10.4 C 8.58 g/m*3 10.4 C 0 km/h
2871 27-09-2010 22:24:10 10.4 C 8.67 g/m*3 10.4 C 0 km/h
2872 27-09-2010 22:36:10 10.2 C 8.56 g/m*3 10.2 C 0 km/h
2873 27-09-2010 22:48:10 10.2 C 8.56 g/m*3 10.2 C 0 km/h
2874 27-09-2010 23:00:10 10.2 C 8.56 g/m*3 10.2 C 0 km/h
2875 27-09-2010 23:12:10 10.2 C 8.66 g/m*3 10.2 C 0 km/h
Sensor: Nr:Datum:Temp:Abs-Feuchte:Windchill:Wind:
Aussen-T/F 2876 27-09-2010 23:24:10 10.2 C 8.66 g/m*3 10.2 C 0 km/h
2877 27-09-2010 23:36:10 10.1 C 8.61 g/m*3 10.1 C 0 km/h
2878 27-09-2010 23:48:10 10.1 C 8.7 g/m*3 10.1 C 0 km/h
2879 28-09-2010 00:00:10 10.1 C 8.7 g/m*3 10.1 C 0 km/h
2880 28-09-2010 00:12:10 10 C 8.64 g/m*3 10 C 0 km/h
2881 28-09-2010 00:24:10 10 C 8.64 g/m*3 10 C 0 km/h
2882 28-09-2010 00:36:10 10 C 8.64 g/m*3 10 C 0 km/h
2883 28-09-2010 00:48:10 9.9 C 8.78 g/m*3 9.9 C 0 km/h
2884 28-09-2010 01:00:10 10 C 8.74 g/m*3 10 C 0 km/h
2885 28-09-2010 01:12:11 10 C 8.74 g/m*3 10 C 0 km/h
2886 28-09-2010 01:24:11 10 C 8.74 g/m*3 10 C 0 km/h
2887 28-09-2010 01:36:11 10 C 8.74 g/m*3 10 C 0 km/h
2888 28-09-2010 01:48:11 9.9 C 8.78 g/m*3 9.9 C 0 km/h
2889 28-09-2010 02:00:11 9.9 C 8.78 g/m*3 9.9 C 0 km/h
2890 28-09-2010 02:12:11 9.9 C 8.78 g/m*3 9.9 C 0 km/h
2891 28-09-2010 02:24:11 9.9 C 8.78 g/m*3 9.9 C 0 km/h
2892 28-09-2010 02:36:11 9.9 C 8.78 g/m*3 9.9 C 0 km/h
2893 28-09-2010 02:48:11 9.9 C 8.78 g/m*3 9.9 C 0 km/h
2894 28-09-2010 03:00:11 9.9 C 8.87 g/m*3 9.9 C 0 km/h
2895 28-09-2010 03:12:11 9.9 C 8.87 g/m*3 9.9 C 0 km/h
2896 28-09-2010 03:24:11 9.9 C 8.87 g/m*3 9.9 C 0 km/h
2897 28-09-2010 03:36:12 9.9 C 8.87 g/m*3 9.9 C 0 km/h
2898 28-09-2010 03:48:12 9.9 C 8.87 g/m*3 9.9 C 0 km/h
2899 28-09-2010 04:00:12 9.9 C 8.87 g/m*3 9.9 C 0 km/h
2900 28-09-2010 04:12:12 9.9 C 8.87 g/m*3 9.9 C 0 km/h
Sensor: Nr:Datum:Temp:Abs-Feuchte:Windchill:Wind:
Aussen-T/F 2901 28-09-2010 04:24:12 9.9 C 8.87 g/m*3 9.9 C 0 km/h
2902 28-09-2010 04:36:12 9.9 C 8.87 g/m*3 9.9 C 0 km/h
2903 28-09-2010 04:48:12 10 C 8.83 g/m*3 10 C 0 km/h
2904 28-09-2010 05:00:12 10 C 8.93 g/m*3 10 C 0 km/h
2905 28-09-2010 05:12:12 10 C 8.93 g/m*3 10 C 0 km/h
2906 28-09-2010 05:24:12 10 C 8.93 g/m*3 10 C 0 km/h
2907 28-09-2010 05:36:12 10 C 8.93 g/m*3 10 C 0 km/h
2908 28-09-2010 05:48:12 10 C 8.93 g/m*3 10 C 0 km/h
2909 28-09-2010 06:00:12 10.1 C 8.98 g/m*3 10.1 C 0 km/h
2910 28-09-2010 06:12:12 10.1 C 8.98 g/m*3 10.1 C 0 km/h
2911 28-09-2010 06:24:12 10.1 C 8.98 g/m*3 10.1 C 0 km/h
2912 28-09-2010 06:36:12 10.1 C 8.98 g/m*3 10.1 C 0 km/h
2913 28-09-2010 06:48:12 10 C 8.93 g/m*3 10 C 0 km/h
2914 28-09-2010 07:00:12 10 C 8.93 g/m*3 10 C 0 km/h
2915 28-09-2010 07:12:12 10 C 8.93 g/m*3 10 C 0 km/h
2916 28-09-2010 07:24:12 10 C 8.93 g/m*3 10 C 0 km/h
2917 28-09-2010 07:36:13 10 C 8.93 g/m*3 10 C 0 km/h
2918 28-09-2010 07:48:01 10 C 8.93 g/m*3 10 C 0 km/h
2919 28-09-2010 08:00:01 10 C 8.93 g/m*3 10 C 0 km/h
2920 28-09-2010 08:12:02 10 C 8.93 g/m*3 10 C 0 km/h
2921 28-09-2010 08:24:02 10 C 8.93 g/m*3 10 C 0 km/h
2922 28-09-2010 08:36:02 10.1 C 8.98 g/m*3 10.1 C 0 km/h
2923 28-09-2010 08:48:03 10.1 C 8.98 g/m*3 10.1 C 0 km/h
2924 28-09-2010 09:00:03 10.1 C 8.98 g/m*3 10.1 C 0 km/h
2925 28-09-2010 09:12:03 10.2 C 9.04 g/m*3 10.2 C 0 km/h
Sensor: Nr:Datum:Temp:Abs-Feuchte:Windchill:Wind:
Aussen-T/F 2926 28-09-2010 09:24:02 10.2 C 9.04 g/m*3 10.2 C 0 km/h
2927 28-09-2010 09:36:02 10.3 C 9.1 g/m*3 10.3 C 0 km/h
2928 28-09-2010 09:48:02 10.4 C 9.16 g/m*3 10.4 C 0 km/h
2929 28-09-2010 10:00:02 10.4 C 9.16 g/m*3 10.4 C 0 km/h
2930 28-09-2010 10:12:02 10.5 C 9.21 g/m*3 10.5 C 0 km/h
2931 28-09-2010 10:24:01 10.5 C 9.21 g/m*3 10.5 C 0 km/h
2932 28-09-2010 10:36:02 10.7 C 9.33 g/m*3 10.7 C 0 km/h
2933 28-09-2010 10:48:02 10.8 C 9.39 g/m*3 10.8 C 0 km/h
2934 28-09-2010 11:00:02 11 C 9.51 g/m*3 11 C 0 km/h
2935 28-09-2010 11:12:02 11 C 9.51 g/m*3 11 C 0 km/h
2936 28-09-2010 11:24:02 11.2 C 9.63 g/m*3 11.2 C 0 km/h
2937 28-09-2010 11:36:02 11.3 C 9.69 g/m*3 11.3 C 0 km/h
2938 28-09-2010 11:48:02 11.4 C 9.75 g/m*3 11.4 C 0 km/h
2939 28-09-2010 12:00:02 11.4 C 9.75 g/m*3 11.4 C 0 km/h
2940 28-09-2010 12:12:02 11.4 C 9.65 g/m*3 11.4 C 0 km/h
2941 28-09-2010 12:24:02 11.4 C 9.65 g/m*3 11.4 C 0 km/h
2942 28-09-2010 12:36:02 11.5 C 9.71 g/m*3 11.5 C 0 km/h
2943 28-09-2010 12:48:02 11.7 C 9.83 g/m*3 11.7 C 0 km/h
2944 28-09-2010 13:00:02 11.6 C 9.67 g/m*3 11.6 C 0 km/h
2945 28-09-2010 13:12:02 11.6 C 9.67 g/m*3 11.6 C 0 km/h
2946 28-09-2010 13:24:03 11.8 C 9.79 g/m*3 11.8 C 0 km/h
2947 28-09-2010 13:36:02 11.8 C 9.68 g/m*3 11.8 C 0 km/h
2948 28-09-2010 13:48:03 11.9 C 9.74 g/m*3 11.9 C 0 km/h
2949 28-09-2010 14:00:03 11.9 C 9.74 g/m*3 11.9 C 0 km/h
2950 28-09-2010 14:12:02 11.8 C 9.68 g/m*3 11.8 C 0 km/h
Sensor: Nr:Datum:Temp:Abs-Feuchte:Windchill:Wind:
Aussen-T/F 2951 28-09-2010 14:24:02 11.7 C 9.62 g/m*3 11.7 C 0 km/h
2952 28-09-2010 14:36:02 11.7 C 9.62 g/m*3 11.7 C 0 km/h
2953 28-09-2010 14:48:02 11.7 C 9.62 g/m*3 11.7 C 0 km/h
2954 28-09-2010 15:00:02 11.7 C 9.62 g/m*3 11.7 C 0 km/h
2955 28-09-2010 15:12:02 11.7 C 9.73 g/m*3 11.7 C 0 km/h
2956 28-09-2010 15:24:02 11.7 C 9.73 g/m*3 11.7 C 0 km/h
2957 28-09-2010 15:36:02 11.8 C 9.79 g/m*3 11.8 C 0 km/h
2958 28-09-2010 15:48:02 11.8 C 9.79 g/m*3 11.8 C 0 km/h
2959 28-09-2010 16:00:02 11.8 C 9.79 g/m*3 11.8 C 0 km/h
2960 28-09-2010 16:12:01 11.8 C 9.79 g/m*3 11.8 C 0 km/h
2961 28-09-2010 16:24:01 11.8 C 9.79 g/m*3 11.8 C 0 km/h
2962 28-09-2010 16:36:02 11.9 C 9.96 g/m*3 11.9 C 0 km/h
2963 28-09-2010 16:48:02 11.9 C 9.96 g/m*3 11.9 C 0 km/h
2964 28-09-2010 17:00:02 11.9 C 9.96 g/m*3 11.9 C 0 km/h
2965 28-09-2010 17:12:02 12 C 10.02 g/m*3 12 C 0 km/h
2966 28-09-2010 17:24:02 12 C 10.02 g/m*3 12 C 0 km/h
2967 28-09-2010 17:36:02 12 C 10.02 g/m*3 12 C 0 km/h
2968 28-09-2010 17:48:02 12 C 10.02 g/m*3 12 C 0 km/h
2969 28-09-2010 18:00:02 11.9 C 9.96 g/m*3 11.9 C 0 km/h
2970 28-09-2010 18:12:02 11.9 C 9.96 g/m*3 11.9 C 0 km/h
2971 28-09-2010 18:24:02 11.9 C 10.06 g/m*3 11.9 C 0 km/h
2972 28-09-2010 18:36:02 11.8 C 10 g/m*3 11.8 C 0 km/h
2973 28-09-2010 18:48:01 11.8 C 10 g/m*3 11.8 C 0 km/h
2974 28-09-2010 19:00:01 11.8 C 10 g/m*3 11.8 C 0 km/h
2975 28-09-2010 19:12:02 11.7 C 9.94 g/m*3 11.7 C 0 km/h
Sensor: Nr:Datum:Temp:Abs-Feuchte:Windchill:Wind:
Aussen-T/F 2976 28-09-2010 19:24:01 11.7 C 9.94 g/m*3 11.7 C 0 km/h
2977 28-09-2010 19:36:01 11.7 C 9.94 g/m*3 11.7 C 0 km/h
2978 28-09-2010 19:48:01 11.7 C 9.94 g/m*3 11.7 C 0 km/h
2979 28-09-2010 20:00:01 11.6 C 9.87 g/m*3 11.6 C 0 km/h
2980 28-09-2010 20:12:02 11.6 C 9.87 g/m*3 11.6 C 0 km/h
2981 28-09-2010 20:24:02 11.6 C 9.87 g/m*3 11.6 C 0 km/h
2982 28-09-2010 20:36:01 11.6 C 9.87 g/m*3 11.6 C 0 km/h
2983 28-09-2010 20:48:01 11.6 C 9.87 g/m*3 11.6 C 0 km/h
2984 28-09-2010 21:00:01 11.6 C 9.87 g/m*3 11.6 C 0 km/h
2985 28-09-2010 21:12:01 11.6 C 9.87 g/m*3 11.6 C 0 km/h
2986 28-09-2010 21:24:02 11.6 C 9.87 g/m*3 11.6 C 0 km/h
2987 28-09-2010 21:36:01 11.5 C 9.81 g/m*3 11.5 C 0 km/h
2988 28-09-2010 21:48:03 11.6 C 9.87 g/m*3 11.6 C 0 km/h
2989 28-09-2010 22:00:03 11.6 C 9.87 g/m*3 11.6 C 0 km/h
2990 28-09-2010 22:12:02 11.6 C 9.87 g/m*3 11.6 C 0 km/h
2991 28-09-2010 22:24:03 11.6 C 9.87 g/m*3 11.6 C 0 km/h
2992 28-09-2010 22:36:02 11.7 C 9.94 g/m*3 11.7 C 0 km/h
2993 28-09-2010 22:48:03 11.6 C 9.87 g/m*3 11.6 C 0 km/h
2994 28-09-2010 23:00:03 11.6 C 9.87 g/m*3 11.6 C 0 km/h
2995 28-09-2010 23:12:02 11.6 C 9.87 g/m*3 11.6 C 0 km/h
2996 28-09-2010 23:24:02 11.6 C 9.87 g/m*3 11.6 C 0 km/h
2997 28-09-2010 23:36:02 11.6 C 9.87 g/m*3 11.6 C 0 km/h
2998 28-09-2010 23:48:02 11.6 C 9.87 g/m*3 11.6 C 0 km/h
2999 29-09-2010 00:00:02 11.6 C 9.87 g/m*3 11.6 C 0 km/h
3000 29-09-2010 00:12:02 11.7 C 9.94 g/m*3 11.7 C 0 km/h
Sensor: Nr:Datum:Temp:Abs-Feuchte:Windchill:Wind:
Aussen-T/F 3001 29-09-2010 00:24:02 11.6 C 9.87 g/m*3 11.6 C 0 km/h
3002 29-09-2010 00:36:02 11.7 C 9.94 g/m*3 11.7 C 0 km/h
3003 29-09-2010 00:48:02 11.6 C 9.87 g/m*3 11.6 C 0 km/h
3004 29-09-2010 01:00:02 11.7 C 9.94 g/m*3 11.7 C 0 km/h
3005 29-09-2010 01:12:03 11.6 C 9.87 g/m*3 11.6 C 0 km/h
3006 29-09-2010 01:24:02 11.6 C 9.87 g/m*3 11.6 C 0 km/h
3007 29-09-2010 01:36:02 11.6 C 9.87 g/m*3 11.6 C 0 km/h
3008 29-09-2010 01:48:01 11.6 C 9.87 g/m*3 11.6 C 0 km/h
3009 29-09-2010 02:00:01 11.6 C 9.87 g/m*3 11.6 C 0 km/h
3010 29-09-2010 02:12:02 11.6 C 9.87 g/m*3 11.6 C 0 km/h
3011 29-09-2010 02:24:01 11.5 C 9.81 g/m*3 11.5 C 0 km/h
3012 29-09-2010 02:36:02 11.5 C 9.81 g/m*3 11.5 C 0 km/h
3013 29-09-2010 02:48:01 11.6 C 9.87 g/m*3 11.6 C 0 km/h
3014 29-09-2010 03:00:01 11.4 C 9.75 g/m*3 11.4 C 0 km/h
3015 29-09-2010 03:12:01 11.3 C 9.69 g/m*3 11.3 C 0 km/h
3016 29-09-2010 03:24:02 11.4 C 9.75 g/m*3 11.4 C 0 km/h
3017 29-09-2010 03:36:01 11.7 C 9.94 g/m*3 11.7 C 0 km/h
3018 29-09-2010 03:48:01 11.6 C 9.87 g/m*3 11.6 C 0 km/h
3019 29-09-2010 04:00:01 11.6 C 9.87 g/m*3 11.6 C 0 km/h
3020 29-09-2010 04:12:02 11.6 C 9.87 g/m*3 11.6 C 0 km/h
3021 29-09-2010 04:24:01 11.6 C 9.87 g/m*3 11.6 C 0 km/h
3022 29-09-2010 04:36:01 11.3 C 9.69 g/m*3 11.3 C 0 km/h
3023 29-09-2010 04:48:01 11.3 C 9.69 g/m*3 11.3 C 0 km/h
3024 29-09-2010 05:00:01 11.4 C 9.75 g/m*3 11.4 C 0 km/h
3025 29-09-2010 05:12:02 11.4 C 9.75 g/m*3 11.4 C 0 km/h
Sensor: Nr:Datum:Temp:Abs-Feuchte:Windchill:Wind:
Aussen-T/F 3026 29-09-2010 05:24:01 11.4 C 9.75 g/m*3 11.4 C 0 km/h
3027 29-09-2010 05:36:01 11.4 C 9.75 g/m*3 11.4 C 0 km/h
3028 29-09-2010 05:48:01 11.4 C 9.75 g/m*3 11.4 C 0 km/h
3029 29-09-2010 06:00:01 11.7 C 9.94 g/m*3 11.7 C 0 km/h
3030 29-09-2010 06:12:01 11.6 C 9.87 g/m*3 11.6 C 0 km/h
3031 29-09-2010 06:24:02 11.5 C 9.81 g/m*3 11.5 C 0 km/h
3032 29-09-2010 06:36:01 11.5 C 9.81 g/m*3 11.5 C 0 km/h
3033 29-09-2010 06:48:02 11.3 C 9.69 g/m*3 11.3 C 0 km/h
3034 29-09-2010 07:00:02 11.1 C 9.57 g/m*3 11.1 C 0 km/h
3035 29-09-2010 07:12:01 10.8 C 9.39 g/m*3 10.8 C 0 km/h
3036 29-09-2010 07:24:02 11 C 9.51 g/m*3 11 C 0 km/h
3037 29-09-2010 07:36:01 11.2 C 9.63 g/m*3 11.2 C 0 km/h
3038 29-09-2010 07:48:02 11.1 C 9.57 g/m*3 11.1 C 0 km/h
3039 29-09-2010 08:00:02 11 C 9.51 g/m*3 11 C 0 km/h
3040 29-09-2010 08:12:01 11.2 C 9.63 g/m*3 11.2 C 0 km/h
3041 29-09-2010 08:24:01 11.2 C 9.63 g/m*3 11.2 C 0 km/h
3042 29-09-2010 08:36:01 11.1 C 9.57 g/m*3 11.1 C 0 km/h
3043 29-09-2010 08:48:02 11.4 C 9.75 g/m*3 11.4 C 0 km/h
3044 29-09-2010 09:00:02 11.6 C 9.87 g/m*3 11.6 C 0 km/h
3045 29-09-2010 09:12:01 11.2 C 9.53 g/m*3 11.2 C 0 km/h
3046 29-09-2010 09:24:01 10.8 C 9.19 g/m*3 10.8 C 0 km/h
3047 29-09-2010 09:36:02 11.7 C 9.62 g/m*3 11.7 C 0 km/h
3048 29-09-2010 09:48:01 11.9 C 9.64 g/m*3 11.9 C 0 km/h
3049 29-09-2010 10:00:01 12.1 C 9.22 g/m*3 12.1 C 0 km/h
3050 29-09-2010 10:12:02 12.5 C 8.91 g/m*3 12.5 C 0 km/h
Sensor: Nr:Datum:Temp:Abs-Feuchte:Windchill:Wind:
Aussen-T/F 3051 29-09-2010 10:24:01 12.9 C 8.79 g/m*3 12.9 C 0 km/h
3052 29-09-2010 10:36:02 13.4 C 8.95 g/m*3 13.4 C 0 km/h
3053 29-09-2010 10:48:01 13.7 C 9 g/m*3 13.7 C 0 km/h
3054 29-09-2010 11:00:01 13.8 C 8.94 g/m*3 13.8 C 0 km/h
3055 29-09-2010 11:12:02 13.7 C 8.53 g/m*3 13.7 C 0 km/h
3056 29-09-2010 11:24:01 13.8 C 8.46 g/m*3 13.8 C 0 km/h
3057 29-09-2010 11:36:01 14.1 C 8.01 g/m*3 14.1 C 0 km/h
3058 29-09-2010 11:48:01 14.4 C 8.16 g/m*3 14.4 C 0 km/h
3059 29-09-2010 12:00:01 14.5 C 8.21 g/m*3 14.5 C 0 km/h
3060 29-09-2010 12:12:01 14.6 C 8.01 g/m*3 14.6 C 0 km/h
3061 29-09-2010 12:24:01 14.1 C 7.52 g/m*3 14.1 C 0 km/h
3062 29-09-2010 12:36:01 14 C 8.08 g/m*3 14 C 0 km/h
3063 29-09-2010 12:48:01 14.8 C 8.36 g/m*3 14.8 C 0 km/h
3064 29-09-2010 13:00:01 15.4 C 8.15 g/m*3 15.4 C 0 km/h
3065 29-09-2010 13:12:01 15.7 C 7.89 g/m*3 15.7 C 0 km/h
3066 29-09-2010 13:24:02 15.8 C 7.81 g/m*3 15.8 C 0 km/h
3067 29-09-2010 13:36:01 15.9 C 7.99 g/m*3 15.9 C 0 km/h
3068 29-09-2010 13:48:02 15.9 C 7.58 g/m*3 15.9 C 0 km/h
3069 29-09-2010 14:00:02 16.3 C 7.35 g/m*3 16.3 C 0 km/h
3070 29-09-2010 14:12:01 15.6 C 7.58 g/m*3 15.6 C 0 km/h
3071 29-09-2010 14:24:02 15.8 C 7.94 g/m*3 15.8 C 0 km/h
3072 29-09-2010 14:36:01 17.4 C 7.85 g/m*3 17.4 C 0 km/h
3073 29-09-2010 14:48:02 19 C 7.33 g/m*3 19 C 0 km/h
3074 29-09-2010 15:00:02 18.8 C 6.76 g/m*3 18.8 C 0 km/h
3075 29-09-2010 15:12:01 18.8 C 6.93 g/m*3 18.8 C 0 km/h
Sensor: Nr:Datum:Temp:Abs-Feuchte:Windchill:Wind:
Aussen-T/F 3076 29-09-2010 15:24:01 18.9 C 6.97 g/m*3 18.9 C 0 km/h
3077 29-09-2010 15:36:02 19.6 C 6.92 g/m*3 19.6 C 0 km/h
3078 29-09-2010 15:48:01 19.7 C 6.79 g/m*3 19.7 C 0 km/h
3079 29-09-2010 16:00:02 18.8 C 7.41 g/m*3 18.8 C 0 km/h
3080 29-09-2010 16:12:01 18.1 C 7.26 g/m*3 18.1 C 0 km/h
3081 29-09-2010 16:24:01 18.1 C 7.57 g/m*3 18.1 C 0 km/h
3082 29-09-2010 16:36:02 17.6 C 7.95 g/m*3 17.6 C 0 km/h
3083 29-09-2010 16:48:01 18.1 C 7.88 g/m*3 18.1 C 0 km/h
3084 29-09-2010 17:00:02 19 C 7.33 g/m*3 19 C 0 km/h
3085 29-09-2010 17:12:01 19.4 C 7.01 g/m*3 19.4 C 0 km/h
3086 29-09-2010 17:24:01 18.6 C 7.16 g/m*3 18.6 C 0 km/h
3087 29-09-2010 17:36:02 17.6 C 7.95 g/m*3 17.6 C 0 km/h
3088 29-09-2010 17:48:01 16.9 C 8.05 g/m*3 16.9 C 0 km/h
3089 29-09-2010 18:00:01 15.9 C 7.58 g/m*3 15.9 C 0 km/h
3090 29-09-2010 18:12:04 15.2 C 7.92 g/m*3 15.2 C 0 km/h
3091 29-09-2010 18:24:02 14.4 C 7.91 g/m*3 14.4 C 0 km/h
3092 29-09-2010 18:36:02 14 C 7.84 g/m*3 14 C 0 km/h
3093 29-09-2010 18:48:01 13.6 C 7.89 g/m*3 13.6 C 0 km/h
3094 29-09-2010 19:00:01 13.2 C 7.81 g/m*3 13.2 C 0 km/h
3095 29-09-2010 19:12:01 13.1 C 7.76 g/m*3 13.1 C 0 km/h
3096 29-09-2010 19:24:01 13 C 7.71 g/m*3 13 C 0 km/h
3097 29-09-2010 19:36:02 13 C 7.6 g/m*3 13 C 0 km/h
3098 29-09-2010 19:48:01 13.1 C 7.53 g/m*3 13.1 C 0 km/h
3099 29-09-2010 20:00:01 13.3 C 7.63 g/m*3 13.3 C 0 km/h
3100 29-09-2010 20:12:02 13.2 C 7.81 g/m*3 13.2 C 0 km/h
Sensor: Nr:Datum:Temp:Abs-Feuchte:Windchill:Wind:
Aussen-T/F 3101 29-09-2010 20:24:01 13.2 C 7.81 g/m*3 13.2 C 0 km/h
3102 29-09-2010 20:36:02 13 C 7.6 g/m*3 13 C 0 km/h
3103 29-09-2010 20:48:01 12.9 C 7.66 g/m*3 12.9 C 0 km/h
3104 29-09-2010 21:00:01 12.9 C 7.66 g/m*3 12.9 C 0 km/h
3105 29-09-2010 21:12:02 12.8 C 7.84 g/m*3 12.8 C 0 km/h
3106 29-09-2010 21:24:01 12.4 C 7.98 g/m*3 12.4 C 0 km/h
3107 29-09-2010 21:38:05 12.2 C 8.09 g/m*3 12.2 C 0 km/h
3108 29-09-2010 21:50:05 12.2 C 8.09 g/m*3 12.2 C 0 km/h
3109 29-09-2010 22:02:05 12.3 C 8.25 g/m*3 12.3 C 0 km/h
3110 29-09-2010 22:14:05 12.4 C 8.3 g/m*3 12.4 C 0 km/h
3111 29-09-2010 22:26:05 12.4 C 8.41 g/m*3 12.4 C 0 km/h
3112 29-09-2010 22:38:06 12.5 C 8.47 g/m*3 12.5 C 0 km/h
3113 29-09-2010 22:50:06 12.3 C 8.36 g/m*3 12.3 C 0 km/h
3114 29-09-2010 23:02:06 12 C 8.21 g/m*3 12 C 0 km/h
3115 29-09-2010 23:14:06 11.8 C 8.31 g/m*3 11.8 C 0 km/h
3116 29-09-2010 23:26:06 11.8 C 8.42 g/m*3 11.8 C 0 km/h
3117 29-09-2010 23:38:06 12 C 8.31 g/m*3 12 C 0 km/h
3118 29-09-2010 23:50:06 12.2 C 8.42 g/m*3 12.2 C 0 km/h
3119 30-09-2010 00:02:06 12.4 C 8.52 g/m*3 12.4 C 0 km/h
3120 30-09-2010 00:14:06 12.3 C 8.47 g/m*3 12.3 C 0 km/h
3121 30-09-2010 00:26:06 12.1 C 8.36 g/m*3 12.1 C 0 km/h
3122 30-09-2010 00:38:06 12.1 C 8.47 g/m*3 12.1 C 0 km/h
3123 30-09-2010 00:50:06 11.9 C 8.37 g/m*3 11.9 C 0 km/h
3124 30-09-2010 01:02:06 11.7 C 8.37 g/m*3 11.7 C 0 km/h
3125 30-09-2010 01:14:06 11.8 C 7.89 g/m*3 11.8 C 0 km/h
Sensor: Nr:Datum:Temp:Abs-Feuchte:Windchill:Wind:
Aussen-T/F 3126 30-09-2010 01:26:06 11.8 C 7.79 g/m*3 11.8 C 0 km/h
3127 30-09-2010 01:38:06 12 C 7.46 g/m*3 12 C 0 km/h
3128 30-09-2010 01:50:06 12 C 7.25 g/m*3 12 C 0 km/h
3129 30-09-2010 02:02:06 12.1 C 7.4 g/m*3 12.1 C 0 km/h
3130 30-09-2010 02:14:06 11.5 C 7.54 g/m*3 11.5 C 0 km/h
3131 30-09-2010 02:26:06 11.4 C 7.7 g/m*3 11.4 C 0 km/h
3132 30-09-2010 02:38:06 11.1 C 7.66 g/m*3 11.1 C 0 km/h
3133 30-09-2010 02:50:07 11.2 C 7.8 g/m*3 11.2 C 0 km/h
3134 30-09-2010 03:02:07 11.3 C 7.85 g/m*3 11.3 C 0 km/h
3135 30-09-2010 03:14:07 11.2 C 7.91 g/m*3 11.2 C 0 km/h
3136 30-09-2010 03:26:07 11 C 7.81 g/m*3 11 C 0 km/h
3137 30-09-2010 03:38:07 11.1 C 7.86 g/m*3 11.1 C 0 km/h
3138 30-09-2010 03:50:07 11.2 C 7.91 g/m*3 11.2 C 0 km/h
3139 30-09-2010 04:02:07 11.3 C 7.96 g/m*3 11.3 C 0 km/h
3140 30-09-2010 04:14:07 11.2 C 7.91 g/m*3 11.2 C 0 km/h
3141 30-09-2010 04:26:07 11 C 7.81 g/m*3 11 C 0 km/h
3142 30-09-2010 04:38:07 10.8 C 7.81 g/m*3 10.8 C 0 km/h
3143 30-09-2010 04:50:07 10.8 C 7.91 g/m*3 10.8 C 0 km/h
3144 30-09-2010 05:02:07 10.8 C 7.91 g/m*3 10.8 C 0 km/h
3145 30-09-2010 05:14:07 10.8 C 7.91 g/m*3 10.8 C 0 km/h
3146 30-09-2010 05:26:07 10.8 C 7.81 g/m*3 10.8 C 0 km/h
3147 30-09-2010 05:38:07 10.7 C 7.76 g/m*3 10.7 C 0 km/h
3148 30-09-2010 05:50:07 10.7 C 7.56 g/m*3 10.7 C 0 km/h
3149 30-09-2010 06:02:07 10.8 C 7.31 g/m*3 10.8 C 0 km/h
3150 30-09-2010 06:14:07 10.8 C 7.31 g/m*3 10.8 C 0 km/h
Sensor: Nr:Datum:Temp:Abs-Feuchte:Windchill:Wind:
Aussen-T/F 3151 30-09-2010 06:26:07 10.7 C 7.27 g/m*3 10.7 C 0 km/h
3152 30-09-2010 06:38:05 10.6 C 7.32 g/m*3 10.6 C 0 km/h
3153 30-09-2010 06:50:02 10.6 C 7.42 g/m*3 10.6 C 0 km/h
3154 30-09-2010 07:02:02 10.7 C 7.56 g/m*3 10.7 C 0 km/h
3155 30-09-2010 07:14:02 10.7 C 7.66 g/m*3 10.7 C 0 km/h
3156 30-09-2010 07:26:02 10.6 C 7.61 g/m*3 10.6 C 0 km/h
3157 30-09-2010 07:38:02 10.6 C 7.71 g/m*3 10.6 C 0 km/h
3158 30-09-2010 07:50:01 10.7 C 7.76 g/m*3 10.7 C 0 km/h
3159 30-09-2010 08:02:01 10.7 C 7.66 g/m*3 10.7 C 0 km/h
3160 30-09-2010 08:14:02 10.9 C 7.76 g/m*3 10.9 C 0 km/h
3161 30-09-2010 08:26:01 10.9 C 7.76 g/m*3 10.9 C 0 km/h
3162 30-09-2010 08:38:01 11 C 7.81 g/m*3 11 C 0 km/h
3163 30-09-2010 08:50:01 11 C 7.81 g/m*3 11 C 0 km/h
3164 30-09-2010 09:02:01 11.2 C 7.91 g/m*3 11.2 C 0 km/h
3165 30-09-2010 09:14:01 11.4 C 8.01 g/m*3 11.4 C 0 km/h
3166 30-09-2010 09:26:01 11.4 C 7.8 g/m*3 11.4 C 0 km/h
3167 30-09-2010 09:38:01 11.5 C 7.75 g/m*3 11.5 C 0 km/h
3168 30-09-2010 09:50:02 11.5 C 7.85 g/m*3 11.5 C 0 km/h
3169 30-09-2010 10:02:02 11.4 C 8.01 g/m*3 11.4 C 0 km/h
3170 30-09-2010 10:14:02 11.4 C 8.11 g/m*3 11.4 C 0 km/h
3171 30-09-2010 10:26:03 11.7 C 8.37 g/m*3 11.7 C 0 km/h
3172 30-09-2010 10:38:02 11.8 C 8.42 g/m*3 11.8 C 0 km/h
3173 30-09-2010 10:50:02 11.9 C 8.47 g/m*3 11.9 C 0 km/h
3174 30-09-2010 11:02:02 12 C 8.42 g/m*3 12 C 0 km/h
3175 30-09-2010 11:14:02 12 C 8.42 g/m*3 12 C 0 km/h
Sensor: Nr:Datum:Temp:Abs-Feuchte:Windchill:Wind:
Aussen-T/F 3176 30-09-2010 11:26:02 11.8 C 8.42 g/m*3 11.8 C 0 km/h
3177 30-09-2010 11:38:01 11.7 C 8.47 g/m*3 11.7 C 0 km/h
3178 30-09-2010 11:50:02 11.8 C 8.63 g/m*3 11.8 C 0 km/h
3179 30-09-2010 12:02:01 11.9 C 8.79 g/m*3 11.9 C 0 km/h
3180 30-09-2010 12:14:01 11.9 C 8.9 g/m*3 11.9 C 0 km/h
3181 30-09-2010 12:26:02 12 C 8.95 g/m*3 12 C 0 km/h
3182 30-09-2010 12:38:02 12.1 C 9.01 g/m*3 12.1 C 0 km/h
3183 30-09-2010 12:50:02 12 C 9.06 g/m*3 12 C 0 km/h
3184 30-09-2010 13:02:02 12.4 C 9.4 g/m*3 12.4 C 0 km/h
3185 30-09-2010 13:14:02 12.6 C 9.51 g/m*3 12.6 C 0 km/h
3186 30-09-2010 13:26:02 12.6 C 9.51 g/m*3 12.6 C 0 km/h
3187 30-09-2010 13:38:02 12.6 C 9.62 g/m*3 12.6 C 0 km/h
3188 30-09-2010 13:50:01 12.7 C 9.68 g/m*3 12.7 C 0 km/h
3189 30-09-2010 14:02:02 12.9 C 9.81 g/m*3 12.9 C 0 km/h
3190 30-09-2010 14:14:02 13 C 9.87 g/m*3 13 C 0 km/h
3191 30-09-2010 14:26:01 12.8 C 9.86 g/m*3 12.8 C 0 km/h
3192 30-09-2010 14:38:01 12.9 C 9.92 g/m*3 12.9 C 0 km/h
3193 30-09-2010 14:50:01 13.1 C 10.04 g/m*3 13.1 C 0 km/h
3194 30-09-2010 15:02:02 13.2 C 10.1 g/m*3 13.2 C 0 km/h
3195 30-09-2010 15:14:03 13.2 C 10.1 g/m*3 13.2 C 0 km/h
3196 30-09-2010 15:26:01 13.4 C 10.23 g/m*3 13.4 C 0 km/h
3197 30-09-2010 15:38:01 13.3 C 10.17 g/m*3 13.3 C 0 km/h
3198 30-09-2010 15:50:01 13.2 C 9.99 g/m*3 13.2 C 0 km/h
3199 30-09-2010 16:02:01 13.5 C 10.29 g/m*3 13.5 C 0 km/h
3200 30-09-2010 16:14:01 13.5 C 10.29 g/m*3 13.5 C 0 km/h
Sensor: Nr:Datum:Temp:Abs-Feuchte:Windchill:Wind:
Aussen-T/F 3201 30-09-2010 16:26:02 13.6 C 10.24 g/m*3 13.6 C 0 km/h
3202 30-09-2010 16:38:01 13.3 C 10.05 g/m*3 13.3 C 0 km/h
3203 30-09-2010 16:50:03 13.1 C 9.93 g/m*3 13.1 C 0 km/h
3204 30-09-2010 17:02:02 13.1 C 9.93 g/m*3 13.1 C 0 km/h
3205 30-09-2010 17:14:02 13 C 9.98 g/m*3 13 C 0 km/h
3206 30-09-2010 17:26:02 13 C 9.98 g/m*3 13 C 0 km/h
3207 30-09-2010 17:38:02 12.9 C 10.03 g/m*3 12.9 C 0 km/h
3208 30-09-2010 17:50:02 12.8 C 9.97 g/m*3 12.8 C 0 km/h
3209 30-09-2010 18:02:02 12.7 C 9.91 g/m*3 12.7 C 0 km/h
3210 30-09-2010 18:14:02 12.5 C 9.78 g/m*3 12.5 C 0 km/h
3211 30-09-2010 18:26:02 12.5 C 9.78 g/m*3 12.5 C 0 km/h
3212 30-09-2010 18:38:02 12.4 C 9.83 g/m*3 12.4 C 0 km/h
3213 30-09-2010 18:50:01 12.3 C 9.77 g/m*3 12.3 C 0 km/h
3214 30-09-2010 19:02:02 12.2 C 9.71 g/m*3 12.2 C 0 km/h
3215 30-09-2010 19:14:02 12.1 C 9.76 g/m*3 12.1 C 0 km/h
3216 30-09-2010 19:26:02 12.1 C 9.76 g/m*3 12.1 C 0 km/h
3217 30-09-2010 19:38:02 12.2 C 9.82 g/m*3 12.2 C 0 km/h
3218 30-09-2010 19:50:02 12.1 C 9.87 g/m*3 12.1 C 0 km/h
3219 30-09-2010 20:02:02 12.2 C 9.93 g/m*3 12.2 C 0 km/h
3220 30-09-2010 20:14:02 12.2 C 9.93 g/m*3 12.2 C 0 km/h
3221 30-09-2010 20:26:02 12.1 C 9.87 g/m*3 12.1 C 0 km/h
3222 30-09-2010 20:38:01 12.1 C 9.87 g/m*3 12.1 C 0 km/h
3223 30-09-2010 20:50:02 12.2 C 10.04 g/m*3 12.2 C 0 km/h
3224 30-09-2010 21:02:01 12.1 C 9.97 g/m*3 12.1 C 0 km/h
3225 30-09-2010 21:14:01 12.1 C 9.97 g/m*3 12.1 C 0 km/h
Sensor: Nr:Datum:Temp:Abs-Feuchte:Windchill:Wind:
Aussen-T/F 3226 30-09-2010 21:26:02 12.1 C 9.97 g/m*3